<?xml version="1.0" encoding="UTF-8" standalone="no" ?>
<gpx xmlns="http://www.topografix.com/GPX/1/1" xmlns:xsi="http://www.w3.org/2001/XMLSchema-instance" xsi:schemaLocation="http://www.topografix.com/GPX/1/1 http://www.topografix.com/GPX/1/1/gpx.xsd" version="1.1" creator="VisuGPX - https://www.visugpx.com">
  <metadata>
    <name>Crozon, Les Abers, petit parcours</name>
    <desc><![CDATA[Crozon, Les Abers, petit parcours, séjour du printemps 2013  ; une organisation de [url=http://benb.eu.org]Bassée en Balade[/url].]]></desc>
  </metadata>
  <trk>
    <name><![CDATA[AVR-14-13 15:04:32]]></name>
    <trkseg>
      <trkpt lat="48.23528" lon="-4.42894">
        <ele>2.06</ele>
        <time>2013-04-14T07:21:40Z</time>
      </trkpt>
      <trkpt lat="48.23543" lon="-4.42908">
        <ele>1.1</ele>
        <time>2013-04-14T07:21:56Z</time>
      </trkpt>
      <trkpt lat="48.23545" lon="-4.42909">
        <ele>1.1</ele>
        <time>2013-04-14T07:21:58Z</time>
      </trkpt>
      <trkpt lat="48.23553" lon="-4.42915">
        <ele>0.14</ele>
        <time>2013-04-14T07:22:06Z</time>
      </trkpt>
      <trkpt lat="48.23556" lon="-4.42918">
        <ele>2.06</ele>
        <time>2013-04-14T07:22:08Z</time>
      </trkpt>
      <trkpt lat="48.23577" lon="-4.42941">
        <ele>2.54</ele>
        <time>2013-04-14T07:22:28Z</time>
      </trkpt>
      <trkpt lat="48.23592" lon="-4.42961">
        <ele>3.02</ele>
        <time>2013-04-14T07:22:43Z</time>
      </trkpt>
      <trkpt lat="48.23607" lon="-4.42971">
        <ele>2.54</ele>
        <time>2013-04-14T07:22:57Z</time>
      </trkpt>
      <trkpt lat="48.23616" lon="-4.42964">
        <ele>2.54</ele>
        <time>2013-04-14T07:23:11Z</time>
      </trkpt>
      <trkpt lat="48.23617" lon="-4.42963">
        <ele>2.54</ele>
        <time>2013-04-14T07:23:12Z</time>
      </trkpt>
      <trkpt lat="48.23636" lon="-4.42946">
        <ele>2.06</ele>
        <time>2013-04-14T07:23:29Z</time>
      </trkpt>
      <trkpt lat="48.23637" lon="-4.42945">
        <ele>2.06</ele>
        <time>2013-04-14T07:23:30Z</time>
      </trkpt>
      <trkpt lat="48.23644" lon="-4.42938">
        <ele>2.06</ele>
        <time>2013-04-14T07:23:37Z</time>
      </trkpt>
      <trkpt lat="48.23649" lon="-4.42929">
        <ele>2.06</ele>
        <time>2013-04-14T07:23:43Z</time>
      </trkpt>
      <trkpt lat="48.23663" lon="-4.42899">
        <ele>2.06</ele>
        <time>2013-04-14T07:24:02Z</time>
      </trkpt>
      <trkpt lat="48.23665" lon="-4.4289">
        <ele>2.06</ele>
        <time>2013-04-14T07:24:15Z</time>
      </trkpt>
      <trkpt lat="48.23669" lon="-4.42883">
        <ele>2.06</ele>
        <time>2013-04-14T07:24:21Z</time>
      </trkpt>
      <trkpt lat="48.23671" lon="-4.42877">
        <ele>1.58</ele>
        <time>2013-04-14T07:24:24Z</time>
      </trkpt>
      <trkpt lat="48.23677" lon="-4.42858">
        <ele>2.06</ele>
        <time>2013-04-14T07:24:38Z</time>
      </trkpt>
      <trkpt lat="48.23678" lon="-4.42838">
        <ele>2.06</ele>
        <time>2013-04-14T07:24:50Z</time>
      </trkpt>
      <trkpt lat="48.23676" lon="-4.42832">
        <ele>1.58</ele>
        <time>2013-04-14T07:24:54Z</time>
      </trkpt>
      <trkpt lat="48.23674" lon="-4.42827">
        <ele>1.58</ele>
        <time>2013-04-14T07:24:57Z</time>
      </trkpt>
      <trkpt lat="48.23662" lon="-4.4281">
        <ele>1.1</ele>
        <time>2013-04-14T07:25:11Z</time>
      </trkpt>
      <trkpt lat="48.23652" lon="-4.42794">
        <ele>1.1</ele>
        <time>2013-04-14T07:25:25Z</time>
      </trkpt>
      <trkpt lat="48.23636" lon="-4.42767">
        <ele>1.58</ele>
        <time>2013-04-14T07:25:45Z</time>
      </trkpt>
      <trkpt lat="48.23633" lon="-4.42762">
        <ele>1.58</ele>
        <time>2013-04-14T07:25:49Z</time>
      </trkpt>
      <trkpt lat="48.23615" lon="-4.42741">
        <ele>1.1</ele>
        <time>2013-04-14T07:26:07Z</time>
      </trkpt>
      <trkpt lat="48.23601" lon="-4.42725">
        <ele>1.58</ele>
        <time>2013-04-14T07:26:22Z</time>
      </trkpt>
      <trkpt lat="48.23596" lon="-4.4272">
        <ele>1.58</ele>
        <time>2013-04-14T07:26:27Z</time>
      </trkpt>
      <trkpt lat="48.23591" lon="-4.42718">
        <ele>1.58</ele>
        <time>2013-04-14T07:26:31Z</time>
      </trkpt>
      <trkpt lat="48.23588" lon="-4.42714">
        <ele>1.1</ele>
        <time>2013-04-14T07:26:35Z</time>
      </trkpt>
      <trkpt lat="48.23582" lon="-4.42708">
        <ele>1.1</ele>
        <time>2013-04-14T07:26:41Z</time>
      </trkpt>
      <trkpt lat="48.23579" lon="-4.42706">
        <ele>1.1</ele>
        <time>2013-04-14T07:26:43Z</time>
      </trkpt>
      <trkpt lat="48.2357" lon="-4.42699">
        <ele>0.62</ele>
        <time>2013-04-14T07:26:52Z</time>
      </trkpt>
      <trkpt lat="48.23559" lon="-4.42695">
        <ele>0.14</ele>
        <time>2013-04-14T07:27:03Z</time>
      </trkpt>
      <trkpt lat="48.23545" lon="-4.42712">
        <ele>1.58</ele>
        <time>2013-04-14T07:27:20Z</time>
      </trkpt>
      <trkpt lat="48.23536" lon="-4.42738">
        <ele>2.06</ele>
        <time>2013-04-14T07:27:36Z</time>
      </trkpt>
      <trkpt lat="48.23527" lon="-4.42761">
        <ele>3.5</ele>
        <time>2013-04-14T07:27:51Z</time>
      </trkpt>
      <trkpt lat="48.23526" lon="-4.42762">
        <ele>3.02</ele>
        <time>2013-04-14T07:27:52Z</time>
      </trkpt>
      <trkpt lat="48.23516" lon="-4.42785">
        <ele>2.06</ele>
        <time>2013-04-14T07:28:09Z</time>
      </trkpt>
      <trkpt lat="48.23502" lon="-4.42808">
        <ele>2.06</ele>
        <time>2013-04-14T07:28:26Z</time>
      </trkpt>
      <trkpt lat="48.2349" lon="-4.42827">
        <ele>1.1</ele>
        <time>2013-04-14T07:28:42Z</time>
      </trkpt>
      <trkpt lat="48.23483" lon="-4.42837">
        <ele>1.58</ele>
        <time>2013-04-14T07:28:55Z</time>
      </trkpt>
      <trkpt lat="48.2348" lon="-4.42844">
        <ele>2.54</ele>
        <time>2013-04-14T07:29:09Z</time>
      </trkpt>
      <trkpt lat="48.23482" lon="-4.42844">
        <ele>2.06</ele>
        <time>2013-04-14T07:29:30Z</time>
      </trkpt>
      <trkpt lat="48.23482" lon="-4.42843">
        <ele>2.54</ele>
        <time>2013-04-14T07:30:00Z</time>
      </trkpt>
      <trkpt lat="48.23479" lon="-4.42842">
        <ele>2.54</ele>
        <time>2013-04-14T07:30:22Z</time>
      </trkpt>
      <trkpt lat="48.23478" lon="-4.42843">
        <ele>2.54</ele>
        <time>2013-04-14T07:30:25Z</time>
      </trkpt>
      <trkpt lat="48.23472" lon="-4.42848">
        <ele>2.06</ele>
        <time>2013-04-14T07:30:32Z</time>
      </trkpt>
      <trkpt lat="48.2346" lon="-4.42852">
        <ele>2.06</ele>
        <time>2013-04-14T07:30:48Z</time>
      </trkpt>
      <trkpt lat="48.23458" lon="-4.42853">
        <ele>2.54</ele>
        <time>2013-04-14T07:30:50Z</time>
      </trkpt>
      <trkpt lat="48.23441" lon="-4.42863">
        <ele>2.06</ele>
        <time>2013-04-14T07:31:07Z</time>
      </trkpt>
      <trkpt lat="48.23425" lon="-4.42875">
        <ele>2.06</ele>
        <time>2013-04-14T07:31:23Z</time>
      </trkpt>
      <trkpt lat="48.23414" lon="-4.42887">
        <ele>2.06</ele>
        <time>2013-04-14T07:31:38Z</time>
      </trkpt>
      <trkpt lat="48.234" lon="-4.42902">
        <ele>2.06</ele>
        <time>2013-04-14T07:31:56Z</time>
      </trkpt>
      <trkpt lat="48.23393" lon="-4.42906">
        <ele>1.58</ele>
        <time>2013-04-14T07:32:04Z</time>
      </trkpt>
      <trkpt lat="48.23379" lon="-4.42917">
        <ele>1.58</ele>
        <time>2013-04-14T07:32:22Z</time>
      </trkpt>
      <trkpt lat="48.23373" lon="-4.42919">
        <ele>1.58</ele>
        <time>2013-04-14T07:32:29Z</time>
      </trkpt>
      <trkpt lat="48.2336" lon="-4.4293">
        <ele>1.58</ele>
        <time>2013-04-14T07:32:41Z</time>
      </trkpt>
      <trkpt lat="48.23344" lon="-4.42947">
        <ele>2.06</ele>
        <time>2013-04-14T07:32:59Z</time>
      </trkpt>
      <trkpt lat="48.23331" lon="-4.42957">
        <ele>1.58</ele>
        <time>2013-04-14T07:33:12Z</time>
      </trkpt>
      <trkpt lat="48.23327" lon="-4.42962">
        <ele>2.06</ele>
        <time>2013-04-14T07:33:17Z</time>
      </trkpt>
      <trkpt lat="48.23315" lon="-4.42981">
        <ele>2.06</ele>
        <time>2013-04-14T07:33:32Z</time>
      </trkpt>
      <trkpt lat="48.23303" lon="-4.43006">
        <ele>1.58</ele>
        <time>2013-04-14T07:33:51Z</time>
      </trkpt>
      <trkpt lat="48.23287" lon="-4.43018">
        <ele>2.54</ele>
        <time>2013-04-14T07:34:08Z</time>
      </trkpt>
      <trkpt lat="48.23275" lon="-4.43027">
        <ele>2.06</ele>
        <time>2013-04-14T07:34:20Z</time>
      </trkpt>
      <trkpt lat="48.23267" lon="-4.43033">
        <ele>1.58</ele>
        <time>2013-04-14T07:34:28Z</time>
      </trkpt>
      <trkpt lat="48.23264" lon="-4.43033">
        <ele>2.06</ele>
        <time>2013-04-14T07:34:31Z</time>
      </trkpt>
      <trkpt lat="48.23248" lon="-4.43044">
        <ele>2.06</ele>
        <time>2013-04-14T07:34:50Z</time>
      </trkpt>
      <trkpt lat="48.23233" lon="-4.43055">
        <ele>2.06</ele>
        <time>2013-04-14T07:35:04Z</time>
      </trkpt>
      <trkpt lat="48.23218" lon="-4.43066">
        <ele>2.54</ele>
        <time>2013-04-14T07:35:20Z</time>
      </trkpt>
      <trkpt lat="48.23205" lon="-4.43073">
        <ele>2.54</ele>
        <time>2013-04-14T07:35:33Z</time>
      </trkpt>
      <trkpt lat="48.232" lon="-4.43077">
        <ele>2.06</ele>
        <time>2013-04-14T07:35:39Z</time>
      </trkpt>
      <trkpt lat="48.23189" lon="-4.43081">
        <ele>3.02</ele>
        <time>2013-04-14T07:35:58Z</time>
      </trkpt>
      <trkpt lat="48.23189" lon="-4.43081">
        <ele>3.02</ele>
        <time>2013-04-14T07:36:33Z</time>
      </trkpt>
      <trkpt lat="48.23175" lon="-4.43087">
        <ele>2.06</ele>
        <time>2013-04-14T07:37:08Z</time>
      </trkpt>
      <trkpt lat="48.23154" lon="-4.43093">
        <ele>2.06</ele>
        <time>2013-04-14T07:37:25Z</time>
      </trkpt>
      <trkpt lat="48.23135" lon="-4.43097">
        <ele>3.02</ele>
        <time>2013-04-14T07:37:41Z</time>
      </trkpt>
      <trkpt lat="48.23118" lon="-4.43093">
        <ele>2.54</ele>
        <time>2013-04-14T07:37:56Z</time>
      </trkpt>
      <trkpt lat="48.231" lon="-4.43087">
        <ele>2.06</ele>
        <time>2013-04-14T07:38:10Z</time>
      </trkpt>
      <trkpt lat="48.23084" lon="-4.43094">
        <ele>2.06</ele>
        <time>2013-04-14T07:38:24Z</time>
      </trkpt>
      <trkpt lat="48.23074" lon="-4.43097">
        <ele>1.58</ele>
        <time>2013-04-14T07:38:32Z</time>
      </trkpt>
      <trkpt lat="48.2307" lon="-4.43099">
        <ele>1.1</ele>
        <time>2013-04-14T07:38:37Z</time>
      </trkpt>
      <trkpt lat="48.23052" lon="-4.43119">
        <ele>2.06</ele>
        <time>2013-04-14T07:38:54Z</time>
      </trkpt>
      <trkpt lat="48.23047" lon="-4.43125">
        <ele>2.54</ele>
        <time>2013-04-14T07:39:00Z</time>
      </trkpt>
      <trkpt lat="48.23043" lon="-4.43132">
        <ele>1.58</ele>
        <time>2013-04-14T07:39:04Z</time>
      </trkpt>
      <trkpt lat="48.23042" lon="-4.4314">
        <ele>2.54</ele>
        <time>2013-04-14T07:39:09Z</time>
      </trkpt>
      <trkpt lat="48.23026" lon="-4.43162">
        <ele>3.02</ele>
        <time>2013-04-14T07:39:27Z</time>
      </trkpt>
      <trkpt lat="48.23013" lon="-4.43183">
        <ele>2.54</ele>
        <time>2013-04-14T07:39:45Z</time>
      </trkpt>
      <trkpt lat="48.23004" lon="-4.43196">
        <ele>2.06</ele>
        <time>2013-04-14T07:39:58Z</time>
      </trkpt>
      <trkpt lat="48.22995" lon="-4.43217">
        <ele>1.58</ele>
        <time>2013-04-14T07:40:15Z</time>
      </trkpt>
      <trkpt lat="48.22995" lon="-4.43218">
        <ele>2.06</ele>
        <time>2013-04-14T07:40:16Z</time>
      </trkpt>
      <trkpt lat="48.22992" lon="-4.43222">
        <ele>2.06</ele>
        <time>2013-04-14T07:40:20Z</time>
      </trkpt>
      <trkpt lat="48.22991" lon="-4.43226">
        <ele>2.06</ele>
        <time>2013-04-14T07:40:23Z</time>
      </trkpt>
      <trkpt lat="48.22982" lon="-4.43241">
        <ele>1.58</ele>
        <time>2013-04-14T07:40:38Z</time>
      </trkpt>
      <trkpt lat="48.22975" lon="-4.43246">
        <ele>2.54</ele>
        <time>2013-04-14T07:40:53Z</time>
      </trkpt>
      <trkpt lat="48.22974" lon="-4.43246">
        <ele>1.58</ele>
        <time>2013-04-14T07:41:09Z</time>
      </trkpt>
      <trkpt lat="48.22974" lon="-4.43246">
        <ele>-4.19</ele>
        <time>2013-04-14T07:41:10Z</time>
      </trkpt>
      <trkpt lat="48.22974" lon="-4.43246">
        <ele>-0.34</ele>
        <time>2013-04-14T07:41:11Z</time>
      </trkpt>
      <trkpt lat="48.22974" lon="-4.43246">
        <ele>2.06</ele>
        <time>2013-04-14T07:41:13Z</time>
      </trkpt>
      <trkpt lat="48.22985" lon="-4.43242">
        <ele>2.06</ele>
        <time>2013-04-14T07:41:29Z</time>
      </trkpt>
      <trkpt lat="48.22994" lon="-4.43222">
        <ele>2.06</ele>
        <time>2013-04-14T07:41:45Z</time>
      </trkpt>
      <trkpt lat="48.22997" lon="-4.43215">
        <ele>2.06</ele>
        <time>2013-04-14T07:41:50Z</time>
      </trkpt>
      <trkpt lat="48.23002" lon="-4.43208">
        <ele>1.58</ele>
        <time>2013-04-14T07:41:56Z</time>
      </trkpt>
      <trkpt lat="48.23007" lon="-4.43195">
        <ele>1.58</ele>
        <time>2013-04-14T07:42:04Z</time>
      </trkpt>
      <trkpt lat="48.2301" lon="-4.4319">
        <ele>1.58</ele>
        <time>2013-04-14T07:42:08Z</time>
      </trkpt>
      <trkpt lat="48.23022" lon="-4.43177">
        <ele>1.58</ele>
        <time>2013-04-14T07:42:24Z</time>
      </trkpt>
      <trkpt lat="48.23034" lon="-4.43157">
        <ele>2.06</ele>
        <time>2013-04-14T07:42:39Z</time>
      </trkpt>
      <trkpt lat="48.23034" lon="-4.43156">
        <ele>2.06</ele>
        <time>2013-04-14T07:42:40Z</time>
      </trkpt>
      <trkpt lat="48.2304" lon="-4.43146">
        <ele>1.58</ele>
        <time>2013-04-14T07:42:47Z</time>
      </trkpt>
      <trkpt lat="48.23043" lon="-4.43139">
        <ele>2.54</ele>
        <time>2013-04-14T07:42:53Z</time>
      </trkpt>
      <trkpt lat="48.23045" lon="-4.43131">
        <ele>2.54</ele>
        <time>2013-04-14T07:43:03Z</time>
      </trkpt>
      <trkpt lat="48.23047" lon="-4.4313">
        <ele>2.54</ele>
        <time>2013-04-14T07:43:05Z</time>
      </trkpt>
      <trkpt lat="48.2305" lon="-4.43125">
        <ele>2.06</ele>
        <time>2013-04-14T07:43:09Z</time>
      </trkpt>
      <trkpt lat="48.23056" lon="-4.43117">
        <ele>2.06</ele>
        <time>2013-04-14T07:43:22Z</time>
      </trkpt>
      <trkpt lat="48.23054" lon="-4.43119">
        <ele>3.02</ele>
        <time>2013-04-14T07:43:25Z</time>
      </trkpt>
      <trkpt lat="48.23051" lon="-4.43121">
        <ele>2.54</ele>
        <time>2013-04-14T07:43:28Z</time>
      </trkpt>
      <trkpt lat="48.23044" lon="-4.43128">
        <ele>2.54</ele>
        <time>2013-04-14T07:43:43Z</time>
      </trkpt>
      <trkpt lat="48.23048" lon="-4.43127">
        <ele>2.54</ele>
        <time>2013-04-14T07:43:55Z</time>
      </trkpt>
      <trkpt lat="48.23059" lon="-4.4311">
        <ele>2.06</ele>
        <time>2013-04-14T07:44:11Z</time>
      </trkpt>
      <trkpt lat="48.23059" lon="-4.43106">
        <ele>3.02</ele>
        <time>2013-04-14T07:44:28Z</time>
      </trkpt>
      <trkpt lat="48.23059" lon="-4.43106">
        <ele>2.54</ele>
        <time>2013-04-14T07:46:10Z</time>
      </trkpt>
      <trkpt lat="48.23052" lon="-4.43105">
        <ele>5.91</ele>
        <time>2013-04-14T07:46:24Z</time>
      </trkpt>
      <trkpt lat="48.23049" lon="-4.43108">
        <ele>7.35</ele>
        <time>2013-04-14T07:46:35Z</time>
      </trkpt>
      <trkpt lat="48.23045" lon="-4.43105">
        <ele>10.71</ele>
        <time>2013-04-14T07:46:50Z</time>
      </trkpt>
      <trkpt lat="48.23045" lon="-4.43106">
        <ele>10.71</ele>
        <time>2013-04-14T07:46:51Z</time>
      </trkpt>
      <trkpt lat="48.23037" lon="-4.43113">
        <ele>12.15</ele>
        <time>2013-04-14T07:47:01Z</time>
      </trkpt>
      <trkpt lat="48.23028" lon="-4.43132">
        <ele>11.67</ele>
        <time>2013-04-14T07:47:17Z</time>
      </trkpt>
      <trkpt lat="48.23025" lon="-4.43135">
        <ele>11.67</ele>
        <time>2013-04-14T07:47:41Z</time>
      </trkpt>
      <trkpt lat="48.23018" lon="-4.4315">
        <ele>11.19</ele>
        <time>2013-04-14T07:48:26Z</time>
      </trkpt>
      <trkpt lat="48.23004" lon="-4.43166">
        <ele>11.19</ele>
        <time>2013-04-14T07:48:40Z</time>
      </trkpt>
      <trkpt lat="48.22995" lon="-4.43191">
        <ele>11.19</ele>
        <time>2013-04-14T07:48:56Z</time>
      </trkpt>
      <trkpt lat="48.22981" lon="-4.43214">
        <ele>8.79</ele>
        <time>2013-04-14T07:49:12Z</time>
      </trkpt>
      <trkpt lat="48.22971" lon="-4.43224">
        <ele>8.31</ele>
        <time>2013-04-14T07:49:24Z</time>
      </trkpt>
      <trkpt lat="48.22969" lon="-4.43226">
        <ele>8.31</ele>
        <time>2013-04-14T07:49:29Z</time>
      </trkpt>
      <trkpt lat="48.22969" lon="-4.43226">
        <ele>8.31</ele>
        <time>2013-04-14T07:49:36Z</time>
      </trkpt>
      <trkpt lat="48.22963" lon="-4.43233">
        <ele>7.35</ele>
        <time>2013-04-14T07:49:47Z</time>
      </trkpt>
      <trkpt lat="48.22959" lon="-4.43233">
        <ele>6.87</ele>
        <time>2013-04-14T07:49:50Z</time>
      </trkpt>
      <trkpt lat="48.22953" lon="-4.43234">
        <ele>6.87</ele>
        <time>2013-04-14T07:49:55Z</time>
      </trkpt>
      <trkpt lat="48.22944" lon="-4.43237">
        <ele>8.31</ele>
        <time>2013-04-14T07:50:03Z</time>
      </trkpt>
      <trkpt lat="48.22926" lon="-4.43256">
        <ele>7.35</ele>
        <time>2013-04-14T07:50:22Z</time>
      </trkpt>
      <trkpt lat="48.22921" lon="-4.4326">
        <ele>7.35</ele>
        <time>2013-04-14T07:50:26Z</time>
      </trkpt>
      <trkpt lat="48.22904" lon="-4.43264">
        <ele>8.31</ele>
        <time>2013-04-14T07:50:42Z</time>
      </trkpt>
      <trkpt lat="48.22903" lon="-4.43263">
        <ele>8.79</ele>
        <time>2013-04-14T07:50:43Z</time>
      </trkpt>
      <trkpt lat="48.229" lon="-4.43263">
        <ele>8.31</ele>
        <time>2013-04-14T07:50:46Z</time>
      </trkpt>
      <trkpt lat="48.22898" lon="-4.43263">
        <ele>7.35</ele>
        <time>2013-04-14T07:50:48Z</time>
      </trkpt>
      <trkpt lat="48.22894" lon="-4.43264">
        <ele>7.83</ele>
        <time>2013-04-14T07:50:55Z</time>
      </trkpt>
      <trkpt lat="48.22892" lon="-4.43267">
        <ele>8.31</ele>
        <time>2013-04-14T07:50:58Z</time>
      </trkpt>
      <trkpt lat="48.2289" lon="-4.43268">
        <ele>8.79</ele>
        <time>2013-04-14T07:51:00Z</time>
      </trkpt>
      <trkpt lat="48.22881" lon="-4.43278">
        <ele>8.31</ele>
        <time>2013-04-14T07:51:16Z</time>
      </trkpt>
      <trkpt lat="48.22881" lon="-4.43278">
        <ele>9.27</ele>
        <time>2013-04-14T07:51:20Z</time>
      </trkpt>
      <trkpt lat="48.22875" lon="-4.43284">
        <ele>9.27</ele>
        <time>2013-04-14T07:51:30Z</time>
      </trkpt>
      <trkpt lat="48.22866" lon="-4.43291">
        <ele>8.79</ele>
        <time>2013-04-14T07:51:39Z</time>
      </trkpt>
      <trkpt lat="48.22857" lon="-4.43299">
        <ele>8.79</ele>
        <time>2013-04-14T07:51:53Z</time>
      </trkpt>
      <trkpt lat="48.22851" lon="-4.43309">
        <ele>8.31</ele>
        <time>2013-04-14T07:52:06Z</time>
      </trkpt>
      <trkpt lat="48.22851" lon="-4.43313">
        <ele>7.83</ele>
        <time>2013-04-14T07:52:13Z</time>
      </trkpt>
      <trkpt lat="48.22849" lon="-4.4332">
        <ele>7.35</ele>
        <time>2013-04-14T07:52:29Z</time>
      </trkpt>
      <trkpt lat="48.22849" lon="-4.4332">
        <ele>7.83</ele>
        <time>2013-04-14T07:53:04Z</time>
      </trkpt>
      <trkpt lat="48.22849" lon="-4.4332">
        <ele>7.83</ele>
        <time>2013-04-14T07:53:29Z</time>
      </trkpt>
      <trkpt lat="48.22849" lon="-4.43317">
        <ele>7.35</ele>
        <time>2013-04-14T07:53:56Z</time>
      </trkpt>
      <trkpt lat="48.22849" lon="-4.43314">
        <ele>7.83</ele>
        <time>2013-04-14T07:54:21Z</time>
      </trkpt>
      <trkpt lat="48.22853" lon="-4.43311">
        <ele>7.83</ele>
        <time>2013-04-14T07:54:34Z</time>
      </trkpt>
      <trkpt lat="48.22854" lon="-4.43305">
        <ele>7.83</ele>
        <time>2013-04-14T07:54:38Z</time>
      </trkpt>
      <trkpt lat="48.22862" lon="-4.43299">
        <ele>7.35</ele>
        <time>2013-04-14T07:54:46Z</time>
      </trkpt>
      <trkpt lat="48.22877" lon="-4.43284">
        <ele>7.35</ele>
        <time>2013-04-14T07:55:02Z</time>
      </trkpt>
      <trkpt lat="48.22883" lon="-4.43268">
        <ele>7.83</ele>
        <time>2013-04-14T07:55:20Z</time>
      </trkpt>
      <trkpt lat="48.22881" lon="-4.43268">
        <ele>8.79</ele>
        <time>2013-04-14T07:55:56Z</time>
      </trkpt>
      <trkpt lat="48.22881" lon="-4.43267">
        <ele>8.31</ele>
        <time>2013-04-14T07:56:38Z</time>
      </trkpt>
      <trkpt lat="48.22881" lon="-4.43267">
        <ele>8.31</ele>
        <time>2013-04-14T07:56:59Z</time>
      </trkpt>
      <trkpt lat="48.22884" lon="-4.43263">
        <ele>8.79</ele>
        <time>2013-04-14T07:57:28Z</time>
      </trkpt>
      <trkpt lat="48.2289" lon="-4.43248">
        <ele>8.79</ele>
        <time>2013-04-14T07:57:39Z</time>
      </trkpt>
      <trkpt lat="48.22891" lon="-4.43239">
        <ele>8.79</ele>
        <time>2013-04-14T07:57:55Z</time>
      </trkpt>
      <trkpt lat="48.22891" lon="-4.43239">
        <ele>9.27</ele>
        <time>2013-04-14T07:58:18Z</time>
      </trkpt>
      <trkpt lat="48.2289" lon="-4.43232">
        <ele>10.23</ele>
        <time>2013-04-14T07:58:33Z</time>
      </trkpt>
      <trkpt lat="48.22887" lon="-4.43219">
        <ele>9.75</ele>
        <time>2013-04-14T07:58:47Z</time>
      </trkpt>
      <trkpt lat="48.22884" lon="-4.4321">
        <ele>9.75</ele>
        <time>2013-04-14T07:58:54Z</time>
      </trkpt>
      <trkpt lat="48.22882" lon="-4.43206">
        <ele>10.23</ele>
        <time>2013-04-14T07:58:57Z</time>
      </trkpt>
      <trkpt lat="48.22874" lon="-4.43183">
        <ele>12.63</ele>
        <time>2013-04-14T07:59:12Z</time>
      </trkpt>
      <trkpt lat="48.22874" lon="-4.43177">
        <ele>13.12</ele>
        <time>2013-04-14T07:59:16Z</time>
      </trkpt>
      <trkpt lat="48.22874" lon="-4.43174">
        <ele>13.12</ele>
        <time>2013-04-14T07:59:18Z</time>
      </trkpt>
      <trkpt lat="48.22875" lon="-4.43171">
        <ele>13.6</ele>
        <time>2013-04-14T07:59:20Z</time>
      </trkpt>
      <trkpt lat="48.22874" lon="-4.43168">
        <ele>14.08</ele>
        <time>2013-04-14T07:59:22Z</time>
      </trkpt>
      <trkpt lat="48.22874" lon="-4.43165">
        <ele>14.08</ele>
        <time>2013-04-14T07:59:24Z</time>
      </trkpt>
      <trkpt lat="48.2287" lon="-4.43154">
        <ele>15.04</ele>
        <time>2013-04-14T07:59:41Z</time>
      </trkpt>
      <trkpt lat="48.22866" lon="-4.43143">
        <ele>15.52</ele>
        <time>2013-04-14T07:59:49Z</time>
      </trkpt>
      <trkpt lat="48.22864" lon="-4.43138">
        <ele>16</ele>
        <time>2013-04-14T07:59:52Z</time>
      </trkpt>
      <trkpt lat="48.22858" lon="-4.4312">
        <ele>16.48</ele>
        <time>2013-04-14T08:00:06Z</time>
      </trkpt>
      <trkpt lat="48.22859" lon="-4.43117">
        <ele>17.44</ele>
        <time>2013-04-14T08:00:08Z</time>
      </trkpt>
      <trkpt lat="48.22863" lon="-4.43103">
        <ele>19.36</ele>
        <time>2013-04-14T08:00:23Z</time>
      </trkpt>
      <trkpt lat="48.22868" lon="-4.43088">
        <ele>19.36</ele>
        <time>2013-04-14T08:00:42Z</time>
      </trkpt>
      <trkpt lat="48.22869" lon="-4.43084">
        <ele>19.84</ele>
        <time>2013-04-14T08:00:44Z</time>
      </trkpt>
      <trkpt lat="48.22873" lon="-4.43071">
        <ele>19.36</ele>
        <time>2013-04-14T08:00:52Z</time>
      </trkpt>
      <trkpt lat="48.22878" lon="-4.43058">
        <ele>20.81</ele>
        <time>2013-04-14T08:01:00Z</time>
      </trkpt>
      <trkpt lat="48.22882" lon="-4.43041">
        <ele>20.81</ele>
        <time>2013-04-14T08:01:11Z</time>
      </trkpt>
      <trkpt lat="48.22882" lon="-4.43038">
        <ele>20.81</ele>
        <time>2013-04-14T08:01:13Z</time>
      </trkpt>
      <trkpt lat="48.22884" lon="-4.43025">
        <ele>21.77</ele>
        <time>2013-04-14T08:01:28Z</time>
      </trkpt>
      <trkpt lat="48.22882" lon="-4.43015">
        <ele>22.25</ele>
        <time>2013-04-14T08:01:44Z</time>
      </trkpt>
      <trkpt lat="48.22872" lon="-4.43001">
        <ele>21.77</ele>
        <time>2013-04-14T08:02:02Z</time>
      </trkpt>
      <trkpt lat="48.22868" lon="-4.42997">
        <ele>20.32</ele>
        <time>2013-04-14T08:02:11Z</time>
      </trkpt>
      <trkpt lat="48.22857" lon="-4.42999">
        <ele>18.4</ele>
        <time>2013-04-14T08:02:28Z</time>
      </trkpt>
      <trkpt lat="48.22855" lon="-4.42998">
        <ele>18.4</ele>
        <time>2013-04-14T08:02:30Z</time>
      </trkpt>
      <trkpt lat="48.22852" lon="-4.42987">
        <ele>18.88</ele>
        <time>2013-04-14T08:02:41Z</time>
      </trkpt>
      <trkpt lat="48.22853" lon="-4.4298">
        <ele>19.84</ele>
        <time>2013-04-14T08:02:48Z</time>
      </trkpt>
      <trkpt lat="48.22848" lon="-4.42952">
        <ele>19.36</ele>
        <time>2013-04-14T08:03:07Z</time>
      </trkpt>
      <trkpt lat="48.22838" lon="-4.42936">
        <ele>17.44</ele>
        <time>2013-04-14T08:03:21Z</time>
      </trkpt>
      <trkpt lat="48.22842" lon="-4.42921">
        <ele>18.4</ele>
        <time>2013-04-14T08:03:37Z</time>
      </trkpt>
      <trkpt lat="48.2285" lon="-4.42906">
        <ele>18.88</ele>
        <time>2013-04-14T08:03:55Z</time>
      </trkpt>
      <trkpt lat="48.2285" lon="-4.42905">
        <ele>19.36</ele>
        <time>2013-04-14T08:03:56Z</time>
      </trkpt>
      <trkpt lat="48.22864" lon="-4.42899">
        <ele>21.29</ele>
        <time>2013-04-14T08:04:13Z</time>
      </trkpt>
      <trkpt lat="48.22872" lon="-4.42886">
        <ele>22.25</ele>
        <time>2013-04-14T08:04:23Z</time>
      </trkpt>
      <trkpt lat="48.22875" lon="-4.42868">
        <ele>21.29</ele>
        <time>2013-04-14T08:04:39Z</time>
      </trkpt>
      <trkpt lat="48.22877" lon="-4.42862">
        <ele>20.32</ele>
        <time>2013-04-14T08:05:03Z</time>
      </trkpt>
      <trkpt lat="48.22878" lon="-4.42859">
        <ele>21.29</ele>
        <time>2013-04-14T08:05:19Z</time>
      </trkpt>
      <trkpt lat="48.22884" lon="-4.42856">
        <ele>20.81</ele>
        <time>2013-04-14T08:05:31Z</time>
      </trkpt>
      <trkpt lat="48.22887" lon="-4.42855">
        <ele>21.29</ele>
        <time>2013-04-14T08:05:35Z</time>
      </trkpt>
      <trkpt lat="48.22893" lon="-4.42852">
        <ele>21.77</ele>
        <time>2013-04-14T08:05:42Z</time>
      </trkpt>
      <trkpt lat="48.2291" lon="-4.42842">
        <ele>20.32</ele>
        <time>2013-04-14T08:05:59Z</time>
      </trkpt>
      <trkpt lat="48.22921" lon="-4.42819">
        <ele>19.36</ele>
        <time>2013-04-14T08:06:15Z</time>
      </trkpt>
      <trkpt lat="48.22924" lon="-4.42804">
        <ele>20.32</ele>
        <time>2013-04-14T08:06:27Z</time>
      </trkpt>
      <trkpt lat="48.22925" lon="-4.42801">
        <ele>20.32</ele>
        <time>2013-04-14T08:06:29Z</time>
      </trkpt>
      <trkpt lat="48.22934" lon="-4.42791">
        <ele>20.81</ele>
        <time>2013-04-14T08:06:44Z</time>
      </trkpt>
      <trkpt lat="48.22941" lon="-4.42786">
        <ele>21.29</ele>
        <time>2013-04-14T08:06:52Z</time>
      </trkpt>
      <trkpt lat="48.22955" lon="-4.42779">
        <ele>21.77</ele>
        <time>2013-04-14T08:07:09Z</time>
      </trkpt>
      <trkpt lat="48.22965" lon="-4.4277">
        <ele>23.21</ele>
        <time>2013-04-14T08:07:26Z</time>
      </trkpt>
      <trkpt lat="48.22975" lon="-4.42761">
        <ele>24.65</ele>
        <time>2013-04-14T08:07:43Z</time>
      </trkpt>
      <trkpt lat="48.22978" lon="-4.42757">
        <ele>24.17</ele>
        <time>2013-04-14T08:07:46Z</time>
      </trkpt>
      <trkpt lat="48.22989" lon="-4.4274">
        <ele>25.13</ele>
        <time>2013-04-14T08:08:01Z</time>
      </trkpt>
      <trkpt lat="48.22989" lon="-4.42738">
        <ele>25.13</ele>
        <time>2013-04-14T08:08:03Z</time>
      </trkpt>
      <trkpt lat="48.22988" lon="-4.42733">
        <ele>24.17</ele>
        <time>2013-04-14T08:08:06Z</time>
      </trkpt>
      <trkpt lat="48.22989" lon="-4.42725">
        <ele>24.17</ele>
        <time>2013-04-14T08:08:11Z</time>
      </trkpt>
      <trkpt lat="48.2299" lon="-4.42722">
        <ele>24.65</ele>
        <time>2013-04-14T08:08:13Z</time>
      </trkpt>
      <trkpt lat="48.2299" lon="-4.42716">
        <ele>25.13</ele>
        <time>2013-04-14T08:08:17Z</time>
      </trkpt>
      <trkpt lat="48.22993" lon="-4.42697">
        <ele>27.05</ele>
        <time>2013-04-14T08:08:30Z</time>
      </trkpt>
      <trkpt lat="48.22994" lon="-4.42694">
        <ele>27.05</ele>
        <time>2013-04-14T08:08:32Z</time>
      </trkpt>
      <trkpt lat="48.22995" lon="-4.4267">
        <ele>28.02</ele>
        <time>2013-04-14T08:08:49Z</time>
      </trkpt>
      <trkpt lat="48.22995" lon="-4.42667">
        <ele>28.5</ele>
        <time>2013-04-14T08:08:51Z</time>
      </trkpt>
      <trkpt lat="48.22996" lon="-4.42658">
        <ele>28.98</ele>
        <time>2013-04-14T08:08:57Z</time>
      </trkpt>
      <trkpt lat="48.22997" lon="-4.4265">
        <ele>30.9</ele>
        <time>2013-04-14T08:09:02Z</time>
      </trkpt>
      <trkpt lat="48.23004" lon="-4.42639">
        <ele>33.3</ele>
        <time>2013-04-14T08:09:15Z</time>
      </trkpt>
      <trkpt lat="48.23005" lon="-4.42623">
        <ele>34.26</ele>
        <time>2013-04-14T08:09:25Z</time>
      </trkpt>
      <trkpt lat="48.23006" lon="-4.42615">
        <ele>35.23</ele>
        <time>2013-04-14T08:09:30Z</time>
      </trkpt>
      <trkpt lat="48.23008" lon="-4.42596">
        <ele>35.71</ele>
        <time>2013-04-14T08:09:46Z</time>
      </trkpt>
      <trkpt lat="48.23009" lon="-4.42576">
        <ele>37.15</ele>
        <time>2013-04-14T08:10:04Z</time>
      </trkpt>
      <trkpt lat="48.23009" lon="-4.42566">
        <ele>37.63</ele>
        <time>2013-04-14T08:10:12Z</time>
      </trkpt>
      <trkpt lat="48.23009" lon="-4.42559">
        <ele>37.63</ele>
        <time>2013-04-14T08:10:16Z</time>
      </trkpt>
      <trkpt lat="48.23007" lon="-4.42545">
        <ele>38.59</ele>
        <time>2013-04-14T08:10:23Z</time>
      </trkpt>
      <trkpt lat="48.23006" lon="-4.42528">
        <ele>39.07</ele>
        <time>2013-04-14T08:10:32Z</time>
      </trkpt>
      <trkpt lat="48.22999" lon="-4.42491">
        <ele>39.07</ele>
        <time>2013-04-14T08:10:43Z</time>
      </trkpt>
      <trkpt lat="48.22995" lon="-4.42476">
        <ele>39.07</ele>
        <time>2013-04-14T08:10:48Z</time>
      </trkpt>
      <trkpt lat="48.22985" lon="-4.42462">
        <ele>39.55</ele>
        <time>2013-04-14T08:10:54Z</time>
      </trkpt>
      <trkpt lat="48.22981" lon="-4.42406">
        <ele>39.55</ele>
        <time>2013-04-14T08:11:08Z</time>
      </trkpt>
      <trkpt lat="48.22975" lon="-4.4238">
        <ele>39.55</ele>
        <time>2013-04-14T08:11:21Z</time>
      </trkpt>
      <trkpt lat="48.22973" lon="-4.42376">
        <ele>38.59</ele>
        <time>2013-04-14T08:11:24Z</time>
      </trkpt>
      <trkpt lat="48.22973" lon="-4.42369">
        <ele>39.07</ele>
        <time>2013-04-14T08:11:32Z</time>
      </trkpt>
      <trkpt lat="48.22976" lon="-4.4238">
        <ele>40.03</ele>
        <time>2013-04-14T08:11:51Z</time>
      </trkpt>
      <trkpt lat="48.22974" lon="-4.42372">
        <ele>38.59</ele>
        <time>2013-04-14T08:12:14Z</time>
      </trkpt>
      <trkpt lat="48.22973" lon="-4.42366">
        <ele>38.11</ele>
        <time>2013-04-14T08:12:18Z</time>
      </trkpt>
      <trkpt lat="48.22972" lon="-4.42364">
        <ele>38.59</ele>
        <time>2013-04-14T08:12:19Z</time>
      </trkpt>
      <trkpt lat="48.22972" lon="-4.42356">
        <ele>36.19</ele>
        <time>2013-04-14T08:12:32Z</time>
      </trkpt>
      <trkpt lat="48.22972" lon="-4.42354">
        <ele>37.63</ele>
        <time>2013-04-14T08:12:40Z</time>
      </trkpt>
      <trkpt lat="48.22973" lon="-4.42334">
        <ele>36.67</ele>
        <time>2013-04-14T08:12:51Z</time>
      </trkpt>
      <trkpt lat="48.22972" lon="-4.42313">
        <ele>37.63</ele>
        <time>2013-04-14T08:13:06Z</time>
      </trkpt>
      <trkpt lat="48.22971" lon="-4.42312">
        <ele>35.23</ele>
        <time>2013-04-14T08:13:14Z</time>
      </trkpt>
      <trkpt lat="48.22971" lon="-4.42312">
        <ele>35.71</ele>
        <time>2013-04-14T08:13:55Z</time>
      </trkpt>
      <trkpt lat="48.2297" lon="-4.42312">
        <ele>35.71</ele>
        <time>2013-04-14T08:14:13Z</time>
      </trkpt>
      <trkpt lat="48.2297" lon="-4.42312">
        <ele>35.71</ele>
        <time>2013-04-14T08:14:14Z</time>
      </trkpt>
      <trkpt lat="48.2297" lon="-4.42312">
        <ele>35.23</ele>
        <time>2013-04-14T08:14:24Z</time>
      </trkpt>
      <trkpt lat="48.22969" lon="-4.42316">
        <ele>37.15</ele>
        <time>2013-04-14T08:14:42Z</time>
      </trkpt>
      <trkpt lat="48.2297" lon="-4.42329">
        <ele>36.19</ele>
        <time>2013-04-14T08:14:56Z</time>
      </trkpt>
      <trkpt lat="48.22969" lon="-4.42332">
        <ele>37.15</ele>
        <time>2013-04-14T08:15:07Z</time>
      </trkpt>
      <trkpt lat="48.22969" lon="-4.42332">
        <ele>35.71</ele>
        <time>2013-04-14T08:15:42Z</time>
      </trkpt>
      <trkpt lat="48.22969" lon="-4.42332">
        <ele>37.63</ele>
        <time>2013-04-14T08:16:00Z</time>
      </trkpt>
      <trkpt lat="48.22969" lon="-4.42332">
        <ele>34.26</ele>
        <time>2013-04-14T08:16:18Z</time>
      </trkpt>
      <trkpt lat="48.22969" lon="-4.42333">
        <ele>34.74</ele>
        <time>2013-04-14T08:17:03Z</time>
      </trkpt>
      <trkpt lat="48.22971" lon="-4.42334">
        <ele>36.19</ele>
        <time>2013-04-14T08:17:21Z</time>
      </trkpt>
      <trkpt lat="48.22971" lon="-4.42332">
        <ele>34.74</ele>
        <time>2013-04-14T08:17:37Z</time>
      </trkpt>
      <trkpt lat="48.2297" lon="-4.42331">
        <ele>34.26</ele>
        <time>2013-04-14T08:18:02Z</time>
      </trkpt>
      <trkpt lat="48.22971" lon="-4.42331">
        <ele>35.23</ele>
        <time>2013-04-14T08:18:05Z</time>
      </trkpt>
      <trkpt lat="48.22971" lon="-4.42332">
        <ele>36.67</ele>
        <time>2013-04-14T08:18:21Z</time>
      </trkpt>
      <trkpt lat="48.22971" lon="-4.42332">
        <ele>37.15</ele>
        <time>2013-04-14T08:18:49Z</time>
      </trkpt>
      <trkpt lat="48.22972" lon="-4.42333">
        <ele>36.19</ele>
        <time>2013-04-14T08:19:09Z</time>
      </trkpt>
      <trkpt lat="48.22971" lon="-4.42326">
        <ele>36.19</ele>
        <time>2013-04-14T08:19:28Z</time>
      </trkpt>
      <trkpt lat="48.2297" lon="-4.42309">
        <ele>35.71</ele>
        <time>2013-04-14T08:19:45Z</time>
      </trkpt>
      <trkpt lat="48.22968" lon="-4.42301">
        <ele>35.23</ele>
        <time>2013-04-14T08:19:58Z</time>
      </trkpt>
      <trkpt lat="48.22966" lon="-4.4228">
        <ele>34.74</ele>
        <time>2013-04-14T08:20:14Z</time>
      </trkpt>
      <trkpt lat="48.22964" lon="-4.42265">
        <ele>35.23</ele>
        <time>2013-04-14T08:20:23Z</time>
      </trkpt>
      <trkpt lat="48.22962" lon="-4.42247">
        <ele>35.23</ele>
        <time>2013-04-14T08:20:34Z</time>
      </trkpt>
      <trkpt lat="48.22961" lon="-4.4224">
        <ele>34.74</ele>
        <time>2013-04-14T08:20:38Z</time>
      </trkpt>
      <trkpt lat="48.22956" lon="-4.42213">
        <ele>35.23</ele>
        <time>2013-04-14T08:20:57Z</time>
      </trkpt>
      <trkpt lat="48.22955" lon="-4.4221">
        <ele>34.74</ele>
        <time>2013-04-14T08:20:59Z</time>
      </trkpt>
      <trkpt lat="48.22952" lon="-4.42194">
        <ele>35.71</ele>
        <time>2013-04-14T08:21:11Z</time>
      </trkpt>
      <trkpt lat="48.22952" lon="-4.4219">
        <ele>36.19</ele>
        <time>2013-04-14T08:21:13Z</time>
      </trkpt>
      <trkpt lat="48.22952" lon="-4.42186">
        <ele>34.26</ele>
        <time>2013-04-14T08:21:16Z</time>
      </trkpt>
      <trkpt lat="48.22951" lon="-4.42182">
        <ele>35.71</ele>
        <time>2013-04-14T08:21:18Z</time>
      </trkpt>
      <trkpt lat="48.22946" lon="-4.42156">
        <ele>35.71</ele>
        <time>2013-04-14T08:21:35Z</time>
      </trkpt>
      <trkpt lat="48.2294" lon="-4.42129">
        <ele>36.19</ele>
        <time>2013-04-14T08:21:52Z</time>
      </trkpt>
      <trkpt lat="48.22939" lon="-4.4212">
        <ele>37.15</ele>
        <time>2013-04-14T08:21:58Z</time>
      </trkpt>
      <trkpt lat="48.22934" lon="-4.42091">
        <ele>36.19</ele>
        <time>2013-04-14T08:22:16Z</time>
      </trkpt>
      <trkpt lat="48.22929" lon="-4.4207">
        <ele>36.67</ele>
        <time>2013-04-14T08:22:32Z</time>
      </trkpt>
      <trkpt lat="48.22926" lon="-4.42047">
        <ele>37.15</ele>
        <time>2013-04-14T08:22:48Z</time>
      </trkpt>
      <trkpt lat="48.22921" lon="-4.4202">
        <ele>37.15</ele>
        <time>2013-04-14T08:23:06Z</time>
      </trkpt>
      <trkpt lat="48.22916" lon="-4.41994">
        <ele>39.07</ele>
        <time>2013-04-14T08:23:22Z</time>
      </trkpt>
      <trkpt lat="48.22915" lon="-4.41989">
        <ele>39.55</ele>
        <time>2013-04-14T08:23:26Z</time>
      </trkpt>
      <trkpt lat="48.22914" lon="-4.41983">
        <ele>39.55</ele>
        <time>2013-04-14T08:23:30Z</time>
      </trkpt>
      <trkpt lat="48.2291" lon="-4.41953">
        <ele>39.07</ele>
        <time>2013-04-14T08:23:49Z</time>
      </trkpt>
      <trkpt lat="48.22907" lon="-4.41931">
        <ele>39.55</ele>
        <time>2013-04-14T08:24:03Z</time>
      </trkpt>
      <trkpt lat="48.22907" lon="-4.41924">
        <ele>39.55</ele>
        <time>2013-04-14T08:24:07Z</time>
      </trkpt>
      <trkpt lat="48.22904" lon="-4.41911">
        <ele>40.51</ele>
        <time>2013-04-14T08:24:16Z</time>
      </trkpt>
      <trkpt lat="48.22903" lon="-4.41898">
        <ele>40.51</ele>
        <time>2013-04-14T08:24:24Z</time>
      </trkpt>
      <trkpt lat="48.22902" lon="-4.41895">
        <ele>40.99</ele>
        <time>2013-04-14T08:24:26Z</time>
      </trkpt>
      <trkpt lat="48.22896" lon="-4.41868">
        <ele>40.99</ele>
        <time>2013-04-14T08:24:45Z</time>
      </trkpt>
      <trkpt lat="48.22892" lon="-4.41853">
        <ele>42.44</ele>
        <time>2013-04-14T08:25:00Z</time>
      </trkpt>
      <trkpt lat="48.22892" lon="-4.41849">
        <ele>41.95</ele>
        <time>2013-04-14T08:25:03Z</time>
      </trkpt>
      <trkpt lat="48.22892" lon="-4.41841">
        <ele>42.92</ele>
        <time>2013-04-14T08:25:09Z</time>
      </trkpt>
      <trkpt lat="48.22892" lon="-4.41824">
        <ele>42.92</ele>
        <time>2013-04-14T08:25:23Z</time>
      </trkpt>
      <trkpt lat="48.22894" lon="-4.41816">
        <ele>36.67</ele>
        <time>2013-04-14T08:25:29Z</time>
      </trkpt>
      <trkpt lat="48.22894" lon="-4.41814">
        <ele>44.36</ele>
        <time>2013-04-14T08:25:30Z</time>
      </trkpt>
      <trkpt lat="48.22894" lon="-4.41813">
        <ele>46.28</ele>
        <time>2013-04-14T08:25:31Z</time>
      </trkpt>
      <trkpt lat="48.22894" lon="-4.4181">
        <ele>38.11</ele>
        <time>2013-04-14T08:25:33Z</time>
      </trkpt>
      <trkpt lat="48.22893" lon="-4.41808">
        <ele>44.84</ele>
        <time>2013-04-14T08:25:34Z</time>
      </trkpt>
      <trkpt lat="48.22893" lon="-4.41807">
        <ele>40.99</ele>
        <time>2013-04-14T08:25:35Z</time>
      </trkpt>
      <trkpt lat="48.22893" lon="-4.41804">
        <ele>44.36</ele>
        <time>2013-04-14T08:25:37Z</time>
      </trkpt>
      <trkpt lat="48.22893" lon="-4.41801">
        <ele>45.32</ele>
        <time>2013-04-14T08:25:39Z</time>
      </trkpt>
      <trkpt lat="48.22893" lon="-4.41785">
        <ele>44.84</ele>
        <time>2013-04-14T08:25:51Z</time>
      </trkpt>
      <trkpt lat="48.22893" lon="-4.41773">
        <ele>46.76</ele>
        <time>2013-04-14T08:26:06Z</time>
      </trkpt>
      <trkpt lat="48.22886" lon="-4.41777">
        <ele>46.28</ele>
        <time>2013-04-14T08:26:19Z</time>
      </trkpt>
      <trkpt lat="48.22882" lon="-4.41777">
        <ele>46.76</ele>
        <time>2013-04-14T08:26:23Z</time>
      </trkpt>
      <trkpt lat="48.22859" lon="-4.41778">
        <ele>46.76</ele>
        <time>2013-04-14T08:26:41Z</time>
      </trkpt>
      <trkpt lat="48.22834" lon="-4.41778">
        <ele>44.84</ele>
        <time>2013-04-14T08:26:58Z</time>
      </trkpt>
      <trkpt lat="48.22816" lon="-4.41775">
        <ele>43.88</ele>
        <time>2013-04-14T08:27:14Z</time>
      </trkpt>
      <trkpt lat="48.22809" lon="-4.41774">
        <ele>43.4</ele>
        <time>2013-04-14T08:27:30Z</time>
      </trkpt>
      <trkpt lat="48.22803" lon="-4.41775">
        <ele>40.03</ele>
        <time>2013-04-14T08:27:47Z</time>
      </trkpt>
      <trkpt lat="48.22801" lon="-4.41775">
        <ele>39.55</ele>
        <time>2013-04-14T08:27:53Z</time>
      </trkpt>
      <trkpt lat="48.22798" lon="-4.41778">
        <ele>37.63</ele>
        <time>2013-04-14T08:27:56Z</time>
      </trkpt>
      <trkpt lat="48.22788" lon="-4.41782">
        <ele>34.74</ele>
        <time>2013-04-14T08:28:07Z</time>
      </trkpt>
      <trkpt lat="48.2278" lon="-4.41785">
        <ele>30.42</ele>
        <time>2013-04-14T08:28:21Z</time>
      </trkpt>
      <trkpt lat="48.22768" lon="-4.4179">
        <ele>28.02</ele>
        <time>2013-04-14T08:28:37Z</time>
      </trkpt>
      <trkpt lat="48.22768" lon="-4.41789">
        <ele>28.98</ele>
        <time>2013-04-14T08:28:39Z</time>
      </trkpt>
      <trkpt lat="48.22767" lon="-4.41787">
        <ele>28.98</ele>
        <time>2013-04-14T08:28:41Z</time>
      </trkpt>
      <trkpt lat="48.22764" lon="-4.41774">
        <ele>26.09</ele>
        <time>2013-04-14T08:28:51Z</time>
      </trkpt>
      <trkpt lat="48.2276" lon="-4.41755">
        <ele>25.13</ele>
        <time>2013-04-14T08:29:09Z</time>
      </trkpt>
      <trkpt lat="48.22752" lon="-4.41743">
        <ele>27.53</ele>
        <time>2013-04-14T08:29:25Z</time>
      </trkpt>
      <trkpt lat="48.22752" lon="-4.41742">
        <ele>28.98</ele>
        <time>2013-04-14T08:29:40Z</time>
      </trkpt>
      <trkpt lat="48.22751" lon="-4.41738">
        <ele>28.5</ele>
        <time>2013-04-14T08:30:03Z</time>
      </trkpt>
      <trkpt lat="48.22747" lon="-4.41714">
        <ele>29.94</ele>
        <time>2013-04-14T08:30:20Z</time>
      </trkpt>
      <trkpt lat="48.22745" lon="-4.41705">
        <ele>29.94</ele>
        <time>2013-04-14T08:30:26Z</time>
      </trkpt>
      <trkpt lat="48.22742" lon="-4.41688">
        <ele>30.9</ele>
        <time>2013-04-14T08:30:40Z</time>
      </trkpt>
      <trkpt lat="48.22738" lon="-4.41687">
        <ele>28.5</ele>
        <time>2013-04-14T08:30:48Z</time>
      </trkpt>
      <trkpt lat="48.22734" lon="-4.41681">
        <ele>28.98</ele>
        <time>2013-04-14T08:30:55Z</time>
      </trkpt>
      <trkpt lat="48.22734" lon="-4.41678">
        <ele>28.5</ele>
        <time>2013-04-14T08:30:57Z</time>
      </trkpt>
      <trkpt lat="48.22733" lon="-4.41672">
        <ele>29.46</ele>
        <time>2013-04-14T08:31:01Z</time>
      </trkpt>
      <trkpt lat="48.22732" lon="-4.41661">
        <ele>29.46</ele>
        <time>2013-04-14T08:31:08Z</time>
      </trkpt>
      <trkpt lat="48.22724" lon="-4.4165">
        <ele>28.02</ele>
        <time>2013-04-14T08:31:18Z</time>
      </trkpt>
      <trkpt lat="48.22719" lon="-4.41637">
        <ele>28.5</ele>
        <time>2013-04-14T08:31:35Z</time>
      </trkpt>
      <trkpt lat="48.22718" lon="-4.41636">
        <ele>28.5</ele>
        <time>2013-04-14T08:31:40Z</time>
      </trkpt>
      <trkpt lat="48.22715" lon="-4.41617">
        <ele>29.94</ele>
        <time>2013-04-14T08:31:52Z</time>
      </trkpt>
      <trkpt lat="48.22712" lon="-4.41602">
        <ele>30.9</ele>
        <time>2013-04-14T08:32:05Z</time>
      </trkpt>
      <trkpt lat="48.22711" lon="-4.41594">
        <ele>33.78</ele>
        <time>2013-04-14T08:32:11Z</time>
      </trkpt>
      <trkpt lat="48.2271" lon="-4.41588">
        <ele>33.78</ele>
        <time>2013-04-14T08:32:15Z</time>
      </trkpt>
      <trkpt lat="48.22703" lon="-4.41568">
        <ele>34.74</ele>
        <time>2013-04-14T08:32:31Z</time>
      </trkpt>
      <trkpt lat="48.22697" lon="-4.41553">
        <ele>37.63</ele>
        <time>2013-04-14T08:32:46Z</time>
      </trkpt>
      <trkpt lat="48.22697" lon="-4.41542">
        <ele>40.99</ele>
        <time>2013-04-14T08:33:00Z</time>
      </trkpt>
      <trkpt lat="48.22696" lon="-4.41538">
        <ele>41.95</ele>
        <time>2013-04-14T08:33:04Z</time>
      </trkpt>
      <trkpt lat="48.22694" lon="-4.41524">
        <ele>43.88</ele>
        <time>2013-04-14T08:33:20Z</time>
      </trkpt>
      <trkpt lat="48.2269" lon="-4.41506">
        <ele>46.28</ele>
        <time>2013-04-14T08:33:37Z</time>
      </trkpt>
      <trkpt lat="48.22686" lon="-4.41488">
        <ele>48.68</ele>
        <time>2013-04-14T08:33:53Z</time>
      </trkpt>
      <trkpt lat="48.22685" lon="-4.4147">
        <ele>50.61</ele>
        <time>2013-04-14T08:34:10Z</time>
      </trkpt>
      <trkpt lat="48.22684" lon="-4.41455">
        <ele>53.49</ele>
        <time>2013-04-14T08:34:24Z</time>
      </trkpt>
      <trkpt lat="48.22678" lon="-4.41447">
        <ele>51.09</ele>
        <time>2013-04-14T08:34:31Z</time>
      </trkpt>
      <trkpt lat="48.22678" lon="-4.41446">
        <ele>50.61</ele>
        <time>2013-04-14T08:34:32Z</time>
      </trkpt>
      <trkpt lat="48.2267" lon="-4.41431">
        <ele>51.09</ele>
        <time>2013-04-14T08:34:48Z</time>
      </trkpt>
      <trkpt lat="48.22662" lon="-4.41414">
        <ele>51.09</ele>
        <time>2013-04-14T08:35:06Z</time>
      </trkpt>
      <trkpt lat="48.22653" lon="-4.41397">
        <ele>48.68</ele>
        <time>2013-04-14T08:35:24Z</time>
      </trkpt>
      <trkpt lat="48.22645" lon="-4.41386">
        <ele>46.28</ele>
        <time>2013-04-14T08:35:37Z</time>
      </trkpt>
      <trkpt lat="48.2264" lon="-4.41378">
        <ele>44.36</ele>
        <time>2013-04-14T08:35:46Z</time>
      </trkpt>
      <trkpt lat="48.22628" lon="-4.41358">
        <ele>41.47</ele>
        <time>2013-04-14T08:36:03Z</time>
      </trkpt>
      <trkpt lat="48.2262" lon="-4.41339">
        <ele>40.03</ele>
        <time>2013-04-14T08:36:17Z</time>
      </trkpt>
      <trkpt lat="48.22618" lon="-4.41335">
        <ele>38.59</ele>
        <time>2013-04-14T08:36:20Z</time>
      </trkpt>
      <trkpt lat="48.22611" lon="-4.41307">
        <ele>36.19</ele>
        <time>2013-04-14T08:36:38Z</time>
      </trkpt>
      <trkpt lat="48.2261" lon="-4.41302">
        <ele>38.11</ele>
        <time>2013-04-14T08:36:46Z</time>
      </trkpt>
      <trkpt lat="48.22607" lon="-4.41297">
        <ele>37.15</ele>
        <time>2013-04-14T08:36:50Z</time>
      </trkpt>
      <trkpt lat="48.22604" lon="-4.41287">
        <ele>36.19</ele>
        <time>2013-04-14T08:36:56Z</time>
      </trkpt>
      <trkpt lat="48.22591" lon="-4.41269">
        <ele>37.15</ele>
        <time>2013-04-14T08:37:11Z</time>
      </trkpt>
      <trkpt lat="48.22585" lon="-4.41258">
        <ele>36.67</ele>
        <time>2013-04-14T08:37:20Z</time>
      </trkpt>
      <trkpt lat="48.22579" lon="-4.41249">
        <ele>35.71</ele>
        <time>2013-04-14T08:37:27Z</time>
      </trkpt>
      <trkpt lat="48.22578" lon="-4.41245">
        <ele>35.71</ele>
        <time>2013-04-14T08:37:30Z</time>
      </trkpt>
      <trkpt lat="48.22567" lon="-4.41238">
        <ele>38.11</ele>
        <time>2013-04-14T08:37:45Z</time>
      </trkpt>
      <trkpt lat="48.22549" lon="-4.41249">
        <ele>38.11</ele>
        <time>2013-04-14T08:38:05Z</time>
      </trkpt>
      <trkpt lat="48.22538" lon="-4.41265">
        <ele>34.74</ele>
        <time>2013-04-14T08:38:25Z</time>
      </trkpt>
      <trkpt lat="48.22537" lon="-4.41267">
        <ele>34.26</ele>
        <time>2013-04-14T08:39:01Z</time>
      </trkpt>
      <trkpt lat="48.22537" lon="-4.41267">
        <ele>35.71</ele>
        <time>2013-04-14T08:39:32Z</time>
      </trkpt>
      <trkpt lat="48.22537" lon="-4.41267">
        <ele>34.26</ele>
        <time>2013-04-14T08:39:41Z</time>
      </trkpt>
      <trkpt lat="48.22537" lon="-4.41269">
        <ele>34.26</ele>
        <time>2013-04-14T08:39:59Z</time>
      </trkpt>
      <trkpt lat="48.22537" lon="-4.41269">
        <ele>33.78</ele>
        <time>2013-04-14T08:41:15Z</time>
      </trkpt>
      <trkpt lat="48.22537" lon="-4.4127">
        <ele>34.74</ele>
        <time>2013-04-14T08:41:49Z</time>
      </trkpt>
      <trkpt lat="48.22537" lon="-4.4127">
        <ele>34.74</ele>
        <time>2013-04-14T08:42:21Z</time>
      </trkpt>
      <trkpt lat="48.22537" lon="-4.4127">
        <ele>35.23</ele>
        <time>2013-04-14T08:42:50Z</time>
      </trkpt>
      <trkpt lat="48.22536" lon="-4.4127">
        <ele>33.3</ele>
        <time>2013-04-14T08:43:02Z</time>
      </trkpt>
      <trkpt lat="48.22535" lon="-4.41271">
        <ele>34.74</ele>
        <time>2013-04-14T08:43:19Z</time>
      </trkpt>
      <trkpt lat="48.22531" lon="-4.41275">
        <ele>35.23</ele>
        <time>2013-04-14T08:43:45Z</time>
      </trkpt>
      <trkpt lat="48.22521" lon="-4.41294">
        <ele>31.86</ele>
        <time>2013-04-14T08:44:03Z</time>
      </trkpt>
      <trkpt lat="48.22512" lon="-4.41311">
        <ele>31.86</ele>
        <time>2013-04-14T08:44:18Z</time>
      </trkpt>
      <trkpt lat="48.22504" lon="-4.41313">
        <ele>34.26</ele>
        <time>2013-04-14T08:44:34Z</time>
      </trkpt>
      <trkpt lat="48.22498" lon="-4.41313">
        <ele>33.3</ele>
        <time>2013-04-14T08:44:43Z</time>
      </trkpt>
      <trkpt lat="48.22494" lon="-4.4131">
        <ele>35.23</ele>
        <time>2013-04-14T08:44:57Z</time>
      </trkpt>
      <trkpt lat="48.22492" lon="-4.41309">
        <ele>36.19</ele>
        <time>2013-04-14T08:45:16Z</time>
      </trkpt>
      <trkpt lat="48.22486" lon="-4.41307">
        <ele>39.07</ele>
        <time>2013-04-14T08:46:16Z</time>
      </trkpt>
      <trkpt lat="48.22479" lon="-4.41301">
        <ele>40.03</ele>
        <time>2013-04-14T08:46:36Z</time>
      </trkpt>
      <trkpt lat="48.22475" lon="-4.41296">
        <ele>42.92</ele>
        <time>2013-04-14T08:47:00Z</time>
      </trkpt>
      <trkpt lat="48.22472" lon="-4.41295">
        <ele>43.88</ele>
        <time>2013-04-14T08:47:22Z</time>
      </trkpt>
      <trkpt lat="48.22468" lon="-4.41293">
        <ele>44.84</ele>
        <time>2013-04-14T08:47:48Z</time>
      </trkpt>
      <trkpt lat="48.22461" lon="-4.41291">
        <ele>45.8</ele>
        <time>2013-04-14T08:48:08Z</time>
      </trkpt>
      <trkpt lat="48.22456" lon="-4.41292">
        <ele>47.24</ele>
        <time>2013-04-14T08:48:24Z</time>
      </trkpt>
      <trkpt lat="48.22454" lon="-4.41291">
        <ele>48.2</ele>
        <time>2013-04-14T08:49:37Z</time>
      </trkpt>
      <trkpt lat="48.2245" lon="-4.41291">
        <ele>50.61</ele>
        <time>2013-04-14T08:49:57Z</time>
      </trkpt>
      <trkpt lat="48.22445" lon="-4.41293">
        <ele>52.53</ele>
        <time>2013-04-14T08:50:13Z</time>
      </trkpt>
      <trkpt lat="48.22443" lon="-4.41292">
        <ele>54.45</ele>
        <time>2013-04-14T08:50:32Z</time>
      </trkpt>
      <trkpt lat="48.22441" lon="-4.4129">
        <ele>55.89</ele>
        <time>2013-04-14T08:50:50Z</time>
      </trkpt>
      <trkpt lat="48.2244" lon="-4.41289">
        <ele>56.86</ele>
        <time>2013-04-14T08:51:29Z</time>
      </trkpt>
      <trkpt lat="48.22439" lon="-4.41286">
        <ele>57.82</ele>
        <time>2013-04-14T08:51:49Z</time>
      </trkpt>
      <trkpt lat="48.22435" lon="-4.41282">
        <ele>59.74</ele>
        <time>2013-04-14T08:52:53Z</time>
      </trkpt>
      <trkpt lat="48.22434" lon="-4.41277">
        <ele>60.7</ele>
        <time>2013-04-14T08:53:11Z</time>
      </trkpt>
      <trkpt lat="48.22432" lon="-4.41273">
        <ele>61.66</ele>
        <time>2013-04-14T08:53:27Z</time>
      </trkpt>
      <trkpt lat="48.22429" lon="-4.41271">
        <ele>65.03</ele>
        <time>2013-04-14T08:53:42Z</time>
      </trkpt>
      <trkpt lat="48.22425" lon="-4.41264">
        <ele>65.99</ele>
        <time>2013-04-14T08:54:23Z</time>
      </trkpt>
      <trkpt lat="48.22423" lon="-4.4126">
        <ele>66.47</ele>
        <time>2013-04-14T08:54:38Z</time>
      </trkpt>
      <trkpt lat="48.22424" lon="-4.41258">
        <ele>66.47</ele>
        <time>2013-04-14T08:55:12Z</time>
      </trkpt>
      <trkpt lat="48.22422" lon="-4.41252">
        <ele>68.87</ele>
        <time>2013-04-14T08:55:37Z</time>
      </trkpt>
      <trkpt lat="48.2242" lon="-4.41245">
        <ele>69.35</ele>
        <time>2013-04-14T08:55:57Z</time>
      </trkpt>
      <trkpt lat="48.2242" lon="-4.41245">
        <ele>70.79</ele>
        <time>2013-04-14T08:56:17Z</time>
      </trkpt>
      <trkpt lat="48.22419" lon="-4.41243">
        <ele>72.24</ele>
        <time>2013-04-14T08:56:31Z</time>
      </trkpt>
      <trkpt lat="48.22419" lon="-4.41243">
        <ele>72.24</ele>
        <time>2013-04-14T08:56:49Z</time>
      </trkpt>
      <trkpt lat="48.22413" lon="-4.41246">
        <ele>73.2</ele>
        <time>2013-04-14T08:57:07Z</time>
      </trkpt>
      <trkpt lat="48.22411" lon="-4.41249">
        <ele>73.2</ele>
        <time>2013-04-14T08:57:12Z</time>
      </trkpt>
      <trkpt lat="48.22405" lon="-4.41253">
        <ele>75.6</ele>
        <time>2013-04-14T08:57:22Z</time>
      </trkpt>
      <trkpt lat="48.22399" lon="-4.4126">
        <ele>78.48</ele>
        <time>2013-04-14T08:57:37Z</time>
      </trkpt>
      <trkpt lat="48.22392" lon="-4.41265">
        <ele>79.93</ele>
        <time>2013-04-14T08:57:48Z</time>
      </trkpt>
      <trkpt lat="48.22387" lon="-4.41266">
        <ele>80.89</ele>
        <time>2013-04-14T08:57:53Z</time>
      </trkpt>
      <trkpt lat="48.22379" lon="-4.41268">
        <ele>82.81</ele>
        <time>2013-04-14T08:58:02Z</time>
      </trkpt>
      <trkpt lat="48.2237" lon="-4.41275">
        <ele>81.37</ele>
        <time>2013-04-14T08:58:12Z</time>
      </trkpt>
      <trkpt lat="48.22365" lon="-4.41288">
        <ele>86.18</ele>
        <time>2013-04-14T08:58:21Z</time>
      </trkpt>
      <trkpt lat="48.22364" lon="-4.41301">
        <ele>85.21</ele>
        <time>2013-04-14T08:58:37Z</time>
      </trkpt>
      <trkpt lat="48.22364" lon="-4.41301">
        <ele>88.1</ele>
        <time>2013-04-14T08:58:45Z</time>
      </trkpt>
      <trkpt lat="48.22364" lon="-4.41294">
        <ele>87.62</ele>
        <time>2013-04-14T08:58:51Z</time>
      </trkpt>
      <trkpt lat="48.22366" lon="-4.41286">
        <ele>87.62</ele>
        <time>2013-04-14T08:58:56Z</time>
      </trkpt>
      <trkpt lat="48.22374" lon="-4.41271">
        <ele>85.69</ele>
        <time>2013-04-14T08:59:08Z</time>
      </trkpt>
      <trkpt lat="48.22375" lon="-4.41271">
        <ele>83.29</ele>
        <time>2013-04-14T08:59:12Z</time>
      </trkpt>
      <trkpt lat="48.22375" lon="-4.41271">
        <ele>84.73</ele>
        <time>2013-04-14T08:59:15Z</time>
      </trkpt>
      <trkpt lat="48.22379" lon="-4.4127">
        <ele>84.73</ele>
        <time>2013-04-14T08:59:27Z</time>
      </trkpt>
      <trkpt lat="48.22382" lon="-4.4127">
        <ele>82.81</ele>
        <time>2013-04-14T08:59:30Z</time>
      </trkpt>
      <trkpt lat="48.22394" lon="-4.41266">
        <ele>80.89</ele>
        <time>2013-04-14T08:59:45Z</time>
      </trkpt>
      <trkpt lat="48.22401" lon="-4.41256">
        <ele>77.52</ele>
        <time>2013-04-14T08:59:59Z</time>
      </trkpt>
      <trkpt lat="48.22405" lon="-4.41253">
        <ele>75.12</ele>
        <time>2013-04-14T09:00:17Z</time>
      </trkpt>
      <trkpt lat="48.22407" lon="-4.41248">
        <ele>73.2</ele>
        <time>2013-04-14T09:00:24Z</time>
      </trkpt>
      <trkpt lat="48.22408" lon="-4.41244">
        <ele>73.2</ele>
        <time>2013-04-14T09:00:27Z</time>
      </trkpt>
      <trkpt lat="48.22407" lon="-4.41236">
        <ele>72.72</ele>
        <time>2013-04-14T09:00:50Z</time>
      </trkpt>
      <trkpt lat="48.22408" lon="-4.41233">
        <ele>71.76</ele>
        <time>2013-04-14T09:01:51Z</time>
      </trkpt>
      <trkpt lat="48.22402" lon="-4.41224">
        <ele>71.76</ele>
        <time>2013-04-14T09:02:05Z</time>
      </trkpt>
      <trkpt lat="48.22401" lon="-4.41219">
        <ele>70.79</ele>
        <time>2013-04-14T09:02:25Z</time>
      </trkpt>
      <trkpt lat="48.22401" lon="-4.41217">
        <ele>70.79</ele>
        <time>2013-04-14T09:02:49Z</time>
      </trkpt>
      <trkpt lat="48.22402" lon="-4.41227">
        <ele>72.24</ele>
        <time>2013-04-14T09:03:07Z</time>
      </trkpt>
      <trkpt lat="48.22402" lon="-4.41227">
        <ele>71.27</ele>
        <time>2013-04-14T09:04:05Z</time>
      </trkpt>
      <trkpt lat="48.22401" lon="-4.41218">
        <ele>70.31</ele>
        <time>2013-04-14T09:04:26Z</time>
      </trkpt>
      <trkpt lat="48.22395" lon="-4.41208">
        <ele>70.79</ele>
        <time>2013-04-14T09:04:41Z</time>
      </trkpt>
      <trkpt lat="48.22392" lon="-4.41196">
        <ele>69.83</ele>
        <time>2013-04-14T09:04:57Z</time>
      </trkpt>
      <trkpt lat="48.2239" lon="-4.4119">
        <ele>69.35</ele>
        <time>2013-04-14T09:05:14Z</time>
      </trkpt>
      <trkpt lat="48.2239" lon="-4.41182">
        <ele>70.31</ele>
        <time>2013-04-14T09:05:21Z</time>
      </trkpt>
      <trkpt lat="48.22389" lon="-4.41171">
        <ele>69.35</ele>
        <time>2013-04-14T09:05:37Z</time>
      </trkpt>
      <trkpt lat="48.22384" lon="-4.41149">
        <ele>70.31</ele>
        <time>2013-04-14T09:05:51Z</time>
      </trkpt>
      <trkpt lat="48.22384" lon="-4.41144">
        <ele>71.27</ele>
        <time>2013-04-14T09:05:54Z</time>
      </trkpt>
      <trkpt lat="48.22383" lon="-4.41136">
        <ele>74.16</ele>
        <time>2013-04-14T09:06:00Z</time>
      </trkpt>
      <trkpt lat="48.22383" lon="-4.41135">
        <ele>66.95</ele>
        <time>2013-04-14T09:06:02Z</time>
      </trkpt>
      <trkpt lat="48.22383" lon="-4.41134">
        <ele>72.72</ele>
        <time>2013-04-14T09:06:05Z</time>
      </trkpt>
      <trkpt lat="48.22384" lon="-4.41127">
        <ele>75.6</ele>
        <time>2013-04-14T09:06:11Z</time>
      </trkpt>
      <trkpt lat="48.2238" lon="-4.41105">
        <ele>74.64</ele>
        <time>2013-04-14T09:06:27Z</time>
      </trkpt>
      <trkpt lat="48.22379" lon="-4.41095">
        <ele>77.52</ele>
        <time>2013-04-14T09:06:39Z</time>
      </trkpt>
      <trkpt lat="48.22379" lon="-4.41086">
        <ele>78.48</ele>
        <time>2013-04-14T09:06:55Z</time>
      </trkpt>
      <trkpt lat="48.22379" lon="-4.41084">
        <ele>79.93</ele>
        <time>2013-04-14T09:06:58Z</time>
      </trkpt>
      <trkpt lat="48.22379" lon="-4.4108">
        <ele>81.85</ele>
        <time>2013-04-14T09:07:05Z</time>
      </trkpt>
      <trkpt lat="48.22378" lon="-4.41075">
        <ele>79.93</ele>
        <time>2013-04-14T09:07:12Z</time>
      </trkpt>
      <trkpt lat="48.22376" lon="-4.41066">
        <ele>81.37</ele>
        <time>2013-04-14T09:07:27Z</time>
      </trkpt>
      <trkpt lat="48.22373" lon="-4.41056">
        <ele>80.41</ele>
        <time>2013-04-14T09:07:38Z</time>
      </trkpt>
      <trkpt lat="48.22372" lon="-4.41048">
        <ele>79.45</ele>
        <time>2013-04-14T09:07:49Z</time>
      </trkpt>
      <trkpt lat="48.22373" lon="-4.41046">
        <ele>77.04</ele>
        <time>2013-04-14T09:07:54Z</time>
      </trkpt>
      <trkpt lat="48.22376" lon="-4.41043">
        <ele>78.48</ele>
        <time>2013-04-14T09:08:18Z</time>
      </trkpt>
      <trkpt lat="48.2238" lon="-4.41039">
        <ele>80.41</ele>
        <time>2013-04-14T09:08:28Z</time>
      </trkpt>
      <trkpt lat="48.22385" lon="-4.41029">
        <ele>82.33</ele>
        <time>2013-04-14T09:08:43Z</time>
      </trkpt>
      <trkpt lat="48.22386" lon="-4.41026">
        <ele>83.29</ele>
        <time>2013-04-14T09:08:46Z</time>
      </trkpt>
      <trkpt lat="48.2239" lon="-4.41019">
        <ele>84.25</ele>
        <time>2013-04-14T09:08:55Z</time>
      </trkpt>
      <trkpt lat="48.22391" lon="-4.41016">
        <ele>86.66</ele>
        <time>2013-04-14T09:08:59Z</time>
      </trkpt>
      <trkpt lat="48.22394" lon="-4.40999">
        <ele>87.62</ele>
        <time>2013-04-14T09:09:17Z</time>
      </trkpt>
      <trkpt lat="48.22394" lon="-4.40998">
        <ele>89.06</ele>
        <time>2013-04-14T09:09:19Z</time>
      </trkpt>
      <trkpt lat="48.22395" lon="-4.40996">
        <ele>81.85</ele>
        <time>2013-04-14T09:09:24Z</time>
      </trkpt>
      <trkpt lat="48.22395" lon="-4.40996">
        <ele>77.52</ele>
        <time>2013-04-14T09:09:25Z</time>
      </trkpt>
      <trkpt lat="48.22395" lon="-4.40996">
        <ele>78.48</ele>
        <time>2013-04-14T09:09:35Z</time>
      </trkpt>
      <trkpt lat="48.22395" lon="-4.40996">
        <ele>86.18</ele>
        <time>2013-04-14T09:09:37Z</time>
      </trkpt>
      <trkpt lat="48.22395" lon="-4.40996">
        <ele>89.54</ele>
        <time>2013-04-14T09:09:40Z</time>
      </trkpt>
      <trkpt lat="48.22394" lon="-4.40986">
        <ele>88.58</ele>
        <time>2013-04-14T09:09:53Z</time>
      </trkpt>
      <trkpt lat="48.22395" lon="-4.40971">
        <ele>90.02</ele>
        <time>2013-04-14T09:10:07Z</time>
      </trkpt>
      <trkpt lat="48.22397" lon="-4.40958">
        <ele>89.54</ele>
        <time>2013-04-14T09:10:22Z</time>
      </trkpt>
      <trkpt lat="48.22397" lon="-4.40955">
        <ele>90.5</ele>
        <time>2013-04-14T09:10:24Z</time>
      </trkpt>
      <trkpt lat="48.22397" lon="-4.40943">
        <ele>91.46</ele>
        <time>2013-04-14T09:10:34Z</time>
      </trkpt>
      <trkpt lat="48.22398" lon="-4.40928">
        <ele>94.35</ele>
        <time>2013-04-14T09:10:48Z</time>
      </trkpt>
      <trkpt lat="48.22397" lon="-4.40923">
        <ele>89.06</ele>
        <time>2013-04-14T09:10:55Z</time>
      </trkpt>
      <trkpt lat="48.22397" lon="-4.40923">
        <ele>86.66</ele>
        <time>2013-04-14T09:10:57Z</time>
      </trkpt>
      <trkpt lat="48.22397" lon="-4.40923">
        <ele>88.58</ele>
        <time>2013-04-14T09:11:13Z</time>
      </trkpt>
      <trkpt lat="48.22397" lon="-4.40923">
        <ele>83.77</ele>
        <time>2013-04-14T09:11:17Z</time>
      </trkpt>
      <trkpt lat="48.22397" lon="-4.40923">
        <ele>84.73</ele>
        <time>2013-04-14T09:11:22Z</time>
      </trkpt>
      <trkpt lat="48.22397" lon="-4.40922">
        <ele>91.94</ele>
        <time>2013-04-14T09:11:23Z</time>
      </trkpt>
      <trkpt lat="48.22395" lon="-4.40908">
        <ele>91.94</ele>
        <time>2013-04-14T09:11:38Z</time>
      </trkpt>
      <trkpt lat="48.22395" lon="-4.40894">
        <ele>91.46</ele>
        <time>2013-04-14T09:11:54Z</time>
      </trkpt>
      <trkpt lat="48.22395" lon="-4.40878">
        <ele>92.42</ele>
        <time>2013-04-14T09:12:08Z</time>
      </trkpt>
      <trkpt lat="48.22395" lon="-4.40872">
        <ele>91.46</ele>
        <time>2013-04-14T09:12:13Z</time>
      </trkpt>
      <trkpt lat="48.22393" lon="-4.4086">
        <ele>90.02</ele>
        <time>2013-04-14T09:12:23Z</time>
      </trkpt>
      <trkpt lat="48.22393" lon="-4.40851">
        <ele>86.66</ele>
        <time>2013-04-14T09:12:34Z</time>
      </trkpt>
      <trkpt lat="48.22395" lon="-4.40841">
        <ele>89.06</ele>
        <time>2013-04-14T09:12:48Z</time>
      </trkpt>
      <trkpt lat="48.22397" lon="-4.40837">
        <ele>87.62</ele>
        <time>2013-04-14T09:12:53Z</time>
      </trkpt>
      <trkpt lat="48.22398" lon="-4.40834">
        <ele>87.62</ele>
        <time>2013-04-14T09:12:55Z</time>
      </trkpt>
      <trkpt lat="48.22409" lon="-4.40814">
        <ele>88.1</ele>
        <time>2013-04-14T09:13:13Z</time>
      </trkpt>
      <trkpt lat="48.22412" lon="-4.40798">
        <ele>85.69</ele>
        <time>2013-04-14T09:13:30Z</time>
      </trkpt>
      <trkpt lat="48.22413" lon="-4.40796">
        <ele>85.21</ele>
        <time>2013-04-14T09:13:35Z</time>
      </trkpt>
      <trkpt lat="48.22418" lon="-4.40774">
        <ele>85.21</ele>
        <time>2013-04-14T09:13:52Z</time>
      </trkpt>
      <trkpt lat="48.22422" lon="-4.40759">
        <ele>89.54</ele>
        <time>2013-04-14T09:14:07Z</time>
      </trkpt>
      <trkpt lat="48.22422" lon="-4.40757">
        <ele>89.54</ele>
        <time>2013-04-14T09:14:08Z</time>
      </trkpt>
      <trkpt lat="48.22422" lon="-4.40743">
        <ele>90.98</ele>
        <time>2013-04-14T09:14:19Z</time>
      </trkpt>
      <trkpt lat="48.22423" lon="-4.40722">
        <ele>93.87</ele>
        <time>2013-04-14T09:14:34Z</time>
      </trkpt>
      <trkpt lat="48.22423" lon="-4.40716">
        <ele>93.87</ele>
        <time>2013-04-14T09:14:38Z</time>
      </trkpt>
      <trkpt lat="48.22426" lon="-4.40707">
        <ele>94.83</ele>
        <time>2013-04-14T09:14:46Z</time>
      </trkpt>
      <trkpt lat="48.22424" lon="-4.407">
        <ele>95.31</ele>
        <time>2013-04-14T09:14:50Z</time>
      </trkpt>
      <trkpt lat="48.22421" lon="-4.40671">
        <ele>94.83</ele>
        <time>2013-04-14T09:15:09Z</time>
      </trkpt>
      <trkpt lat="48.2242" lon="-4.40666">
        <ele>95.31</ele>
        <time>2013-04-14T09:15:12Z</time>
      </trkpt>
      <trkpt lat="48.22419" lon="-4.40659">
        <ele>92.42</ele>
        <time>2013-04-14T09:15:17Z</time>
      </trkpt>
      <trkpt lat="48.22412" lon="-4.40638">
        <ele>93.39</ele>
        <time>2013-04-14T09:15:34Z</time>
      </trkpt>
      <trkpt lat="48.2241" lon="-4.40634">
        <ele>93.87</ele>
        <time>2013-04-14T09:15:38Z</time>
      </trkpt>
      <trkpt lat="48.22409" lon="-4.4063">
        <ele>93.87</ele>
        <time>2013-04-14T09:15:41Z</time>
      </trkpt>
      <trkpt lat="48.22403" lon="-4.40604">
        <ele>93.87</ele>
        <time>2013-04-14T09:16:00Z</time>
      </trkpt>
      <trkpt lat="48.224" lon="-4.40584">
        <ele>96.75</ele>
        <time>2013-04-14T09:16:17Z</time>
      </trkpt>
      <trkpt lat="48.22396" lon="-4.40564">
        <ele>95.79</ele>
        <time>2013-04-14T09:16:33Z</time>
      </trkpt>
      <trkpt lat="48.22395" lon="-4.40561">
        <ele>96.27</ele>
        <time>2013-04-14T09:16:36Z</time>
      </trkpt>
      <trkpt lat="48.22388" lon="-4.40537">
        <ele>96.75</ele>
        <time>2013-04-14T09:16:55Z</time>
      </trkpt>
      <trkpt lat="48.22383" lon="-4.40511">
        <ele>94.83</ele>
        <time>2013-04-14T09:17:15Z</time>
      </trkpt>
      <trkpt lat="48.22377" lon="-4.40494">
        <ele>95.31</ele>
        <time>2013-04-14T09:17:30Z</time>
      </trkpt>
      <trkpt lat="48.22374" lon="-4.40488">
        <ele>94.35</ele>
        <time>2013-04-14T09:17:36Z</time>
      </trkpt>
      <trkpt lat="48.22371" lon="-4.4048">
        <ele>94.35</ele>
        <time>2013-04-14T09:17:42Z</time>
      </trkpt>
      <trkpt lat="48.2237" lon="-4.40477">
        <ele>95.31</ele>
        <time>2013-04-14T09:17:44Z</time>
      </trkpt>
      <trkpt lat="48.22368" lon="-4.40471">
        <ele>94.35</ele>
        <time>2013-04-14T09:17:48Z</time>
      </trkpt>
      <trkpt lat="48.22367" lon="-4.40466">
        <ele>95.31</ele>
        <time>2013-04-14T09:18:02Z</time>
      </trkpt>
      <trkpt lat="48.22363" lon="-4.4045">
        <ele>95.79</ele>
        <time>2013-04-14T09:18:15Z</time>
      </trkpt>
      <trkpt lat="48.22352" lon="-4.40426">
        <ele>95.79</ele>
        <time>2013-04-14T09:18:37Z</time>
      </trkpt>
      <trkpt lat="48.22345" lon="-4.40414">
        <ele>100.11</ele>
        <time>2013-04-14T09:18:51Z</time>
      </trkpt>
      <trkpt lat="48.22345" lon="-4.40413">
        <ele>100.6</ele>
        <time>2013-04-14T09:18:52Z</time>
      </trkpt>
      <trkpt lat="48.22342" lon="-4.40405">
        <ele>99.63</ele>
        <time>2013-04-14T09:18:59Z</time>
      </trkpt>
      <trkpt lat="48.22339" lon="-4.40396">
        <ele>95.79</ele>
        <time>2013-04-14T09:19:06Z</time>
      </trkpt>
      <trkpt lat="48.22338" lon="-4.40395">
        <ele>95.79</ele>
        <time>2013-04-14T09:19:07Z</time>
      </trkpt>
      <trkpt lat="48.22336" lon="-4.40387">
        <ele>97.23</ele>
        <time>2013-04-14T09:19:13Z</time>
      </trkpt>
      <trkpt lat="48.22334" lon="-4.40372">
        <ele>94.83</ele>
        <time>2013-04-14T09:19:28Z</time>
      </trkpt>
      <trkpt lat="48.22332" lon="-4.40363">
        <ele>97.23</ele>
        <time>2013-04-14T09:19:37Z</time>
      </trkpt>
      <trkpt lat="48.22329" lon="-4.40354">
        <ele>93.87</ele>
        <time>2013-04-14T09:19:54Z</time>
      </trkpt>
      <trkpt lat="48.22326" lon="-4.40338">
        <ele>92.42</ele>
        <time>2013-04-14T09:20:07Z</time>
      </trkpt>
      <trkpt lat="48.22322" lon="-4.40319">
        <ele>92.42</ele>
        <time>2013-04-14T09:20:23Z</time>
      </trkpt>
      <trkpt lat="48.22319" lon="-4.40302">
        <ele>92.9</ele>
        <time>2013-04-14T09:20:39Z</time>
      </trkpt>
      <trkpt lat="48.22314" lon="-4.40286">
        <ele>92.42</ele>
        <time>2013-04-14T09:20:56Z</time>
      </trkpt>
      <trkpt lat="48.22309" lon="-4.4027">
        <ele>90.02</ele>
        <time>2013-04-14T09:21:11Z</time>
      </trkpt>
      <trkpt lat="48.22302" lon="-4.40256">
        <ele>89.54</ele>
        <time>2013-04-14T09:21:26Z</time>
      </trkpt>
      <trkpt lat="48.22293" lon="-4.40241">
        <ele>89.06</ele>
        <time>2013-04-14T09:21:43Z</time>
      </trkpt>
      <trkpt lat="48.22279" lon="-4.40224">
        <ele>88.58</ele>
        <time>2013-04-14T09:22:00Z</time>
      </trkpt>
      <trkpt lat="48.22274" lon="-4.40216">
        <ele>89.54</ele>
        <time>2013-04-14T09:22:08Z</time>
      </trkpt>
      <trkpt lat="48.22263" lon="-4.40204">
        <ele>87.62</ele>
        <time>2013-04-14T09:22:23Z</time>
      </trkpt>
      <trkpt lat="48.22257" lon="-4.40195">
        <ele>87.14</ele>
        <time>2013-04-14T09:22:34Z</time>
      </trkpt>
      <trkpt lat="48.22247" lon="-4.40182">
        <ele>89.06</ele>
        <time>2013-04-14T09:22:53Z</time>
      </trkpt>
      <trkpt lat="48.22246" lon="-4.4018">
        <ele>90.02</ele>
        <time>2013-04-14T09:22:56Z</time>
      </trkpt>
      <trkpt lat="48.22244" lon="-4.40177">
        <ele>90.5</ele>
        <time>2013-04-14T09:22:59Z</time>
      </trkpt>
      <trkpt lat="48.22239" lon="-4.40169">
        <ele>88.58</ele>
        <time>2013-04-14T09:23:08Z</time>
      </trkpt>
      <trkpt lat="48.22229" lon="-4.40154">
        <ele>90.02</ele>
        <time>2013-04-14T09:23:23Z</time>
      </trkpt>
      <trkpt lat="48.2222" lon="-4.40142">
        <ele>89.06</ele>
        <time>2013-04-14T09:23:38Z</time>
      </trkpt>
      <trkpt lat="48.22219" lon="-4.40141">
        <ele>89.06</ele>
        <time>2013-04-14T09:23:39Z</time>
      </trkpt>
      <trkpt lat="48.22203" lon="-4.40131">
        <ele>90.5</ele>
        <time>2013-04-14T09:23:56Z</time>
      </trkpt>
      <trkpt lat="48.222" lon="-4.4013">
        <ele>88.58</ele>
        <time>2013-04-14T09:23:59Z</time>
      </trkpt>
      <trkpt lat="48.22195" lon="-4.40127">
        <ele>88.1</ele>
        <time>2013-04-14T09:24:04Z</time>
      </trkpt>
      <trkpt lat="48.22192" lon="-4.40126">
        <ele>89.06</ele>
        <time>2013-04-14T09:24:07Z</time>
      </trkpt>
      <trkpt lat="48.22176" lon="-4.40113">
        <ele>88.58</ele>
        <time>2013-04-14T09:24:27Z</time>
      </trkpt>
      <trkpt lat="48.22172" lon="-4.40107">
        <ele>88.1</ele>
        <time>2013-04-14T09:24:34Z</time>
      </trkpt>
      <trkpt lat="48.22168" lon="-4.40098">
        <ele>87.14</ele>
        <time>2013-04-14T09:24:42Z</time>
      </trkpt>
      <trkpt lat="48.22167" lon="-4.40095">
        <ele>86.18</ele>
        <time>2013-04-14T09:24:44Z</time>
      </trkpt>
      <trkpt lat="48.22164" lon="-4.40088">
        <ele>88.1</ele>
        <time>2013-04-14T09:24:51Z</time>
      </trkpt>
      <trkpt lat="48.22164" lon="-4.40086">
        <ele>85.69</ele>
        <time>2013-04-14T09:24:53Z</time>
      </trkpt>
      <trkpt lat="48.22158" lon="-4.40059">
        <ele>84.25</ele>
        <time>2013-04-14T09:25:13Z</time>
      </trkpt>
      <trkpt lat="48.22155" lon="-4.40049">
        <ele>82.81</ele>
        <time>2013-04-14T09:25:20Z</time>
      </trkpt>
      <trkpt lat="48.22145" lon="-4.40029">
        <ele>82.33</ele>
        <time>2013-04-14T09:25:36Z</time>
      </trkpt>
      <trkpt lat="48.22144" lon="-4.40024">
        <ele>81.37</ele>
        <time>2013-04-14T09:25:40Z</time>
      </trkpt>
      <trkpt lat="48.22139" lon="-4.40005">
        <ele>80.41</ele>
        <time>2013-04-14T09:25:58Z</time>
      </trkpt>
      <trkpt lat="48.22139" lon="-4.40001">
        <ele>79.45</ele>
        <time>2013-04-14T09:26:37Z</time>
      </trkpt>
      <trkpt lat="48.22139" lon="-4.40001">
        <ele>79.93</ele>
        <time>2013-04-14T09:26:51Z</time>
      </trkpt>
      <trkpt lat="48.22137" lon="-4.39984">
        <ele>78.97</ele>
        <time>2013-04-14T09:27:04Z</time>
      </trkpt>
      <trkpt lat="48.22132" lon="-4.39965">
        <ele>78.48</ele>
        <time>2013-04-14T09:27:21Z</time>
      </trkpt>
      <trkpt lat="48.22131" lon="-4.39958">
        <ele>78.97</ele>
        <time>2013-04-14T09:27:25Z</time>
      </trkpt>
      <trkpt lat="48.22129" lon="-4.39946">
        <ele>78.48</ele>
        <time>2013-04-14T09:27:33Z</time>
      </trkpt>
      <trkpt lat="48.22129" lon="-4.39922">
        <ele>78</ele>
        <time>2013-04-14T09:27:50Z</time>
      </trkpt>
      <trkpt lat="48.2213" lon="-4.39906">
        <ele>78.97</ele>
        <time>2013-04-14T09:28:07Z</time>
      </trkpt>
      <trkpt lat="48.22129" lon="-4.39904">
        <ele>78</ele>
        <time>2013-04-14T09:28:09Z</time>
      </trkpt>
      <trkpt lat="48.2213" lon="-4.399">
        <ele>77.04</ele>
        <time>2013-04-14T09:28:11Z</time>
      </trkpt>
      <trkpt lat="48.22137" lon="-4.3988">
        <ele>78.97</ele>
        <time>2013-04-14T09:28:30Z</time>
      </trkpt>
      <trkpt lat="48.22141" lon="-4.39875">
        <ele>81.37</ele>
        <time>2013-04-14T09:28:48Z</time>
      </trkpt>
      <trkpt lat="48.22148" lon="-4.39868">
        <ele>83.29</ele>
        <time>2013-04-14T09:29:06Z</time>
      </trkpt>
      <trkpt lat="48.2215" lon="-4.39866">
        <ele>84.25</ele>
        <time>2013-04-14T09:29:27Z</time>
      </trkpt>
      <trkpt lat="48.22154" lon="-4.39865">
        <ele>85.69</ele>
        <time>2013-04-14T09:29:54Z</time>
      </trkpt>
      <trkpt lat="48.22161" lon="-4.39854">
        <ele>89.54</ele>
        <time>2013-04-14T09:30:09Z</time>
      </trkpt>
      <trkpt lat="48.2217" lon="-4.39843">
        <ele>89.54</ele>
        <time>2013-04-14T09:30:24Z</time>
      </trkpt>
      <trkpt lat="48.22172" lon="-4.39838">
        <ele>89.06</ele>
        <time>2013-04-14T09:30:43Z</time>
      </trkpt>
      <trkpt lat="48.22175" lon="-4.39834">
        <ele>90.5</ele>
        <time>2013-04-14T09:30:50Z</time>
      </trkpt>
      <trkpt lat="48.22183" lon="-4.39811">
        <ele>90.02</ele>
        <time>2013-04-14T09:31:08Z</time>
      </trkpt>
      <trkpt lat="48.22188" lon="-4.39784">
        <ele>90.98</ele>
        <time>2013-04-14T09:31:27Z</time>
      </trkpt>
      <trkpt lat="48.22189" lon="-4.39756">
        <ele>90.98</ele>
        <time>2013-04-14T09:31:48Z</time>
      </trkpt>
      <trkpt lat="48.2219" lon="-4.39751">
        <ele>90.98</ele>
        <time>2013-04-14T09:31:51Z</time>
      </trkpt>
      <trkpt lat="48.2218" lon="-4.39744">
        <ele>88.58</ele>
        <time>2013-04-14T09:32:05Z</time>
      </trkpt>
      <trkpt lat="48.22176" lon="-4.39744">
        <ele>89.54</ele>
        <time>2013-04-14T09:32:14Z</time>
      </trkpt>
      <trkpt lat="48.22175" lon="-4.39745">
        <ele>87.14</ele>
        <time>2013-04-14T09:32:16Z</time>
      </trkpt>
      <trkpt lat="48.22167" lon="-4.3974">
        <ele>82.81</ele>
        <time>2013-04-14T09:32:29Z</time>
      </trkpt>
      <trkpt lat="48.22167" lon="-4.3974">
        <ele>85.69</ele>
        <time>2013-04-14T09:32:30Z</time>
      </trkpt>
      <trkpt lat="48.2216" lon="-4.39729">
        <ele>83.77</ele>
        <time>2013-04-14T09:32:46Z</time>
      </trkpt>
      <trkpt lat="48.22164" lon="-4.39714">
        <ele>84.25</ele>
        <time>2013-04-14T09:33:01Z</time>
      </trkpt>
      <trkpt lat="48.22165" lon="-4.39694">
        <ele>83.77</ele>
        <time>2013-04-14T09:33:16Z</time>
      </trkpt>
      <trkpt lat="48.2216" lon="-4.39665">
        <ele>82.33</ele>
        <time>2013-04-14T09:33:33Z</time>
      </trkpt>
      <trkpt lat="48.22158" lon="-4.39653">
        <ele>80.41</ele>
        <time>2013-04-14T09:33:41Z</time>
      </trkpt>
      <trkpt lat="48.22155" lon="-4.39632">
        <ele>78.97</ele>
        <time>2013-04-14T09:33:59Z</time>
      </trkpt>
      <trkpt lat="48.22153" lon="-4.39626">
        <ele>77.04</ele>
        <time>2013-04-14T09:34:02Z</time>
      </trkpt>
      <trkpt lat="48.22151" lon="-4.39611">
        <ele>75.6</ele>
        <time>2013-04-14T09:34:16Z</time>
      </trkpt>
      <trkpt lat="48.22148" lon="-4.396">
        <ele>73.2</ele>
        <time>2013-04-14T09:34:29Z</time>
      </trkpt>
      <trkpt lat="48.22144" lon="-4.39588">
        <ele>69.83</ele>
        <time>2013-04-14T09:34:42Z</time>
      </trkpt>
      <trkpt lat="48.2214" lon="-4.39578">
        <ele>66.95</ele>
        <time>2013-04-14T09:34:55Z</time>
      </trkpt>
      <trkpt lat="48.22136" lon="-4.39573">
        <ele>63.58</ele>
        <time>2013-04-14T09:35:06Z</time>
      </trkpt>
      <trkpt lat="48.22131" lon="-4.39567">
        <ele>61.18</ele>
        <time>2013-04-14T09:35:19Z</time>
      </trkpt>
      <trkpt lat="48.2213" lon="-4.39562">
        <ele>59.74</ele>
        <time>2013-04-14T09:35:23Z</time>
      </trkpt>
      <trkpt lat="48.22125" lon="-4.39552">
        <ele>57.82</ele>
        <time>2013-04-14T09:35:40Z</time>
      </trkpt>
      <trkpt lat="48.22122" lon="-4.3955">
        <ele>54.93</ele>
        <time>2013-04-14T09:35:46Z</time>
      </trkpt>
      <trkpt lat="48.22118" lon="-4.39543">
        <ele>51.09</ele>
        <time>2013-04-14T09:35:57Z</time>
      </trkpt>
      <trkpt lat="48.22115" lon="-4.39534">
        <ele>47.72</ele>
        <time>2013-04-14T09:36:07Z</time>
      </trkpt>
      <trkpt lat="48.22108" lon="-4.39545">
        <ele>43.88</ele>
        <time>2013-04-14T09:36:21Z</time>
      </trkpt>
      <trkpt lat="48.22106" lon="-4.39543">
        <ele>44.84</ele>
        <time>2013-04-14T09:36:23Z</time>
      </trkpt>
      <trkpt lat="48.22105" lon="-4.39533">
        <ele>41.47</ele>
        <time>2013-04-14T09:36:35Z</time>
      </trkpt>
      <trkpt lat="48.221" lon="-4.39529">
        <ele>37.63</ele>
        <time>2013-04-14T09:36:44Z</time>
      </trkpt>
      <trkpt lat="48.22098" lon="-4.39529">
        <ele>37.15</ele>
        <time>2013-04-14T09:36:46Z</time>
      </trkpt>
      <trkpt lat="48.22095" lon="-4.3953">
        <ele>36.19</ele>
        <time>2013-04-14T09:36:57Z</time>
      </trkpt>
      <trkpt lat="48.22092" lon="-4.39525">
        <ele>34.74</ele>
        <time>2013-04-14T09:37:02Z</time>
      </trkpt>
      <trkpt lat="48.22089" lon="-4.3952">
        <ele>32.82</ele>
        <time>2013-04-14T09:37:10Z</time>
      </trkpt>
      <trkpt lat="48.22085" lon="-4.39519">
        <ele>29.46</ele>
        <time>2013-04-14T09:37:15Z</time>
      </trkpt>
      <trkpt lat="48.2208" lon="-4.39505">
        <ele>27.05</ele>
        <time>2013-04-14T09:37:32Z</time>
      </trkpt>
      <trkpt lat="48.22078" lon="-4.39484">
        <ele>26.09</ele>
        <time>2013-04-14T09:37:49Z</time>
      </trkpt>
      <trkpt lat="48.22078" lon="-4.3946">
        <ele>25.61</ele>
        <time>2013-04-14T09:38:07Z</time>
      </trkpt>
      <trkpt lat="48.2208" lon="-4.3944">
        <ele>27.05</ele>
        <time>2013-04-14T09:38:26Z</time>
      </trkpt>
      <trkpt lat="48.22081" lon="-4.39438">
        <ele>27.53</ele>
        <time>2013-04-14T09:38:31Z</time>
      </trkpt>
      <trkpt lat="48.22078" lon="-4.39416">
        <ele>27.53</ele>
        <time>2013-04-14T09:38:47Z</time>
      </trkpt>
      <trkpt lat="48.22079" lon="-4.39395">
        <ele>27.53</ele>
        <time>2013-04-14T09:39:05Z</time>
      </trkpt>
      <trkpt lat="48.22079" lon="-4.39371">
        <ele>28.5</ele>
        <time>2013-04-14T09:39:22Z</time>
      </trkpt>
      <trkpt lat="48.22078" lon="-4.39347">
        <ele>28.5</ele>
        <time>2013-04-14T09:39:38Z</time>
      </trkpt>
      <trkpt lat="48.22076" lon="-4.39329">
        <ele>29.46</ele>
        <time>2013-04-14T09:39:55Z</time>
      </trkpt>
      <trkpt lat="48.22076" lon="-4.39309">
        <ele>30.9</ele>
        <time>2013-04-14T09:40:11Z</time>
      </trkpt>
      <trkpt lat="48.22079" lon="-4.39291">
        <ele>31.38</ele>
        <time>2013-04-14T09:40:27Z</time>
      </trkpt>
      <trkpt lat="48.2208" lon="-4.39275">
        <ele>33.78</ele>
        <time>2013-04-14T09:40:44Z</time>
      </trkpt>
      <trkpt lat="48.2208" lon="-4.39255">
        <ele>35.23</ele>
        <time>2013-04-14T09:40:59Z</time>
      </trkpt>
      <trkpt lat="48.22074" lon="-4.39234">
        <ele>33.3</ele>
        <time>2013-04-14T09:41:16Z</time>
      </trkpt>
      <trkpt lat="48.22066" lon="-4.39219">
        <ele>32.82</ele>
        <time>2013-04-14T09:41:33Z</time>
      </trkpt>
      <trkpt lat="48.22065" lon="-4.39218">
        <ele>32.34</ele>
        <time>2013-04-14T09:41:56Z</time>
      </trkpt>
      <trkpt lat="48.22057" lon="-4.39202">
        <ele>34.74</ele>
        <time>2013-04-14T09:42:20Z</time>
      </trkpt>
      <trkpt lat="48.22044" lon="-4.39193">
        <ele>32.82</ele>
        <time>2013-04-14T09:42:36Z</time>
      </trkpt>
      <trkpt lat="48.22027" lon="-4.39179">
        <ele>29.46</ele>
        <time>2013-04-14T09:42:55Z</time>
      </trkpt>
      <trkpt lat="48.22021" lon="-4.39176">
        <ele>28.5</ele>
        <time>2013-04-14T09:43:01Z</time>
      </trkpt>
      <trkpt lat="48.22008" lon="-4.39151">
        <ele>28.98</ele>
        <time>2013-04-14T09:43:21Z</time>
      </trkpt>
      <trkpt lat="48.22" lon="-4.39147">
        <ele>28.02</ele>
        <time>2013-04-14T09:43:31Z</time>
      </trkpt>
      <trkpt lat="48.21982" lon="-4.39142">
        <ele>26.09</ele>
        <time>2013-04-14T09:43:50Z</time>
      </trkpt>
      <trkpt lat="48.21977" lon="-4.39141">
        <ele>24.65</ele>
        <time>2013-04-14T09:43:55Z</time>
      </trkpt>
      <trkpt lat="48.21973" lon="-4.39143">
        <ele>23.69</ele>
        <time>2013-04-14T09:43:58Z</time>
      </trkpt>
      <trkpt lat="48.21962" lon="-4.39143">
        <ele>23.21</ele>
        <time>2013-04-14T09:44:09Z</time>
      </trkpt>
      <trkpt lat="48.21954" lon="-4.39144">
        <ele>23.21</ele>
        <time>2013-04-14T09:44:17Z</time>
      </trkpt>
      <trkpt lat="48.2195" lon="-4.39142">
        <ele>22.25</ele>
        <time>2013-04-14T09:44:21Z</time>
      </trkpt>
      <trkpt lat="48.21942" lon="-4.39135">
        <ele>22.25</ele>
        <time>2013-04-14T09:44:34Z</time>
      </trkpt>
      <trkpt lat="48.21924" lon="-4.39128">
        <ele>21.77</ele>
        <time>2013-04-14T09:44:52Z</time>
      </trkpt>
      <trkpt lat="48.21914" lon="-4.3913">
        <ele>21.29</ele>
        <time>2013-04-14T09:45:13Z</time>
      </trkpt>
      <trkpt lat="48.21914" lon="-4.3913">
        <ele>20.81</ele>
        <time>2013-04-14T09:46:06Z</time>
      </trkpt>
      <trkpt lat="48.21908" lon="-4.39134">
        <ele>19.84</ele>
        <time>2013-04-14T09:46:19Z</time>
      </trkpt>
      <trkpt lat="48.21904" lon="-4.39139">
        <ele>21.29</ele>
        <time>2013-04-14T09:46:30Z</time>
      </trkpt>
      <trkpt lat="48.21898" lon="-4.39148">
        <ele>20.32</ele>
        <time>2013-04-14T09:46:46Z</time>
      </trkpt>
      <trkpt lat="48.21886" lon="-4.39154">
        <ele>18.88</ele>
        <time>2013-04-14T09:47:06Z</time>
      </trkpt>
      <trkpt lat="48.21878" lon="-4.39166">
        <ele>18.4</ele>
        <time>2013-04-14T09:47:23Z</time>
      </trkpt>
      <trkpt lat="48.21872" lon="-4.3917">
        <ele>18.88</ele>
        <time>2013-04-14T09:47:29Z</time>
      </trkpt>
      <trkpt lat="48.2187" lon="-4.39171">
        <ele>16.48</ele>
        <time>2013-04-14T09:47:34Z</time>
      </trkpt>
      <trkpt lat="48.21866" lon="-4.39189">
        <ele>14.56</ele>
        <time>2013-04-14T09:47:51Z</time>
      </trkpt>
      <trkpt lat="48.21864" lon="-4.39207">
        <ele>14.08</ele>
        <time>2013-04-14T09:48:09Z</time>
      </trkpt>
      <trkpt lat="48.21863" lon="-4.39221">
        <ele>13.6</ele>
        <time>2013-04-14T09:48:25Z</time>
      </trkpt>
      <trkpt lat="48.21862" lon="-4.39222">
        <ele>13.6</ele>
        <time>2013-04-14T09:48:27Z</time>
      </trkpt>
      <trkpt lat="48.2185" lon="-4.39216">
        <ele>15.04</ele>
        <time>2013-04-14T09:48:42Z</time>
      </trkpt>
      <trkpt lat="48.21843" lon="-4.3921">
        <ele>15.52</ele>
        <time>2013-04-14T09:48:54Z</time>
      </trkpt>
      <trkpt lat="48.21836" lon="-4.39195">
        <ele>15.04</ele>
        <time>2013-04-14T09:49:09Z</time>
      </trkpt>
      <trkpt lat="48.21835" lon="-4.39186">
        <ele>15.04</ele>
        <time>2013-04-14T09:49:17Z</time>
      </trkpt>
      <trkpt lat="48.21831" lon="-4.39177">
        <ele>16</ele>
        <time>2013-04-14T09:49:26Z</time>
      </trkpt>
      <trkpt lat="48.2183" lon="-4.39161">
        <ele>17.44</ele>
        <time>2013-04-14T09:49:39Z</time>
      </trkpt>
      <trkpt lat="48.21826" lon="-4.3915">
        <ele>18.4</ele>
        <time>2013-04-14T09:49:52Z</time>
      </trkpt>
      <trkpt lat="48.21821" lon="-4.39143">
        <ele>17.44</ele>
        <time>2013-04-14T09:50:05Z</time>
      </trkpt>
      <trkpt lat="48.21821" lon="-4.39143">
        <ele>17.92</ele>
        <time>2013-04-14T09:50:18Z</time>
      </trkpt>
      <trkpt lat="48.21822" lon="-4.39144">
        <ele>14.56</ele>
        <time>2013-04-14T09:50:21Z</time>
      </trkpt>
      <trkpt lat="48.21822" lon="-4.39144">
        <ele>17.92</ele>
        <time>2013-04-14T09:50:25Z</time>
      </trkpt>
      <trkpt lat="48.21813" lon="-4.39149">
        <ele>16.48</ele>
        <time>2013-04-14T09:50:43Z</time>
      </trkpt>
      <trkpt lat="48.21811" lon="-4.3915">
        <ele>17.44</ele>
        <time>2013-04-14T09:50:45Z</time>
      </trkpt>
      <trkpt lat="48.21803" lon="-4.39147">
        <ele>16.96</ele>
        <time>2013-04-14T09:51:00Z</time>
      </trkpt>
      <trkpt lat="48.21797" lon="-4.39139">
        <ele>16.48</ele>
        <time>2013-04-14T09:51:11Z</time>
      </trkpt>
      <trkpt lat="48.21791" lon="-4.39132">
        <ele>16</ele>
        <time>2013-04-14T09:51:27Z</time>
      </trkpt>
      <trkpt lat="48.21784" lon="-4.39123">
        <ele>15.04</ele>
        <time>2013-04-14T09:51:44Z</time>
      </trkpt>
      <trkpt lat="48.21781" lon="-4.39108">
        <ele>13.12</ele>
        <time>2013-04-14T09:52:02Z</time>
      </trkpt>
      <trkpt lat="48.21784" lon="-4.39099">
        <ele>14.56</ele>
        <time>2013-04-14T09:52:09Z</time>
      </trkpt>
      <trkpt lat="48.21785" lon="-4.39092">
        <ele>14.08</ele>
        <time>2013-04-14T09:52:14Z</time>
      </trkpt>
      <trkpt lat="48.21788" lon="-4.3908">
        <ele>13.6</ele>
        <time>2013-04-14T09:52:22Z</time>
      </trkpt>
      <trkpt lat="48.21794" lon="-4.39068">
        <ele>13.12</ele>
        <time>2013-04-14T09:52:33Z</time>
      </trkpt>
      <trkpt lat="48.21799" lon="-4.39055">
        <ele>14.08</ele>
        <time>2013-04-14T09:52:42Z</time>
      </trkpt>
      <trkpt lat="48.21801" lon="-4.39047">
        <ele>13.6</ele>
        <time>2013-04-14T09:52:48Z</time>
      </trkpt>
      <trkpt lat="48.218" lon="-4.39044">
        <ele>14.08</ele>
        <time>2013-04-14T09:52:50Z</time>
      </trkpt>
      <trkpt lat="48.21801" lon="-4.39033">
        <ele>12.63</ele>
        <time>2013-04-14T09:52:57Z</time>
      </trkpt>
      <trkpt lat="48.218" lon="-4.3903">
        <ele>12.63</ele>
        <time>2013-04-14T09:53:00Z</time>
      </trkpt>
      <trkpt lat="48.21803" lon="-4.39004">
        <ele>11.19</ele>
        <time>2013-04-14T09:53:19Z</time>
      </trkpt>
      <trkpt lat="48.21805" lon="-4.38997">
        <ele>11.19</ele>
        <time>2013-04-14T09:53:24Z</time>
      </trkpt>
      <trkpt lat="48.21811" lon="-4.38988">
        <ele>10.23</ele>
        <time>2013-04-14T09:53:33Z</time>
      </trkpt>
      <trkpt lat="48.21819" lon="-4.38982">
        <ele>10.71</ele>
        <time>2013-04-14T09:53:43Z</time>
      </trkpt>
      <trkpt lat="48.21832" lon="-4.38972">
        <ele>11.67</ele>
        <time>2013-04-14T09:54:01Z</time>
      </trkpt>
      <trkpt lat="48.21842" lon="-4.38961">
        <ele>12.63</ele>
        <time>2013-04-14T09:54:18Z</time>
      </trkpt>
      <trkpt lat="48.21844" lon="-4.38958">
        <ele>13.12</ele>
        <time>2013-04-14T09:54:21Z</time>
      </trkpt>
      <trkpt lat="48.21858" lon="-4.38952">
        <ele>14.08</ele>
        <time>2013-04-14T09:54:40Z</time>
      </trkpt>
      <trkpt lat="48.21869" lon="-4.38947">
        <ele>14.56</ele>
        <time>2013-04-14T09:54:56Z</time>
      </trkpt>
      <trkpt lat="48.21874" lon="-4.38946">
        <ele>16</ele>
        <time>2013-04-14T09:55:03Z</time>
      </trkpt>
      <trkpt lat="48.21889" lon="-4.38931">
        <ele>15.52</ele>
        <time>2013-04-14T09:55:20Z</time>
      </trkpt>
      <trkpt lat="48.21891" lon="-4.3893">
        <ele>16</ele>
        <time>2013-04-14T09:55:22Z</time>
      </trkpt>
      <trkpt lat="48.21903" lon="-4.38918">
        <ele>16</ele>
        <time>2013-04-14T09:55:38Z</time>
      </trkpt>
      <trkpt lat="48.21905" lon="-4.38911">
        <ele>16.48</ele>
        <time>2013-04-14T09:55:44Z</time>
      </trkpt>
      <trkpt lat="48.21914" lon="-4.3889">
        <ele>16.48</ele>
        <time>2013-04-14T09:56:00Z</time>
      </trkpt>
      <trkpt lat="48.21925" lon="-4.38869">
        <ele>17.44</ele>
        <time>2013-04-14T09:56:18Z</time>
      </trkpt>
      <trkpt lat="48.21933" lon="-4.38848">
        <ele>17.44</ele>
        <time>2013-04-14T09:56:35Z</time>
      </trkpt>
      <trkpt lat="48.21939" lon="-4.38828">
        <ele>17.92</ele>
        <time>2013-04-14T09:56:53Z</time>
      </trkpt>
      <trkpt lat="48.21945" lon="-4.38808">
        <ele>17.92</ele>
        <time>2013-04-14T09:57:08Z</time>
      </trkpt>
      <trkpt lat="48.2195" lon="-4.38792">
        <ele>18.4</ele>
        <time>2013-04-14T09:57:22Z</time>
      </trkpt>
      <trkpt lat="48.21952" lon="-4.38765">
        <ele>18.88</ele>
        <time>2013-04-14T09:57:40Z</time>
      </trkpt>
      <trkpt lat="48.21953" lon="-4.38763">
        <ele>19.36</ele>
        <time>2013-04-14T09:57:57Z</time>
      </trkpt>
      <trkpt lat="48.21954" lon="-4.38762">
        <ele>18.4</ele>
        <time>2013-04-14T09:58:26Z</time>
      </trkpt>
      <trkpt lat="48.21959" lon="-4.38748">
        <ele>18.88</ele>
        <time>2013-04-14T09:58:52Z</time>
      </trkpt>
      <trkpt lat="48.2196" lon="-4.38726">
        <ele>19.84</ele>
        <time>2013-04-14T09:59:09Z</time>
      </trkpt>
      <trkpt lat="48.21965" lon="-4.387">
        <ele>20.81</ele>
        <time>2013-04-14T09:59:29Z</time>
      </trkpt>
      <trkpt lat="48.21968" lon="-4.38678">
        <ele>22.73</ele>
        <time>2013-04-14T09:59:50Z</time>
      </trkpt>
      <trkpt lat="48.21971" lon="-4.38663">
        <ele>21.77</ele>
        <time>2013-04-14T10:00:03Z</time>
      </trkpt>
      <trkpt lat="48.21972" lon="-4.38651">
        <ele>24.17</ele>
        <time>2013-04-14T10:00:21Z</time>
      </trkpt>
      <trkpt lat="48.21972" lon="-4.38642">
        <ele>24.17</ele>
        <time>2013-04-14T10:01:44Z</time>
      </trkpt>
      <trkpt lat="48.21973" lon="-4.38635">
        <ele>26.09</ele>
        <time>2013-04-14T10:02:00Z</time>
      </trkpt>
      <trkpt lat="48.21972" lon="-4.38624">
        <ele>27.53</ele>
        <time>2013-04-14T10:02:20Z</time>
      </trkpt>
      <trkpt lat="48.21972" lon="-4.38623">
        <ele>27.53</ele>
        <time>2013-04-14T10:02:41Z</time>
      </trkpt>
      <trkpt lat="48.21969" lon="-4.38607">
        <ele>27.05</ele>
        <time>2013-04-14T10:02:59Z</time>
      </trkpt>
      <trkpt lat="48.21964" lon="-4.38587">
        <ele>27.53</ele>
        <time>2013-04-14T10:03:18Z</time>
      </trkpt>
      <trkpt lat="48.21962" lon="-4.38582">
        <ele>27.53</ele>
        <time>2013-04-14T10:03:23Z</time>
      </trkpt>
      <trkpt lat="48.2196" lon="-4.3858">
        <ele>28.02</ele>
        <time>2013-04-14T10:03:25Z</time>
      </trkpt>
      <trkpt lat="48.21957" lon="-4.38569">
        <ele>26.57</ele>
        <time>2013-04-14T10:03:33Z</time>
      </trkpt>
      <trkpt lat="48.21949" lon="-4.38562">
        <ele>24.65</ele>
        <time>2013-04-14T10:03:43Z</time>
      </trkpt>
      <trkpt lat="48.21945" lon="-4.38542">
        <ele>23.69</ele>
        <time>2013-04-14T10:03:57Z</time>
      </trkpt>
      <trkpt lat="48.21941" lon="-4.38521">
        <ele>23.21</ele>
        <time>2013-04-14T10:04:13Z</time>
      </trkpt>
      <trkpt lat="48.21939" lon="-4.38506">
        <ele>23.21</ele>
        <time>2013-04-14T10:04:42Z</time>
      </trkpt>
      <trkpt lat="48.21941" lon="-4.38491">
        <ele>25.13</ele>
        <time>2013-04-14T10:04:59Z</time>
      </trkpt>
      <trkpt lat="48.21935" lon="-4.38477">
        <ele>23.69</ele>
        <time>2013-04-14T10:05:17Z</time>
      </trkpt>
      <trkpt lat="48.21933" lon="-4.38465">
        <ele>24.65</ele>
        <time>2013-04-14T10:05:33Z</time>
      </trkpt>
      <trkpt lat="48.21931" lon="-4.38459">
        <ele>22.25</ele>
        <time>2013-04-14T10:05:50Z</time>
      </trkpt>
      <trkpt lat="48.21926" lon="-4.38442">
        <ele>23.69</ele>
        <time>2013-04-14T10:06:06Z</time>
      </trkpt>
      <trkpt lat="48.21929" lon="-4.38435">
        <ele>26.57</ele>
        <time>2013-04-14T10:06:21Z</time>
      </trkpt>
      <trkpt lat="48.21928" lon="-4.3842">
        <ele>27.05</ele>
        <time>2013-04-14T10:06:37Z</time>
      </trkpt>
      <trkpt lat="48.21925" lon="-4.38408">
        <ele>26.57</ele>
        <time>2013-04-14T10:06:48Z</time>
      </trkpt>
      <trkpt lat="48.2192" lon="-4.38392">
        <ele>24.17</ele>
        <time>2013-04-14T10:07:03Z</time>
      </trkpt>
      <trkpt lat="48.21917" lon="-4.38368">
        <ele>24.17</ele>
        <time>2013-04-14T10:07:21Z</time>
      </trkpt>
      <trkpt lat="48.21917" lon="-4.38357">
        <ele>26.57</ele>
        <time>2013-04-14T10:07:40Z</time>
      </trkpt>
      <trkpt lat="48.21917" lon="-4.38356">
        <ele>25.61</ele>
        <time>2013-04-14T10:08:56Z</time>
      </trkpt>
      <trkpt lat="48.21919" lon="-4.38346">
        <ele>28.98</ele>
        <time>2013-04-14T10:09:06Z</time>
      </trkpt>
      <trkpt lat="48.21924" lon="-4.38333">
        <ele>29.94</ele>
        <time>2013-04-14T10:09:22Z</time>
      </trkpt>
      <trkpt lat="48.21926" lon="-4.38326">
        <ele>33.3</ele>
        <time>2013-04-14T10:09:31Z</time>
      </trkpt>
      <trkpt lat="48.21926" lon="-4.38325">
        <ele>32.82</ele>
        <time>2013-04-14T10:09:32Z</time>
      </trkpt>
      <trkpt lat="48.21926" lon="-4.38306">
        <ele>34.26</ele>
        <time>2013-04-14T10:09:50Z</time>
      </trkpt>
      <trkpt lat="48.21916" lon="-4.38285">
        <ele>33.3</ele>
        <time>2013-04-14T10:10:08Z</time>
      </trkpt>
      <trkpt lat="48.2191" lon="-4.3826">
        <ele>32.34</ele>
        <time>2013-04-14T10:10:24Z</time>
      </trkpt>
      <trkpt lat="48.21908" lon="-4.38246">
        <ele>30.42</ele>
        <time>2013-04-14T10:10:32Z</time>
      </trkpt>
      <trkpt lat="48.21906" lon="-4.38218">
        <ele>29.46</ele>
        <time>2013-04-14T10:10:50Z</time>
      </trkpt>
      <trkpt lat="48.21905" lon="-4.38201">
        <ele>29.46</ele>
        <time>2013-04-14T10:11:00Z</time>
      </trkpt>
      <trkpt lat="48.21906" lon="-4.38167">
        <ele>28.02</ele>
        <time>2013-04-14T10:11:19Z</time>
      </trkpt>
      <trkpt lat="48.21899" lon="-4.38156">
        <ele>25.61</ele>
        <time>2013-04-14T10:11:37Z</time>
      </trkpt>
      <trkpt lat="48.21895" lon="-4.38147">
        <ele>23.69</ele>
        <time>2013-04-14T10:11:47Z</time>
      </trkpt>
      <trkpt lat="48.21895" lon="-4.38142">
        <ele>23.21</ele>
        <time>2013-04-14T10:11:51Z</time>
      </trkpt>
      <trkpt lat="48.21894" lon="-4.38126">
        <ele>24.17</ele>
        <time>2013-04-14T10:12:02Z</time>
      </trkpt>
      <trkpt lat="48.21892" lon="-4.3812">
        <ele>23.69</ele>
        <time>2013-04-14T10:12:07Z</time>
      </trkpt>
      <trkpt lat="48.21891" lon="-4.38117">
        <ele>22.25</ele>
        <time>2013-04-14T10:12:10Z</time>
      </trkpt>
      <trkpt lat="48.21888" lon="-4.38112">
        <ele>22.25</ele>
        <time>2013-04-14T10:12:14Z</time>
      </trkpt>
      <trkpt lat="48.21886" lon="-4.38103">
        <ele>21.29</ele>
        <time>2013-04-14T10:12:20Z</time>
      </trkpt>
      <trkpt lat="48.21887" lon="-4.38096">
        <ele>20.81</ele>
        <time>2013-04-14T10:12:24Z</time>
      </trkpt>
      <trkpt lat="48.21889" lon="-4.38083">
        <ele>20.81</ele>
        <time>2013-04-14T10:12:35Z</time>
      </trkpt>
      <trkpt lat="48.21889" lon="-4.38056">
        <ele>21.77</ele>
        <time>2013-04-14T10:12:53Z</time>
      </trkpt>
      <trkpt lat="48.21888" lon="-4.38052">
        <ele>21.77</ele>
        <time>2013-04-14T10:12:56Z</time>
      </trkpt>
      <trkpt lat="48.21888" lon="-4.38022">
        <ele>21.29</ele>
        <time>2013-04-14T10:13:14Z</time>
      </trkpt>
      <trkpt lat="48.21889" lon="-4.38001">
        <ele>20.81</ele>
        <time>2013-04-14T10:13:27Z</time>
      </trkpt>
      <trkpt lat="48.21888" lon="-4.38">
        <ele>20.32</ele>
        <time>2013-04-14T10:13:46Z</time>
      </trkpt>
      <trkpt lat="48.2189" lon="-4.37986">
        <ele>20.32</ele>
        <time>2013-04-14T10:14:02Z</time>
      </trkpt>
      <trkpt lat="48.21897" lon="-4.37974">
        <ele>21.29</ele>
        <time>2013-04-14T10:14:19Z</time>
      </trkpt>
      <trkpt lat="48.21898" lon="-4.37968">
        <ele>21.77</ele>
        <time>2013-04-14T10:14:23Z</time>
      </trkpt>
      <trkpt lat="48.21897" lon="-4.37957">
        <ele>20.81</ele>
        <time>2013-04-14T10:14:37Z</time>
      </trkpt>
      <trkpt lat="48.21897" lon="-4.3793">
        <ele>19.84</ele>
        <time>2013-04-14T10:14:55Z</time>
      </trkpt>
      <trkpt lat="48.219" lon="-4.37902">
        <ele>19.84</ele>
        <time>2013-04-14T10:15:12Z</time>
      </trkpt>
      <trkpt lat="48.21903" lon="-4.37875">
        <ele>19.84</ele>
        <time>2013-04-14T10:15:28Z</time>
      </trkpt>
      <trkpt lat="48.21902" lon="-4.37871">
        <ele>19.84</ele>
        <time>2013-04-14T10:15:31Z</time>
      </trkpt>
      <trkpt lat="48.21902" lon="-4.37843">
        <ele>17.92</ele>
        <time>2013-04-14T10:15:49Z</time>
      </trkpt>
      <trkpt lat="48.21905" lon="-4.37813">
        <ele>18.88</ele>
        <time>2013-04-14T10:16:07Z</time>
      </trkpt>
      <trkpt lat="48.21902" lon="-4.37806">
        <ele>19.36</ele>
        <time>2013-04-14T10:16:13Z</time>
      </trkpt>
      <trkpt lat="48.21901" lon="-4.378">
        <ele>19.36</ele>
        <time>2013-04-14T10:16:17Z</time>
      </trkpt>
      <trkpt lat="48.21898" lon="-4.3779">
        <ele>17.92</ele>
        <time>2013-04-14T10:16:23Z</time>
      </trkpt>
      <trkpt lat="48.21886" lon="-4.37769">
        <ele>17.44</ele>
        <time>2013-04-14T10:16:42Z</time>
      </trkpt>
      <trkpt lat="48.21871" lon="-4.3775">
        <ele>15.52</ele>
        <time>2013-04-14T10:17:00Z</time>
      </trkpt>
      <trkpt lat="48.21862" lon="-4.37742">
        <ele>14.08</ele>
        <time>2013-04-14T10:17:12Z</time>
      </trkpt>
      <trkpt lat="48.21847" lon="-4.37729">
        <ele>12.15</ele>
        <time>2013-04-14T10:17:32Z</time>
      </trkpt>
      <trkpt lat="48.21834" lon="-4.37718">
        <ele>11.19</ele>
        <time>2013-04-14T10:17:48Z</time>
      </trkpt>
      <trkpt lat="48.21833" lon="-4.37717">
        <ele>10.71</ele>
        <time>2013-04-14T10:17:49Z</time>
      </trkpt>
      <trkpt lat="48.21826" lon="-4.37711">
        <ele>11.19</ele>
        <time>2013-04-14T10:17:59Z</time>
      </trkpt>
      <trkpt lat="48.21816" lon="-4.37697">
        <ele>10.23</ele>
        <time>2013-04-14T10:18:16Z</time>
      </trkpt>
      <trkpt lat="48.2181" lon="-4.3769">
        <ele>9.27</ele>
        <time>2013-04-14T10:18:31Z</time>
      </trkpt>
      <trkpt lat="48.218" lon="-4.37679">
        <ele>8.31</ele>
        <time>2013-04-14T10:18:47Z</time>
      </trkpt>
      <trkpt lat="48.21796" lon="-4.37669">
        <ele>10.23</ele>
        <time>2013-04-14T10:19:03Z</time>
      </trkpt>
      <trkpt lat="48.21787" lon="-4.3766">
        <ele>10.23</ele>
        <time>2013-04-14T10:19:19Z</time>
      </trkpt>
      <trkpt lat="48.21777" lon="-4.37649">
        <ele>9.75</ele>
        <time>2013-04-14T10:19:33Z</time>
      </trkpt>
      <trkpt lat="48.21761" lon="-4.37631">
        <ele>8.79</ele>
        <time>2013-04-14T10:19:52Z</time>
      </trkpt>
      <trkpt lat="48.21746" lon="-4.37612">
        <ele>6.39</ele>
        <time>2013-04-14T10:20:12Z</time>
      </trkpt>
      <trkpt lat="48.21732" lon="-4.37595">
        <ele>5.91</ele>
        <time>2013-04-14T10:20:30Z</time>
      </trkpt>
      <trkpt lat="48.21721" lon="-4.3758">
        <ele>5.42</ele>
        <time>2013-04-14T10:20:46Z</time>
      </trkpt>
      <trkpt lat="48.21717" lon="-4.37576">
        <ele>5.42</ele>
        <time>2013-04-14T10:21:04Z</time>
      </trkpt>
      <trkpt lat="48.21717" lon="-4.37576">
        <ele>5.42</ele>
        <time>2013-04-14T10:21:28Z</time>
      </trkpt>
      <trkpt lat="48.21711" lon="-4.37566">
        <ele>4.94</ele>
        <time>2013-04-14T10:22:29Z</time>
      </trkpt>
      <trkpt lat="48.21707" lon="-4.37561">
        <ele>4.46</ele>
        <time>2013-04-14T10:22:49Z</time>
      </trkpt>
      <trkpt lat="48.21705" lon="-4.3756">
        <ele>4.46</ele>
        <time>2013-04-14T10:23:26Z</time>
      </trkpt>
      <trkpt lat="48.21705" lon="-4.3756">
        <ele>3.98</ele>
        <time>2013-04-14T10:23:48Z</time>
      </trkpt>
      <trkpt lat="48.21705" lon="-4.3756">
        <ele>3.02</ele>
        <time>2013-04-14T10:24:34Z</time>
      </trkpt>
      <trkpt lat="48.21704" lon="-4.37559">
        <ele>3.02</ele>
        <time>2013-04-14T10:25:44Z</time>
      </trkpt>
      <trkpt lat="48.21704" lon="-4.37559">
        <ele>4.94</ele>
        <time>2013-04-14T10:27:12Z</time>
      </trkpt>
      <trkpt lat="48.21705" lon="-4.37561">
        <ele>3.5</ele>
        <time>2013-04-14T10:27:22Z</time>
      </trkpt>
      <trkpt lat="48.21705" lon="-4.37562">
        <ele>2.54</ele>
        <time>2013-04-14T10:51:24Z</time>
      </trkpt>
      <trkpt lat="48.21705" lon="-4.37562">
        <ele>3.02</ele>
        <time>2013-04-14T10:53:52Z</time>
      </trkpt>
      <trkpt lat="48.21705" lon="-4.37562">
        <ele>2.54</ele>
        <time>2013-04-14T10:54:30Z</time>
      </trkpt>
      <trkpt lat="48.21706" lon="-4.37561">
        <ele>3.5</ele>
        <time>2013-04-14T10:55:18Z</time>
      </trkpt>
      <trkpt lat="48.21706" lon="-4.37561">
        <ele>3.98</ele>
        <time>2013-04-14T10:55:40Z</time>
      </trkpt>
      <trkpt lat="48.21706" lon="-4.37562">
        <ele>3.5</ele>
        <time>2013-04-14T10:55:54Z</time>
      </trkpt>
      <trkpt lat="48.21707" lon="-4.37564">
        <ele>3.98</ele>
        <time>2013-04-14T10:56:15Z</time>
      </trkpt>
      <trkpt lat="48.21707" lon="-4.37564">
        <ele>3.02</ele>
        <time>2013-04-14T10:56:57Z</time>
      </trkpt>
      <trkpt lat="48.21705" lon="-4.37561">
        <ele>3.5</ele>
        <time>2013-04-14T10:58:14Z</time>
      </trkpt>
      <trkpt lat="48.21703" lon="-4.37556">
        <ele>3.02</ele>
        <time>2013-04-14T10:58:30Z</time>
      </trkpt>
      <trkpt lat="48.21702" lon="-4.37556">
        <ele>3.5</ele>
        <time>2013-04-14T10:58:50Z</time>
      </trkpt>
      <trkpt lat="48.21702" lon="-4.37556">
        <ele>3.5</ele>
        <time>2013-04-14T10:59:42Z</time>
      </trkpt>
      <trkpt lat="48.21703" lon="-4.37555">
        <ele>3.5</ele>
        <time>2013-04-14T11:00:22Z</time>
      </trkpt>
      <trkpt lat="48.21704" lon="-4.37557">
        <ele>3.98</ele>
        <time>2013-04-14T11:00:47Z</time>
      </trkpt>
      <trkpt lat="48.21703" lon="-4.37553">
        <ele>3.98</ele>
        <time>2013-04-14T11:01:00Z</time>
      </trkpt>
      <trkpt lat="48.21706" lon="-4.37558">
        <ele>3.98</ele>
        <time>2013-04-14T11:01:29Z</time>
      </trkpt>
      <trkpt lat="48.21708" lon="-4.37559">
        <ele>3.98</ele>
        <time>2013-04-14T11:01:49Z</time>
      </trkpt>
      <trkpt lat="48.21708" lon="-4.37559">
        <ele>4.46</ele>
        <time>2013-04-14T11:02:16Z</time>
      </trkpt>
      <trkpt lat="48.21708" lon="-4.37564">
        <ele>4.94</ele>
        <time>2013-04-14T11:02:38Z</time>
      </trkpt>
      <trkpt lat="48.21709" lon="-4.37563">
        <ele>4.94</ele>
        <time>2013-04-14T11:02:55Z</time>
      </trkpt>
      <trkpt lat="48.21713" lon="-4.3757">
        <ele>4.46</ele>
        <time>2013-04-14T11:03:03Z</time>
      </trkpt>
      <trkpt lat="48.21717" lon="-4.37576">
        <ele>5.42</ele>
        <time>2013-04-14T11:03:09Z</time>
      </trkpt>
      <trkpt lat="48.21722" lon="-4.3758">
        <ele>5.42</ele>
        <time>2013-04-14T11:03:24Z</time>
      </trkpt>
      <trkpt lat="48.21728" lon="-4.37583">
        <ele>5.91</ele>
        <time>2013-04-14T11:03:43Z</time>
      </trkpt>
      <trkpt lat="48.21734" lon="-4.37582">
        <ele>5.91</ele>
        <time>2013-04-14T11:03:54Z</time>
      </trkpt>
      <trkpt lat="48.21742" lon="-4.37576">
        <ele>5.91</ele>
        <time>2013-04-14T11:04:06Z</time>
      </trkpt>
      <trkpt lat="48.21745" lon="-4.37572">
        <ele>5.91</ele>
        <time>2013-04-14T11:04:20Z</time>
      </trkpt>
      <trkpt lat="48.21756" lon="-4.37564">
        <ele>5.42</ele>
        <time>2013-04-14T11:04:34Z</time>
      </trkpt>
      <trkpt lat="48.2176" lon="-4.37559">
        <ele>5.91</ele>
        <time>2013-04-14T11:04:38Z</time>
      </trkpt>
      <trkpt lat="48.21771" lon="-4.37557">
        <ele>6.39</ele>
        <time>2013-04-14T11:04:48Z</time>
      </trkpt>
      <trkpt lat="48.21774" lon="-4.37554">
        <ele>5.91</ele>
        <time>2013-04-14T11:04:52Z</time>
      </trkpt>
      <trkpt lat="48.21781" lon="-4.3755">
        <ele>7.35</ele>
        <time>2013-04-14T11:05:00Z</time>
      </trkpt>
      <trkpt lat="48.21793" lon="-4.37546">
        <ele>7.35</ele>
        <time>2013-04-14T11:05:12Z</time>
      </trkpt>
      <trkpt lat="48.21815" lon="-4.37542">
        <ele>8.79</ele>
        <time>2013-04-14T11:05:31Z</time>
      </trkpt>
      <trkpt lat="48.21816" lon="-4.3754">
        <ele>8.79</ele>
        <time>2013-04-14T11:05:33Z</time>
      </trkpt>
      <trkpt lat="48.21828" lon="-4.37539">
        <ele>9.75</ele>
        <time>2013-04-14T11:05:43Z</time>
      </trkpt>
      <trkpt lat="48.21837" lon="-4.37541">
        <ele>10.23</ele>
        <time>2013-04-14T11:05:51Z</time>
      </trkpt>
      <trkpt lat="48.21846" lon="-4.3754">
        <ele>11.19</ele>
        <time>2013-04-14T11:06:00Z</time>
      </trkpt>
      <trkpt lat="48.21855" lon="-4.37535">
        <ele>12.15</ele>
        <time>2013-04-14T11:06:09Z</time>
      </trkpt>
      <trkpt lat="48.21864" lon="-4.37536">
        <ele>9.27</ele>
        <time>2013-04-14T11:06:16Z</time>
      </trkpt>
      <trkpt lat="48.21866" lon="-4.37535">
        <ele>13.12</ele>
        <time>2013-04-14T11:06:19Z</time>
      </trkpt>
      <trkpt lat="48.21867" lon="-4.37536">
        <ele>13.12</ele>
        <time>2013-04-14T11:06:20Z</time>
      </trkpt>
      <trkpt lat="48.21872" lon="-4.37536">
        <ele>13.6</ele>
        <time>2013-04-14T11:06:27Z</time>
      </trkpt>
      <trkpt lat="48.21875" lon="-4.37536">
        <ele>13.6</ele>
        <time>2013-04-14T11:06:31Z</time>
      </trkpt>
      <trkpt lat="48.21883" lon="-4.37536">
        <ele>14.56</ele>
        <time>2013-04-14T11:06:40Z</time>
      </trkpt>
      <trkpt lat="48.21902" lon="-4.37535">
        <ele>17.92</ele>
        <time>2013-04-14T11:06:58Z</time>
      </trkpt>
      <trkpt lat="48.2192" lon="-4.37534">
        <ele>17.44</ele>
        <time>2013-04-14T11:07:14Z</time>
      </trkpt>
      <trkpt lat="48.21923" lon="-4.37534">
        <ele>17.92</ele>
        <time>2013-04-14T11:07:17Z</time>
      </trkpt>
      <trkpt lat="48.2193" lon="-4.37532">
        <ele>18.88</ele>
        <time>2013-04-14T11:07:25Z</time>
      </trkpt>
      <trkpt lat="48.21939" lon="-4.37529">
        <ele>18.88</ele>
        <time>2013-04-14T11:07:38Z</time>
      </trkpt>
      <trkpt lat="48.21945" lon="-4.37524">
        <ele>20.32</ele>
        <time>2013-04-14T11:07:48Z</time>
      </trkpt>
      <trkpt lat="48.21948" lon="-4.37524">
        <ele>19.84</ele>
        <time>2013-04-14T11:07:51Z</time>
      </trkpt>
      <trkpt lat="48.21961" lon="-4.3752">
        <ele>21.77</ele>
        <time>2013-04-14T11:08:06Z</time>
      </trkpt>
      <trkpt lat="48.21966" lon="-4.37517">
        <ele>22.25</ele>
        <time>2013-04-14T11:08:11Z</time>
      </trkpt>
      <trkpt lat="48.2198" lon="-4.37511">
        <ele>23.21</ele>
        <time>2013-04-14T11:08:25Z</time>
      </trkpt>
      <trkpt lat="48.21993" lon="-4.37501">
        <ele>23.69</ele>
        <time>2013-04-14T11:08:40Z</time>
      </trkpt>
      <trkpt lat="48.22002" lon="-4.37492">
        <ele>24.17</ele>
        <time>2013-04-14T11:08:51Z</time>
      </trkpt>
      <trkpt lat="48.22016" lon="-4.37484">
        <ele>25.13</ele>
        <time>2013-04-14T11:09:05Z</time>
      </trkpt>
      <trkpt lat="48.22034" lon="-4.37476">
        <ele>26.09</ele>
        <time>2013-04-14T11:09:21Z</time>
      </trkpt>
      <trkpt lat="48.22047" lon="-4.37468">
        <ele>27.05</ele>
        <time>2013-04-14T11:09:34Z</time>
      </trkpt>
      <trkpt lat="48.22051" lon="-4.37468">
        <ele>27.05</ele>
        <time>2013-04-14T11:09:41Z</time>
      </trkpt>
      <trkpt lat="48.22069" lon="-4.37457">
        <ele>28.02</ele>
        <time>2013-04-14T11:09:59Z</time>
      </trkpt>
      <trkpt lat="48.22071" lon="-4.37456">
        <ele>28.5</ele>
        <time>2013-04-14T11:10:01Z</time>
      </trkpt>
      <trkpt lat="48.2208" lon="-4.37465">
        <ele>29.94</ele>
        <time>2013-04-14T11:10:16Z</time>
      </trkpt>
      <trkpt lat="48.22083" lon="-4.37474">
        <ele>30.9</ele>
        <time>2013-04-14T11:10:32Z</time>
      </trkpt>
      <trkpt lat="48.22087" lon="-4.37479">
        <ele>30.9</ele>
        <time>2013-04-14T11:10:41Z</time>
      </trkpt>
      <trkpt lat="48.22092" lon="-4.37485">
        <ele>32.82</ele>
        <time>2013-04-14T11:10:46Z</time>
      </trkpt>
      <trkpt lat="48.22098" lon="-4.37491">
        <ele>32.34</ele>
        <time>2013-04-14T11:11:01Z</time>
      </trkpt>
      <trkpt lat="48.221" lon="-4.37496">
        <ele>32.82</ele>
        <time>2013-04-14T11:11:19Z</time>
      </trkpt>
      <trkpt lat="48.221" lon="-4.37495">
        <ele>33.78</ele>
        <time>2013-04-14T11:11:21Z</time>
      </trkpt>
      <trkpt lat="48.22089" lon="-4.37479">
        <ele>32.82</ele>
        <time>2013-04-14T11:11:37Z</time>
      </trkpt>
      <trkpt lat="48.22081" lon="-4.37469">
        <ele>30.9</ele>
        <time>2013-04-14T11:11:52Z</time>
      </trkpt>
      <trkpt lat="48.22082" lon="-4.37478">
        <ele>31.38</ele>
        <time>2013-04-14T11:12:10Z</time>
      </trkpt>
      <trkpt lat="48.22089" lon="-4.37482">
        <ele>32.82</ele>
        <time>2013-04-14T11:12:20Z</time>
      </trkpt>
      <trkpt lat="48.22097" lon="-4.37493">
        <ele>33.78</ele>
        <time>2013-04-14T11:12:33Z</time>
      </trkpt>
      <trkpt lat="48.22103" lon="-4.37502">
        <ele>34.26</ele>
        <time>2013-04-14T11:12:48Z</time>
      </trkpt>
      <trkpt lat="48.22107" lon="-4.37509">
        <ele>35.23</ele>
        <time>2013-04-14T11:13:02Z</time>
      </trkpt>
      <trkpt lat="48.22112" lon="-4.37518">
        <ele>36.19</ele>
        <time>2013-04-14T11:13:20Z</time>
      </trkpt>
      <trkpt lat="48.22119" lon="-4.37524">
        <ele>36.67</ele>
        <time>2013-04-14T11:13:28Z</time>
      </trkpt>
      <trkpt lat="48.22126" lon="-4.37537">
        <ele>37.63</ele>
        <time>2013-04-14T11:13:42Z</time>
      </trkpt>
      <trkpt lat="48.22128" lon="-4.3754">
        <ele>38.11</ele>
        <time>2013-04-14T11:13:46Z</time>
      </trkpt>
      <trkpt lat="48.22134" lon="-4.37546">
        <ele>39.07</ele>
        <time>2013-04-14T11:14:00Z</time>
      </trkpt>
      <trkpt lat="48.22135" lon="-4.37548">
        <ele>39.07</ele>
        <time>2013-04-14T11:14:16Z</time>
      </trkpt>
      <trkpt lat="48.22136" lon="-4.3755">
        <ele>39.07</ele>
        <time>2013-04-14T11:14:19Z</time>
      </trkpt>
      <trkpt lat="48.22137" lon="-4.37555">
        <ele>39.55</ele>
        <time>2013-04-14T11:14:22Z</time>
      </trkpt>
      <trkpt lat="48.22139" lon="-4.37571">
        <ele>35.23</ele>
        <time>2013-04-14T11:14:34Z</time>
      </trkpt>
      <trkpt lat="48.22139" lon="-4.37573">
        <ele>39.55</ele>
        <time>2013-04-14T11:14:35Z</time>
      </trkpt>
      <trkpt lat="48.2214" lon="-4.37578">
        <ele>34.74</ele>
        <time>2013-04-14T11:14:39Z</time>
      </trkpt>
      <trkpt lat="48.2214" lon="-4.37579">
        <ele>40.03</ele>
        <time>2013-04-14T11:14:40Z</time>
      </trkpt>
      <trkpt lat="48.22141" lon="-4.37597">
        <ele>40.03</ele>
        <time>2013-04-14T11:14:54Z</time>
      </trkpt>
      <trkpt lat="48.22142" lon="-4.376">
        <ele>40.03</ele>
        <time>2013-04-14T11:14:56Z</time>
      </trkpt>
      <trkpt lat="48.22142" lon="-4.37603">
        <ele>39.55</ele>
        <time>2013-04-14T11:14:58Z</time>
      </trkpt>
      <trkpt lat="48.22142" lon="-4.37619">
        <ele>40.51</ele>
        <time>2013-04-14T11:15:09Z</time>
      </trkpt>
      <trkpt lat="48.22142" lon="-4.37634">
        <ele>40.99</ele>
        <time>2013-04-14T11:15:19Z</time>
      </trkpt>
      <trkpt lat="48.22142" lon="-4.37646">
        <ele>40.99</ele>
        <time>2013-04-14T11:15:26Z</time>
      </trkpt>
      <trkpt lat="48.22144" lon="-4.3765">
        <ele>40.51</ele>
        <time>2013-04-14T11:15:41Z</time>
      </trkpt>
      <trkpt lat="48.22144" lon="-4.3765">
        <ele>41.95</ele>
        <time>2013-04-14T11:15:55Z</time>
      </trkpt>
      <trkpt lat="48.22146" lon="-4.37649">
        <ele>41.95</ele>
        <time>2013-04-14T11:16:10Z</time>
      </trkpt>
      <trkpt lat="48.22152" lon="-4.37636">
        <ele>42.92</ele>
        <time>2013-04-14T11:16:26Z</time>
      </trkpt>
      <trkpt lat="48.22158" lon="-4.37622">
        <ele>44.36</ele>
        <time>2013-04-14T11:16:43Z</time>
      </trkpt>
      <trkpt lat="48.22165" lon="-4.37609">
        <ele>44.84</ele>
        <time>2013-04-14T11:16:57Z</time>
      </trkpt>
      <trkpt lat="48.22165" lon="-4.37608">
        <ele>44.84</ele>
        <time>2013-04-14T11:16:58Z</time>
      </trkpt>
      <trkpt lat="48.22173" lon="-4.37593">
        <ele>46.76</ele>
        <time>2013-04-14T11:17:17Z</time>
      </trkpt>
      <trkpt lat="48.22178" lon="-4.37583">
        <ele>50.61</ele>
        <time>2013-04-14T11:17:29Z</time>
      </trkpt>
      <trkpt lat="48.2218" lon="-4.3758">
        <ele>47.72</ele>
        <time>2013-04-14T11:17:32Z</time>
      </trkpt>
      <trkpt lat="48.2219" lon="-4.37563">
        <ele>49.16</ele>
        <time>2013-04-14T11:17:52Z</time>
      </trkpt>
      <trkpt lat="48.222" lon="-4.3755">
        <ele>50.61</ele>
        <time>2013-04-14T11:18:10Z</time>
      </trkpt>
      <trkpt lat="48.222" lon="-4.3755">
        <ele>50.61</ele>
        <time>2013-04-14T11:18:43Z</time>
      </trkpt>
      <trkpt lat="48.22204" lon="-4.37546">
        <ele>51.09</ele>
        <time>2013-04-14T11:18:50Z</time>
      </trkpt>
      <trkpt lat="48.22215" lon="-4.37534">
        <ele>52.53</ele>
        <time>2013-04-14T11:19:08Z</time>
      </trkpt>
      <trkpt lat="48.2222" lon="-4.37529">
        <ele>53.01</ele>
        <time>2013-04-14T11:19:15Z</time>
      </trkpt>
      <trkpt lat="48.22229" lon="-4.3752">
        <ele>53.97</ele>
        <time>2013-04-14T11:19:31Z</time>
      </trkpt>
      <trkpt lat="48.2224" lon="-4.3751">
        <ele>55.41</ele>
        <time>2013-04-14T11:19:47Z</time>
      </trkpt>
      <trkpt lat="48.22246" lon="-4.37504">
        <ele>55.89</ele>
        <time>2013-04-14T11:20:06Z</time>
      </trkpt>
      <trkpt lat="48.22249" lon="-4.37501">
        <ele>56.86</ele>
        <time>2013-04-14T11:20:25Z</time>
      </trkpt>
      <trkpt lat="48.22262" lon="-4.37485">
        <ele>58.3</ele>
        <time>2013-04-14T11:20:44Z</time>
      </trkpt>
      <trkpt lat="48.22272" lon="-4.37472">
        <ele>58.78</ele>
        <time>2013-04-14T11:21:00Z</time>
      </trkpt>
      <trkpt lat="48.22272" lon="-4.37472">
        <ele>60.22</ele>
        <time>2013-04-14T11:21:20Z</time>
      </trkpt>
      <trkpt lat="48.22282" lon="-4.37465">
        <ele>61.66</ele>
        <time>2013-04-14T11:21:36Z</time>
      </trkpt>
      <trkpt lat="48.22297" lon="-4.37455">
        <ele>62.62</ele>
        <time>2013-04-14T11:21:55Z</time>
      </trkpt>
      <trkpt lat="48.22306" lon="-4.37448">
        <ele>64.07</ele>
        <time>2013-04-14T11:22:12Z</time>
      </trkpt>
      <trkpt lat="48.22314" lon="-4.37442">
        <ele>65.03</ele>
        <time>2013-04-14T11:22:34Z</time>
      </trkpt>
      <trkpt lat="48.22326" lon="-4.37439">
        <ele>65.51</ele>
        <time>2013-04-14T11:22:49Z</time>
      </trkpt>
      <trkpt lat="48.22334" lon="-4.37436">
        <ele>65.99</ele>
        <time>2013-04-14T11:23:06Z</time>
      </trkpt>
      <trkpt lat="48.22337" lon="-4.37434">
        <ele>66.95</ele>
        <time>2013-04-14T11:23:24Z</time>
      </trkpt>
      <trkpt lat="48.2235" lon="-4.37434">
        <ele>67.43</ele>
        <time>2013-04-14T11:23:38Z</time>
      </trkpt>
      <trkpt lat="48.22363" lon="-4.37441">
        <ele>68.39</ele>
        <time>2013-04-14T11:23:55Z</time>
      </trkpt>
      <trkpt lat="48.22368" lon="-4.37444">
        <ele>70.31</ele>
        <time>2013-04-14T11:24:10Z</time>
      </trkpt>
      <trkpt lat="48.22375" lon="-4.37448">
        <ele>71.27</ele>
        <time>2013-04-14T11:24:31Z</time>
      </trkpt>
      <trkpt lat="48.22381" lon="-4.37448">
        <ele>72.24</ele>
        <time>2013-04-14T11:24:47Z</time>
      </trkpt>
      <trkpt lat="48.22387" lon="-4.37447">
        <ele>73.2</ele>
        <time>2013-04-14T11:25:08Z</time>
      </trkpt>
      <trkpt lat="48.224" lon="-4.3744">
        <ele>74.16</ele>
        <time>2013-04-14T11:25:28Z</time>
      </trkpt>
      <trkpt lat="48.2241" lon="-4.37433">
        <ele>76.08</ele>
        <time>2013-04-14T11:25:45Z</time>
      </trkpt>
      <trkpt lat="48.22415" lon="-4.37434">
        <ele>76.56</ele>
        <time>2013-04-14T11:26:30Z</time>
      </trkpt>
      <trkpt lat="48.22424" lon="-4.3744">
        <ele>78.48</ele>
        <time>2013-04-14T11:26:48Z</time>
      </trkpt>
      <trkpt lat="48.22425" lon="-4.3744">
        <ele>78.48</ele>
        <time>2013-04-14T11:26:50Z</time>
      </trkpt>
      <trkpt lat="48.22435" lon="-4.37444">
        <ele>80.41</ele>
        <time>2013-04-14T11:27:06Z</time>
      </trkpt>
      <trkpt lat="48.22444" lon="-4.37445">
        <ele>82.33</ele>
        <time>2013-04-14T11:27:21Z</time>
      </trkpt>
      <trkpt lat="48.22455" lon="-4.37448">
        <ele>83.29</ele>
        <time>2013-04-14T11:27:38Z</time>
      </trkpt>
      <trkpt lat="48.22461" lon="-4.37453">
        <ele>85.21</ele>
        <time>2013-04-14T11:27:54Z</time>
      </trkpt>
      <trkpt lat="48.22466" lon="-4.37458">
        <ele>84.73</ele>
        <time>2013-04-14T11:28:15Z</time>
      </trkpt>
      <trkpt lat="48.22471" lon="-4.37462">
        <ele>85.69</ele>
        <time>2013-04-14T11:28:28Z</time>
      </trkpt>
      <trkpt lat="48.22484" lon="-4.3747">
        <ele>86.66</ele>
        <time>2013-04-14T11:28:45Z</time>
      </trkpt>
      <trkpt lat="48.22493" lon="-4.3746">
        <ele>87.62</ele>
        <time>2013-04-14T11:29:00Z</time>
      </trkpt>
      <trkpt lat="48.22504" lon="-4.37448">
        <ele>87.62</ele>
        <time>2013-04-14T11:29:18Z</time>
      </trkpt>
      <trkpt lat="48.22514" lon="-4.37454">
        <ele>89.54</ele>
        <time>2013-04-14T11:29:37Z</time>
      </trkpt>
      <trkpt lat="48.22522" lon="-4.37458">
        <ele>90.5</ele>
        <time>2013-04-14T11:29:51Z</time>
      </trkpt>
      <trkpt lat="48.22523" lon="-4.37459">
        <ele>90.5</ele>
        <time>2013-04-14T11:30:24Z</time>
      </trkpt>
      <trkpt lat="48.22531" lon="-4.37463">
        <ele>91.46</ele>
        <time>2013-04-14T11:30:50Z</time>
      </trkpt>
      <trkpt lat="48.22539" lon="-4.37468">
        <ele>92.9</ele>
        <time>2013-04-14T11:31:05Z</time>
      </trkpt>
      <trkpt lat="48.22551" lon="-4.37474">
        <ele>94.83</ele>
        <time>2013-04-14T11:31:23Z</time>
      </trkpt>
      <trkpt lat="48.22561" lon="-4.37479">
        <ele>96.27</ele>
        <time>2013-04-14T11:31:41Z</time>
      </trkpt>
      <trkpt lat="48.22571" lon="-4.37485">
        <ele>97.23</ele>
        <time>2013-04-14T11:31:58Z</time>
      </trkpt>
      <trkpt lat="48.22573" lon="-4.37486">
        <ele>97.71</ele>
        <time>2013-04-14T11:32:17Z</time>
      </trkpt>
      <trkpt lat="48.22579" lon="-4.37487">
        <ele>98.19</ele>
        <time>2013-04-14T11:32:42Z</time>
      </trkpt>
      <trkpt lat="48.22581" lon="-4.37488">
        <ele>99.15</ele>
        <time>2013-04-14T11:32:45Z</time>
      </trkpt>
      <trkpt lat="48.22592" lon="-4.37495">
        <ele>100.11</ele>
        <time>2013-04-14T11:33:01Z</time>
      </trkpt>
      <trkpt lat="48.22602" lon="-4.37502">
        <ele>101.08</ele>
        <time>2013-04-14T11:33:18Z</time>
      </trkpt>
      <trkpt lat="48.22604" lon="-4.37503">
        <ele>101.56</ele>
        <time>2013-04-14T11:33:39Z</time>
      </trkpt>
      <trkpt lat="48.2261" lon="-4.37507">
        <ele>103</ele>
        <time>2013-04-14T11:33:52Z</time>
      </trkpt>
      <trkpt lat="48.22617" lon="-4.37511">
        <ele>103.96</ele>
        <time>2013-04-14T11:34:03Z</time>
      </trkpt>
      <trkpt lat="48.22619" lon="-4.37512">
        <ele>104.44</ele>
        <time>2013-04-14T11:34:05Z</time>
      </trkpt>
      <trkpt lat="48.2262" lon="-4.37511">
        <ele>103</ele>
        <time>2013-04-14T11:34:17Z</time>
      </trkpt>
      <trkpt lat="48.2262" lon="-4.3751">
        <ele>103</ele>
        <time>2013-04-14T11:34:56Z</time>
      </trkpt>
      <trkpt lat="48.22621" lon="-4.37512">
        <ele>103.96</ele>
        <time>2013-04-14T11:34:58Z</time>
      </trkpt>
      <trkpt lat="48.22623" lon="-4.37513">
        <ele>104.92</ele>
        <time>2013-04-14T11:35:00Z</time>
      </trkpt>
      <trkpt lat="48.22632" lon="-4.3752">
        <ele>105.88</ele>
        <time>2013-04-14T11:35:11Z</time>
      </trkpt>
      <trkpt lat="48.22643" lon="-4.37525">
        <ele>106.84</ele>
        <time>2013-04-14T11:35:23Z</time>
      </trkpt>
      <trkpt lat="48.22644" lon="-4.37527">
        <ele>107.32</ele>
        <time>2013-04-14T11:35:25Z</time>
      </trkpt>
      <trkpt lat="48.2265" lon="-4.37531">
        <ele>107.81</ele>
        <time>2013-04-14T11:35:31Z</time>
      </trkpt>
      <trkpt lat="48.22667" lon="-4.3754">
        <ele>109.25</ele>
        <time>2013-04-14T11:35:49Z</time>
      </trkpt>
      <trkpt lat="48.22675" lon="-4.37545">
        <ele>109.73</ele>
        <time>2013-04-14T11:35:57Z</time>
      </trkpt>
      <trkpt lat="48.22677" lon="-4.37545">
        <ele>109.73</ele>
        <time>2013-04-14T11:35:59Z</time>
      </trkpt>
      <trkpt lat="48.22679" lon="-4.37547">
        <ele>109.73</ele>
        <time>2013-04-14T11:36:01Z</time>
      </trkpt>
      <trkpt lat="48.22697" lon="-4.37558">
        <ele>110.21</ele>
        <time>2013-04-14T11:36:21Z</time>
      </trkpt>
      <trkpt lat="48.22704" lon="-4.37563">
        <ele>110.21</ele>
        <time>2013-04-14T11:36:29Z</time>
      </trkpt>
      <trkpt lat="48.22706" lon="-4.37564">
        <ele>110.21</ele>
        <time>2013-04-14T11:36:31Z</time>
      </trkpt>
      <trkpt lat="48.22713" lon="-4.37569">
        <ele>110.21</ele>
        <time>2013-04-14T11:36:49Z</time>
      </trkpt>
      <trkpt lat="48.22712" lon="-4.3757">
        <ele>109.73</ele>
        <time>2013-04-14T11:37:07Z</time>
      </trkpt>
      <trkpt lat="48.22713" lon="-4.3757">
        <ele>109.73</ele>
        <time>2013-04-14T11:37:33Z</time>
      </trkpt>
      <trkpt lat="48.22714" lon="-4.37573">
        <ele>110.21</ele>
        <time>2013-04-14T11:37:40Z</time>
      </trkpt>
      <trkpt lat="48.22709" lon="-4.3759">
        <ele>110.21</ele>
        <time>2013-04-14T11:37:55Z</time>
      </trkpt>
      <trkpt lat="48.22705" lon="-4.3761">
        <ele>111.17</ele>
        <time>2013-04-14T11:38:11Z</time>
      </trkpt>
      <trkpt lat="48.227" lon="-4.37629">
        <ele>111.65</ele>
        <time>2013-04-14T11:38:26Z</time>
      </trkpt>
      <trkpt lat="48.22697" lon="-4.37641">
        <ele>115.01</ele>
        <time>2013-04-14T11:38:36Z</time>
      </trkpt>
      <trkpt lat="48.22697" lon="-4.37642">
        <ele>113.09</ele>
        <time>2013-04-14T11:38:37Z</time>
      </trkpt>
      <trkpt lat="48.22696" lon="-4.37645">
        <ele>112.13</ele>
        <time>2013-04-14T11:38:39Z</time>
      </trkpt>
      <trkpt lat="48.22696" lon="-4.37647">
        <ele>108.77</ele>
        <time>2013-04-14T11:38:41Z</time>
      </trkpt>
      <trkpt lat="48.22695" lon="-4.37649">
        <ele>112.61</ele>
        <time>2013-04-14T11:38:42Z</time>
      </trkpt>
      <trkpt lat="48.22691" lon="-4.37667">
        <ele>112.61</ele>
        <time>2013-04-14T11:38:57Z</time>
      </trkpt>
      <trkpt lat="48.22687" lon="-4.37681">
        <ele>113.57</ele>
        <time>2013-04-14T11:39:09Z</time>
      </trkpt>
      <trkpt lat="48.22683" lon="-4.37694">
        <ele>115.01</ele>
        <time>2013-04-14T11:39:19Z</time>
      </trkpt>
      <trkpt lat="48.22682" lon="-4.37699">
        <ele>115.01</ele>
        <time>2013-04-14T11:39:22Z</time>
      </trkpt>
      <trkpt lat="48.22678" lon="-4.37714">
        <ele>115.98</ele>
        <time>2013-04-14T11:39:40Z</time>
      </trkpt>
      <trkpt lat="48.22677" lon="-4.37717">
        <ele>115.5</ele>
        <time>2013-04-14T11:39:42Z</time>
      </trkpt>
      <trkpt lat="48.22676" lon="-4.37722">
        <ele>116.46</ele>
        <time>2013-04-14T11:39:48Z</time>
      </trkpt>
      <trkpt lat="48.22671" lon="-4.37728">
        <ele>116.46</ele>
        <time>2013-04-14T11:40:03Z</time>
      </trkpt>
      <trkpt lat="48.22671" lon="-4.3773">
        <ele>116.46</ele>
        <time>2013-04-14T11:40:23Z</time>
      </trkpt>
      <trkpt lat="48.2267" lon="-4.37731">
        <ele>116.46</ele>
        <time>2013-04-14T11:43:49Z</time>
      </trkpt>
      <trkpt lat="48.2267" lon="-4.3773">
        <ele>116.94</ele>
        <time>2013-04-14T11:44:57Z</time>
      </trkpt>
      <trkpt lat="48.22672" lon="-4.37732">
        <ele>116.94</ele>
        <time>2013-04-14T11:45:05Z</time>
      </trkpt>
      <trkpt lat="48.22674" lon="-4.37732">
        <ele>117.42</ele>
        <time>2013-04-14T11:45:22Z</time>
      </trkpt>
      <trkpt lat="48.22673" lon="-4.3774">
        <ele>117.9</ele>
        <time>2013-04-14T11:45:42Z</time>
      </trkpt>
      <trkpt lat="48.2267" lon="-4.37749">
        <ele>118.38</ele>
        <time>2013-04-14T11:45:48Z</time>
      </trkpt>
      <trkpt lat="48.22665" lon="-4.37765">
        <ele>119.34</ele>
        <time>2013-04-14T11:46:02Z</time>
      </trkpt>
      <trkpt lat="48.22664" lon="-4.37768">
        <ele>119.34</ele>
        <time>2013-04-14T11:46:04Z</time>
      </trkpt>
      <trkpt lat="48.22659" lon="-4.37785">
        <ele>119.82</ele>
        <time>2013-04-14T11:46:17Z</time>
      </trkpt>
      <trkpt lat="48.22655" lon="-4.37799">
        <ele>121.26</ele>
        <time>2013-04-14T11:46:29Z</time>
      </trkpt>
      <trkpt lat="48.22655" lon="-4.37802">
        <ele>121.26</ele>
        <time>2013-04-14T11:46:31Z</time>
      </trkpt>
      <trkpt lat="48.22652" lon="-4.37818">
        <ele>122.22</ele>
        <time>2013-04-14T11:46:45Z</time>
      </trkpt>
      <trkpt lat="48.22651" lon="-4.3782">
        <ele>122.22</ele>
        <time>2013-04-14T11:46:46Z</time>
      </trkpt>
      <trkpt lat="48.22649" lon="-4.37824">
        <ele>122.22</ele>
        <time>2013-04-14T11:46:49Z</time>
      </trkpt>
      <trkpt lat="48.22648" lon="-4.37833">
        <ele>123.67</ele>
        <time>2013-04-14T11:46:57Z</time>
      </trkpt>
      <trkpt lat="48.22644" lon="-4.3785">
        <ele>124.15</ele>
        <time>2013-04-14T11:47:13Z</time>
      </trkpt>
      <trkpt lat="48.22639" lon="-4.37867">
        <ele>125.59</ele>
        <time>2013-04-14T11:47:30Z</time>
      </trkpt>
      <trkpt lat="48.22637" lon="-4.37887">
        <ele>126.07</ele>
        <time>2013-04-14T11:47:44Z</time>
      </trkpt>
      <trkpt lat="48.22637" lon="-4.37907">
        <ele>127.03</ele>
        <time>2013-04-14T11:48:00Z</time>
      </trkpt>
      <trkpt lat="48.22637" lon="-4.37915">
        <ele>127.51</ele>
        <time>2013-04-14T11:48:05Z</time>
      </trkpt>
      <trkpt lat="48.22638" lon="-4.3792">
        <ele>127.03</ele>
        <time>2013-04-14T11:48:08Z</time>
      </trkpt>
      <trkpt lat="48.22638" lon="-4.37928">
        <ele>126.07</ele>
        <time>2013-04-14T11:48:14Z</time>
      </trkpt>
      <trkpt lat="48.22638" lon="-4.37935">
        <ele>127.03</ele>
        <time>2013-04-14T11:48:18Z</time>
      </trkpt>
      <trkpt lat="48.22638" lon="-4.37938">
        <ele>127.03</ele>
        <time>2013-04-14T11:48:20Z</time>
      </trkpt>
      <trkpt lat="48.22638" lon="-4.37947">
        <ele>127.03</ele>
        <time>2013-04-14T11:48:26Z</time>
      </trkpt>
      <trkpt lat="48.22638" lon="-4.3795">
        <ele>126.55</ele>
        <time>2013-04-14T11:48:28Z</time>
      </trkpt>
      <trkpt lat="48.22638" lon="-4.37957">
        <ele>127.03</ele>
        <time>2013-04-14T11:48:36Z</time>
      </trkpt>
      <trkpt lat="48.22638" lon="-4.37963">
        <ele>127.03</ele>
        <time>2013-04-14T11:48:39Z</time>
      </trkpt>
      <trkpt lat="48.22639" lon="-4.37969">
        <ele>126.55</ele>
        <time>2013-04-14T11:48:43Z</time>
      </trkpt>
      <trkpt lat="48.22641" lon="-4.38001">
        <ele>127.99</ele>
        <time>2013-04-14T11:49:03Z</time>
      </trkpt>
      <trkpt lat="48.22641" lon="-4.38005">
        <ele>127.03</ele>
        <time>2013-04-14T11:49:06Z</time>
      </trkpt>
      <trkpt lat="48.22642" lon="-4.38012">
        <ele>127.51</ele>
        <time>2013-04-14T11:49:10Z</time>
      </trkpt>
      <trkpt lat="48.22641" lon="-4.38017">
        <ele>127.99</ele>
        <time>2013-04-14T11:49:13Z</time>
      </trkpt>
      <trkpt lat="48.22641" lon="-4.3802">
        <ele>127.51</ele>
        <time>2013-04-14T11:49:15Z</time>
      </trkpt>
      <trkpt lat="48.22642" lon="-4.38047">
        <ele>127.51</ele>
        <time>2013-04-14T11:49:32Z</time>
      </trkpt>
      <trkpt lat="48.22642" lon="-4.38049">
        <ele>127.03</ele>
        <time>2013-04-14T11:49:33Z</time>
      </trkpt>
      <trkpt lat="48.22643" lon="-4.38057">
        <ele>127.51</ele>
        <time>2013-04-14T11:49:38Z</time>
      </trkpt>
      <trkpt lat="48.22643" lon="-4.3806">
        <ele>127.51</ele>
        <time>2013-04-14T11:49:40Z</time>
      </trkpt>
      <trkpt lat="48.22644" lon="-4.38067">
        <ele>127.51</ele>
        <time>2013-04-14T11:49:44Z</time>
      </trkpt>
      <trkpt lat="48.22645" lon="-4.38097">
        <ele>127.03</ele>
        <time>2013-04-14T11:50:02Z</time>
      </trkpt>
      <trkpt lat="48.22645" lon="-4.38104">
        <ele>127.03</ele>
        <time>2013-04-14T11:50:07Z</time>
      </trkpt>
      <trkpt lat="48.22647" lon="-4.38129">
        <ele>127.51</ele>
        <time>2013-04-14T11:50:23Z</time>
      </trkpt>
      <trkpt lat="48.22646" lon="-4.38138">
        <ele>127.03</ele>
        <time>2013-04-14T11:50:29Z</time>
      </trkpt>
      <trkpt lat="48.22646" lon="-4.38146">
        <ele>127.99</ele>
        <time>2013-04-14T11:50:34Z</time>
      </trkpt>
      <trkpt lat="48.22647" lon="-4.38149">
        <ele>127.51</ele>
        <time>2013-04-14T11:50:36Z</time>
      </trkpt>
      <trkpt lat="48.22648" lon="-4.38162">
        <ele>127.51</ele>
        <time>2013-04-14T11:50:45Z</time>
      </trkpt>
      <trkpt lat="48.22649" lon="-4.38165">
        <ele>126.55</ele>
        <time>2013-04-14T11:50:47Z</time>
      </trkpt>
      <trkpt lat="48.22649" lon="-4.38175">
        <ele>127.51</ele>
        <time>2013-04-14T11:50:54Z</time>
      </trkpt>
      <trkpt lat="48.2265" lon="-4.38197">
        <ele>126.55</ele>
        <time>2013-04-14T11:51:10Z</time>
      </trkpt>
      <trkpt lat="48.22652" lon="-4.38208">
        <ele>127.99</ele>
        <time>2013-04-14T11:51:20Z</time>
      </trkpt>
      <trkpt lat="48.22653" lon="-4.38231">
        <ele>126.07</ele>
        <time>2013-04-14T11:51:34Z</time>
      </trkpt>
      <trkpt lat="48.22653" lon="-4.38235">
        <ele>127.03</ele>
        <time>2013-04-14T11:51:38Z</time>
      </trkpt>
      <trkpt lat="48.22655" lon="-4.38249">
        <ele>127.03</ele>
        <time>2013-04-14T11:51:47Z</time>
      </trkpt>
      <trkpt lat="48.22655" lon="-4.38274">
        <ele>127.03</ele>
        <time>2013-04-14T11:52:01Z</time>
      </trkpt>
      <trkpt lat="48.22656" lon="-4.38283">
        <ele>127.03</ele>
        <time>2013-04-14T11:52:06Z</time>
      </trkpt>
      <trkpt lat="48.22657" lon="-4.38292">
        <ele>127.51</ele>
        <time>2013-04-14T11:52:11Z</time>
      </trkpt>
      <trkpt lat="48.22657" lon="-4.38297">
        <ele>127.51</ele>
        <time>2013-04-14T11:52:14Z</time>
      </trkpt>
      <trkpt lat="48.22659" lon="-4.38325">
        <ele>127.03</ele>
        <time>2013-04-14T11:52:31Z</time>
      </trkpt>
      <trkpt lat="48.22661" lon="-4.38351">
        <ele>126.07</ele>
        <time>2013-04-14T11:52:47Z</time>
      </trkpt>
      <trkpt lat="48.22661" lon="-4.38383">
        <ele>124.15</ele>
        <time>2013-04-14T11:53:05Z</time>
      </trkpt>
      <trkpt lat="48.22662" lon="-4.38393">
        <ele>124.15</ele>
        <time>2013-04-14T11:53:10Z</time>
      </trkpt>
      <trkpt lat="48.22661" lon="-4.38417">
        <ele>122.22</ele>
        <time>2013-04-14T11:53:24Z</time>
      </trkpt>
      <trkpt lat="48.22661" lon="-4.38427">
        <ele>122.71</ele>
        <time>2013-04-14T11:53:30Z</time>
      </trkpt>
      <trkpt lat="48.22661" lon="-4.38432">
        <ele>122.22</ele>
        <time>2013-04-14T11:53:33Z</time>
      </trkpt>
      <trkpt lat="48.22663" lon="-4.38438">
        <ele>123.19</ele>
        <time>2013-04-14T11:53:37Z</time>
      </trkpt>
      <trkpt lat="48.22662" lon="-4.38444">
        <ele>122.22</ele>
        <time>2013-04-14T11:53:40Z</time>
      </trkpt>
      <trkpt lat="48.22663" lon="-4.38469">
        <ele>120.3</ele>
        <time>2013-04-14T11:53:56Z</time>
      </trkpt>
      <trkpt lat="48.22663" lon="-4.38471">
        <ele>120.3</ele>
        <time>2013-04-14T11:53:57Z</time>
      </trkpt>
      <trkpt lat="48.22664" lon="-4.38499">
        <ele>118.38</ele>
        <time>2013-04-14T11:54:13Z</time>
      </trkpt>
      <trkpt lat="48.22664" lon="-4.38517">
        <ele>117.42</ele>
        <time>2013-04-14T11:54:23Z</time>
      </trkpt>
      <trkpt lat="48.22665" lon="-4.38528">
        <ele>117.42</ele>
        <time>2013-04-14T11:54:30Z</time>
      </trkpt>
      <trkpt lat="48.22665" lon="-4.38532">
        <ele>116.94</ele>
        <time>2013-04-14T11:54:32Z</time>
      </trkpt>
      <trkpt lat="48.22666" lon="-4.38539">
        <ele>116.94</ele>
        <time>2013-04-14T11:54:36Z</time>
      </trkpt>
      <trkpt lat="48.22665" lon="-4.38572">
        <ele>115.98</ele>
        <time>2013-04-14T11:54:55Z</time>
      </trkpt>
      <trkpt lat="48.22665" lon="-4.38576">
        <ele>115.5</ele>
        <time>2013-04-14T11:54:57Z</time>
      </trkpt>
      <trkpt lat="48.22663" lon="-4.38601">
        <ele>115.5</ele>
        <time>2013-04-14T11:55:12Z</time>
      </trkpt>
      <trkpt lat="48.22663" lon="-4.3861">
        <ele>112.13</ele>
        <time>2013-04-14T11:55:17Z</time>
      </trkpt>
      <trkpt lat="48.22662" lon="-4.38612">
        <ele>115.5</ele>
        <time>2013-04-14T11:55:18Z</time>
      </trkpt>
      <trkpt lat="48.22662" lon="-4.38628">
        <ele>111.17</ele>
        <time>2013-04-14T11:55:27Z</time>
      </trkpt>
      <trkpt lat="48.22662" lon="-4.38629">
        <ele>115.5</ele>
        <time>2013-04-14T11:55:28Z</time>
      </trkpt>
      <trkpt lat="48.22661" lon="-4.38636">
        <ele>112.13</ele>
        <time>2013-04-14T11:55:32Z</time>
      </trkpt>
      <trkpt lat="48.22661" lon="-4.38637">
        <ele>115.5</ele>
        <time>2013-04-14T11:55:33Z</time>
      </trkpt>
      <trkpt lat="48.22662" lon="-4.38647">
        <ele>110.21</ele>
        <time>2013-04-14T11:55:39Z</time>
      </trkpt>
      <trkpt lat="48.2266" lon="-4.38677">
        <ele>111.65</ele>
        <time>2013-04-14T11:55:57Z</time>
      </trkpt>
      <trkpt lat="48.2266" lon="-4.38679">
        <ele>113.57</ele>
        <time>2013-04-14T11:55:58Z</time>
      </trkpt>
      <trkpt lat="48.22661" lon="-4.38686">
        <ele>112.61</ele>
        <time>2013-04-14T11:56:02Z</time>
      </trkpt>
      <trkpt lat="48.22659" lon="-4.38714">
        <ele>111.65</ele>
        <time>2013-04-14T11:56:19Z</time>
      </trkpt>
      <trkpt lat="48.22659" lon="-4.38744">
        <ele>111.65</ele>
        <time>2013-04-14T11:56:36Z</time>
      </trkpt>
      <trkpt lat="48.22659" lon="-4.38747">
        <ele>111.65</ele>
        <time>2013-04-14T11:56:38Z</time>
      </trkpt>
      <trkpt lat="48.22657" lon="-4.38776">
        <ele>111.17</ele>
        <time>2013-04-14T11:56:55Z</time>
      </trkpt>
      <trkpt lat="48.2266" lon="-4.38794">
        <ele>111.17</ele>
        <time>2013-04-14T11:57:09Z</time>
      </trkpt>
      <trkpt lat="48.22663" lon="-4.38795">
        <ele>111.17</ele>
        <time>2013-04-14T11:57:13Z</time>
      </trkpt>
      <trkpt lat="48.22678" lon="-4.38795">
        <ele>110.21</ele>
        <time>2013-04-14T11:57:30Z</time>
      </trkpt>
      <trkpt lat="48.22698" lon="-4.38793">
        <ele>109.25</ele>
        <time>2013-04-14T11:57:48Z</time>
      </trkpt>
      <trkpt lat="48.22713" lon="-4.38792">
        <ele>107.81</ele>
        <time>2013-04-14T11:58:02Z</time>
      </trkpt>
      <trkpt lat="48.22729" lon="-4.3879">
        <ele>107.32</ele>
        <time>2013-04-14T11:58:16Z</time>
      </trkpt>
      <trkpt lat="48.22747" lon="-4.38788">
        <ele>105.88</ele>
        <time>2013-04-14T11:58:31Z</time>
      </trkpt>
      <trkpt lat="48.22769" lon="-4.38787">
        <ele>104.44</ele>
        <time>2013-04-14T11:58:48Z</time>
      </trkpt>
      <trkpt lat="48.22788" lon="-4.38786">
        <ele>103.96</ele>
        <time>2013-04-14T11:59:05Z</time>
      </trkpt>
      <trkpt lat="48.22805" lon="-4.38786">
        <ele>103</ele>
        <time>2013-04-14T11:59:20Z</time>
      </trkpt>
      <trkpt lat="48.22809" lon="-4.38788">
        <ele>102.04</ele>
        <time>2013-04-14T11:59:35Z</time>
      </trkpt>
      <trkpt lat="48.22809" lon="-4.38791">
        <ele>102.52</ele>
        <time>2013-04-14T11:59:51Z</time>
      </trkpt>
      <trkpt lat="48.22809" lon="-4.38792">
        <ele>102.52</ele>
        <time>2013-04-14T12:01:19Z</time>
      </trkpt>
      <trkpt lat="48.22809" lon="-4.38794">
        <ele>102.04</ele>
        <time>2013-04-14T12:01:33Z</time>
      </trkpt>
      <trkpt lat="48.22807" lon="-4.38807">
        <ele>102.04</ele>
        <time>2013-04-14T12:01:41Z</time>
      </trkpt>
      <trkpt lat="48.22808" lon="-4.38827">
        <ele>102.52</ele>
        <time>2013-04-14T12:01:52Z</time>
      </trkpt>
      <trkpt lat="48.22806" lon="-4.38831">
        <ele>102.04</ele>
        <time>2013-04-14T12:01:55Z</time>
      </trkpt>
      <trkpt lat="48.22806" lon="-4.38838">
        <ele>102.04</ele>
        <time>2013-04-14T12:01:59Z</time>
      </trkpt>
      <trkpt lat="48.22805" lon="-4.38863">
        <ele>102.04</ele>
        <time>2013-04-14T12:02:14Z</time>
      </trkpt>
      <trkpt lat="48.22802" lon="-4.38888">
        <ele>101.56</ele>
        <time>2013-04-14T12:02:28Z</time>
      </trkpt>
      <trkpt lat="48.22802" lon="-4.38895">
        <ele>101.08</ele>
        <time>2013-04-14T12:02:32Z</time>
      </trkpt>
      <trkpt lat="48.22799" lon="-4.38924">
        <ele>101.08</ele>
        <time>2013-04-14T12:02:48Z</time>
      </trkpt>
      <trkpt lat="48.22799" lon="-4.38935">
        <ele>101.56</ele>
        <time>2013-04-14T12:02:54Z</time>
      </trkpt>
      <trkpt lat="48.22797" lon="-4.38953">
        <ele>101.08</ele>
        <time>2013-04-14T12:03:04Z</time>
      </trkpt>
      <trkpt lat="48.22796" lon="-4.38959">
        <ele>101.08</ele>
        <time>2013-04-14T12:03:08Z</time>
      </trkpt>
      <trkpt lat="48.22797" lon="-4.38962">
        <ele>101.08</ele>
        <time>2013-04-14T12:03:10Z</time>
      </trkpt>
      <trkpt lat="48.22795" lon="-4.38973">
        <ele>101.56</ele>
        <time>2013-04-14T12:03:16Z</time>
      </trkpt>
      <trkpt lat="48.22796" lon="-4.38979">
        <ele>100.11</ele>
        <time>2013-04-14T12:03:19Z</time>
      </trkpt>
      <trkpt lat="48.22795" lon="-4.38991">
        <ele>104.44</ele>
        <time>2013-04-14T12:03:24Z</time>
      </trkpt>
      <trkpt lat="48.22795" lon="-4.38993">
        <ele>102.52</ele>
        <time>2013-04-14T12:03:25Z</time>
      </trkpt>
      <trkpt lat="48.22795" lon="-4.38998">
        <ele>100.11</ele>
        <time>2013-04-14T12:03:28Z</time>
      </trkpt>
      <trkpt lat="48.22793" lon="-4.39014">
        <ele>100.11</ele>
        <time>2013-04-14T12:03:38Z</time>
      </trkpt>
      <trkpt lat="48.2279" lon="-4.39046">
        <ele>99.15</ele>
        <time>2013-04-14T12:03:57Z</time>
      </trkpt>
      <trkpt lat="48.22783" lon="-4.39079">
        <ele>98.67</ele>
        <time>2013-04-14T12:04:16Z</time>
      </trkpt>
      <trkpt lat="48.22776" lon="-4.39108">
        <ele>99.63</ele>
        <time>2013-04-14T12:04:33Z</time>
      </trkpt>
      <trkpt lat="48.22769" lon="-4.39135">
        <ele>99.63</ele>
        <time>2013-04-14T12:04:50Z</time>
      </trkpt>
      <trkpt lat="48.22762" lon="-4.3916">
        <ele>99.15</ele>
        <time>2013-04-14T12:05:06Z</time>
      </trkpt>
      <trkpt lat="48.22761" lon="-4.39162">
        <ele>99.15</ele>
        <time>2013-04-14T12:05:08Z</time>
      </trkpt>
      <trkpt lat="48.22754" lon="-4.39188">
        <ele>99.63</ele>
        <time>2013-04-14T12:05:25Z</time>
      </trkpt>
      <trkpt lat="48.2275" lon="-4.39195">
        <ele>99.63</ele>
        <time>2013-04-14T12:05:30Z</time>
      </trkpt>
      <trkpt lat="48.22744" lon="-4.39221">
        <ele>99.15</ele>
        <time>2013-04-14T12:05:47Z</time>
      </trkpt>
      <trkpt lat="48.22739" lon="-4.39237">
        <ele>100.11</ele>
        <time>2013-04-14T12:05:57Z</time>
      </trkpt>
      <trkpt lat="48.22736" lon="-4.39261">
        <ele>98.67</ele>
        <time>2013-04-14T12:06:11Z</time>
      </trkpt>
      <trkpt lat="48.22735" lon="-4.39279">
        <ele>98.67</ele>
        <time>2013-04-14T12:06:22Z</time>
      </trkpt>
      <trkpt lat="48.22737" lon="-4.39309">
        <ele>98.19</ele>
        <time>2013-04-14T12:06:40Z</time>
      </trkpt>
      <trkpt lat="48.22739" lon="-4.39338">
        <ele>98.19</ele>
        <time>2013-04-14T12:06:57Z</time>
      </trkpt>
      <trkpt lat="48.2274" lon="-4.39361">
        <ele>97.23</ele>
        <time>2013-04-14T12:07:11Z</time>
      </trkpt>
      <trkpt lat="48.22742" lon="-4.39391">
        <ele>97.71</ele>
        <time>2013-04-14T12:07:28Z</time>
      </trkpt>
      <trkpt lat="48.22745" lon="-4.39418">
        <ele>97.23</ele>
        <time>2013-04-14T12:07:44Z</time>
      </trkpt>
      <trkpt lat="48.22745" lon="-4.39419">
        <ele>97.23</ele>
        <time>2013-04-14T12:07:45Z</time>
      </trkpt>
      <trkpt lat="48.22747" lon="-4.39446">
        <ele>96.75</ele>
        <time>2013-04-14T12:08:01Z</time>
      </trkpt>
      <trkpt lat="48.22746" lon="-4.39455">
        <ele>96.75</ele>
        <time>2013-04-14T12:08:06Z</time>
      </trkpt>
      <trkpt lat="48.22747" lon="-4.3947">
        <ele>96.27</ele>
        <time>2013-04-14T12:08:14Z</time>
      </trkpt>
      <trkpt lat="48.22748" lon="-4.39499">
        <ele>95.31</ele>
        <time>2013-04-14T12:08:31Z</time>
      </trkpt>
      <trkpt lat="48.22751" lon="-4.39525">
        <ele>94.83</ele>
        <time>2013-04-14T12:08:47Z</time>
      </trkpt>
      <trkpt lat="48.22751" lon="-4.39547">
        <ele>93.87</ele>
        <time>2013-04-14T12:09:02Z</time>
      </trkpt>
      <trkpt lat="48.22752" lon="-4.39548">
        <ele>93.87</ele>
        <time>2013-04-14T12:09:04Z</time>
      </trkpt>
      <trkpt lat="48.22762" lon="-4.39565">
        <ele>93.39</ele>
        <time>2013-04-14T12:09:15Z</time>
      </trkpt>
      <trkpt lat="48.22775" lon="-4.39586">
        <ele>92.42</ele>
        <time>2013-04-14T12:09:31Z</time>
      </trkpt>
      <trkpt lat="48.22779" lon="-4.39591">
        <ele>91.46</ele>
        <time>2013-04-14T12:09:35Z</time>
      </trkpt>
      <trkpt lat="48.22795" lon="-4.39615">
        <ele>90.5</ele>
        <time>2013-04-14T12:09:54Z</time>
      </trkpt>
      <trkpt lat="48.22798" lon="-4.39619">
        <ele>90.02</ele>
        <time>2013-04-14T12:09:58Z</time>
      </trkpt>
      <trkpt lat="48.22804" lon="-4.39625">
        <ele>89.06</ele>
        <time>2013-04-14T12:10:04Z</time>
      </trkpt>
      <trkpt lat="48.22807" lon="-4.39629">
        <ele>89.06</ele>
        <time>2013-04-14T12:10:07Z</time>
      </trkpt>
      <trkpt lat="48.22819" lon="-4.39653">
        <ele>87.62</ele>
        <time>2013-04-14T12:10:25Z</time>
      </trkpt>
      <trkpt lat="48.22821" lon="-4.39655">
        <ele>87.62</ele>
        <time>2013-04-14T12:10:27Z</time>
      </trkpt>
      <trkpt lat="48.22835" lon="-4.39679">
        <ele>85.69</ele>
        <time>2013-04-14T12:10:45Z</time>
      </trkpt>
      <trkpt lat="48.22848" lon="-4.39704">
        <ele>83.77</ele>
        <time>2013-04-14T12:11:05Z</time>
      </trkpt>
      <trkpt lat="48.2285" lon="-4.39712">
        <ele>83.29</ele>
        <time>2013-04-14T12:11:10Z</time>
      </trkpt>
      <trkpt lat="48.2285" lon="-4.39716">
        <ele>82.81</ele>
        <time>2013-04-14T12:11:13Z</time>
      </trkpt>
      <trkpt lat="48.22859" lon="-4.39743">
        <ele>80.41</ele>
        <time>2013-04-14T12:11:32Z</time>
      </trkpt>
      <trkpt lat="48.2286" lon="-4.39746">
        <ele>80.41</ele>
        <time>2013-04-14T12:11:34Z</time>
      </trkpt>
      <trkpt lat="48.22862" lon="-4.39755">
        <ele>79.45</ele>
        <time>2013-04-14T12:11:40Z</time>
      </trkpt>
      <trkpt lat="48.22868" lon="-4.39772">
        <ele>78.48</ele>
        <time>2013-04-14T12:11:52Z</time>
      </trkpt>
      <trkpt lat="48.2287" lon="-4.39783">
        <ele>77.52</ele>
        <time>2013-04-14T12:11:59Z</time>
      </trkpt>
      <trkpt lat="48.22871" lon="-4.39786">
        <ele>77.04</ele>
        <time>2013-04-14T12:12:01Z</time>
      </trkpt>
      <trkpt lat="48.22876" lon="-4.39794">
        <ele>76.08</ele>
        <time>2013-04-14T12:12:08Z</time>
      </trkpt>
      <trkpt lat="48.22883" lon="-4.39814">
        <ele>75.12</ele>
        <time>2013-04-14T12:12:22Z</time>
      </trkpt>
      <trkpt lat="48.22885" lon="-4.39818">
        <ele>74.64</ele>
        <time>2013-04-14T12:12:25Z</time>
      </trkpt>
      <trkpt lat="48.22887" lon="-4.3982">
        <ele>74.64</ele>
        <time>2013-04-14T12:12:27Z</time>
      </trkpt>
      <trkpt lat="48.22893" lon="-4.3983">
        <ele>74.16</ele>
        <time>2013-04-14T12:12:41Z</time>
      </trkpt>
      <trkpt lat="48.22898" lon="-4.39834">
        <ele>73.2</ele>
        <time>2013-04-14T12:12:47Z</time>
      </trkpt>
      <trkpt lat="48.22916" lon="-4.39842">
        <ele>71.76</ele>
        <time>2013-04-14T12:13:04Z</time>
      </trkpt>
      <trkpt lat="48.22921" lon="-4.39841">
        <ele>71.27</ele>
        <time>2013-04-14T12:13:09Z</time>
      </trkpt>
      <trkpt lat="48.22925" lon="-4.39838">
        <ele>70.79</ele>
        <time>2013-04-14T12:13:13Z</time>
      </trkpt>
      <trkpt lat="48.22932" lon="-4.39836">
        <ele>69.83</ele>
        <time>2013-04-14T12:13:19Z</time>
      </trkpt>
      <trkpt lat="48.22939" lon="-4.39836">
        <ele>69.35</ele>
        <time>2013-04-14T12:13:27Z</time>
      </trkpt>
      <trkpt lat="48.22958" lon="-4.39851">
        <ele>68.39</ele>
        <time>2013-04-14T12:13:45Z</time>
      </trkpt>
      <trkpt lat="48.22959" lon="-4.39852">
        <ele>68.39</ele>
        <time>2013-04-14T12:13:46Z</time>
      </trkpt>
      <trkpt lat="48.22969" lon="-4.3986">
        <ele>68.39</ele>
        <time>2013-04-14T12:13:56Z</time>
      </trkpt>
      <trkpt lat="48.22985" lon="-4.39875">
        <ele>66.47</ele>
        <time>2013-04-14T12:14:13Z</time>
      </trkpt>
      <trkpt lat="48.23002" lon="-4.39892">
        <ele>65.51</ele>
        <time>2013-04-14T12:14:31Z</time>
      </trkpt>
      <trkpt lat="48.23014" lon="-4.39904">
        <ele>65.03</ele>
        <time>2013-04-14T12:14:44Z</time>
      </trkpt>
      <trkpt lat="48.23033" lon="-4.39917">
        <ele>63.58</ele>
        <time>2013-04-14T12:15:02Z</time>
      </trkpt>
      <trkpt lat="48.23048" lon="-4.39928">
        <ele>62.62</ele>
        <time>2013-04-14T12:15:18Z</time>
      </trkpt>
      <trkpt lat="48.2306" lon="-4.39936">
        <ele>62.14</ele>
        <time>2013-04-14T12:15:28Z</time>
      </trkpt>
      <trkpt lat="48.23063" lon="-4.39938">
        <ele>61.66</ele>
        <time>2013-04-14T12:15:31Z</time>
      </trkpt>
      <trkpt lat="48.23069" lon="-4.39944">
        <ele>61.18</ele>
        <time>2013-04-14T12:15:39Z</time>
      </trkpt>
      <trkpt lat="48.23069" lon="-4.39956">
        <ele>61.66</ele>
        <time>2013-04-14T12:15:50Z</time>
      </trkpt>
      <trkpt lat="48.23068" lon="-4.39959">
        <ele>61.66</ele>
        <time>2013-04-14T12:15:52Z</time>
      </trkpt>
      <trkpt lat="48.23057" lon="-4.39972">
        <ele>62.14</ele>
        <time>2013-04-14T12:16:08Z</time>
      </trkpt>
      <trkpt lat="48.23049" lon="-4.39989">
        <ele>61.66</ele>
        <time>2013-04-14T12:16:25Z</time>
      </trkpt>
      <trkpt lat="48.23049" lon="-4.39993">
        <ele>63.58</ele>
        <time>2013-04-14T12:16:28Z</time>
      </trkpt>
      <trkpt lat="48.23049" lon="-4.39994">
        <ele>63.58</ele>
        <time>2013-04-14T12:16:35Z</time>
      </trkpt>
      <trkpt lat="48.23043" lon="-4.39992">
        <ele>64.07</ele>
        <time>2013-04-14T12:16:41Z</time>
      </trkpt>
      <trkpt lat="48.23035" lon="-4.39999">
        <ele>64.07</ele>
        <time>2013-04-14T12:16:55Z</time>
      </trkpt>
      <trkpt lat="48.23035" lon="-4.4">
        <ele>64.55</ele>
        <time>2013-04-14T12:17:34Z</time>
      </trkpt>
      <trkpt lat="48.23041" lon="-4.39996">
        <ele>63.58</ele>
        <time>2013-04-14T12:17:41Z</time>
      </trkpt>
      <trkpt lat="48.23051" lon="-4.4">
        <ele>63.1</ele>
        <time>2013-04-14T12:17:55Z</time>
      </trkpt>
      <trkpt lat="48.23053" lon="-4.4">
        <ele>63.1</ele>
        <time>2013-04-14T12:18:17Z</time>
      </trkpt>
      <trkpt lat="48.23053" lon="-4.40001">
        <ele>63.1</ele>
        <time>2013-04-14T12:19:02Z</time>
      </trkpt>
      <trkpt lat="48.23061" lon="-4.40015">
        <ele>62.14</ele>
        <time>2013-04-14T12:19:13Z</time>
      </trkpt>
      <trkpt lat="48.23079" lon="-4.40038">
        <ele>61.18</ele>
        <time>2013-04-14T12:19:34Z</time>
      </trkpt>
      <trkpt lat="48.23085" lon="-4.40047">
        <ele>60.7</ele>
        <time>2013-04-14T12:19:41Z</time>
      </trkpt>
      <trkpt lat="48.23103" lon="-4.40068">
        <ele>59.74</ele>
        <time>2013-04-14T12:20:01Z</time>
      </trkpt>
      <trkpt lat="48.23118" lon="-4.40086">
        <ele>57.82</ele>
        <time>2013-04-14T12:20:18Z</time>
      </trkpt>
      <trkpt lat="48.23131" lon="-4.40101">
        <ele>56.37</ele>
        <time>2013-04-14T12:20:32Z</time>
      </trkpt>
      <trkpt lat="48.23147" lon="-4.40122">
        <ele>54.45</ele>
        <time>2013-04-14T12:20:50Z</time>
      </trkpt>
      <trkpt lat="48.2316" lon="-4.4014">
        <ele>53.49</ele>
        <time>2013-04-14T12:21:06Z</time>
      </trkpt>
      <trkpt lat="48.2317" lon="-4.40153">
        <ele>52.53</ele>
        <time>2013-04-14T12:21:17Z</time>
      </trkpt>
      <trkpt lat="48.2318" lon="-4.40167">
        <ele>51.57</ele>
        <time>2013-04-14T12:21:29Z</time>
      </trkpt>
      <trkpt lat="48.23184" lon="-4.40172">
        <ele>51.09</ele>
        <time>2013-04-14T12:21:33Z</time>
      </trkpt>
      <trkpt lat="48.23198" lon="-4.4019">
        <ele>49.65</ele>
        <time>2013-04-14T12:21:50Z</time>
      </trkpt>
      <trkpt lat="48.23214" lon="-4.40214">
        <ele>47.72</ele>
        <time>2013-04-14T12:22:09Z</time>
      </trkpt>
      <trkpt lat="48.23226" lon="-4.40236">
        <ele>45.32</ele>
        <time>2013-04-14T12:22:26Z</time>
      </trkpt>
      <trkpt lat="48.23237" lon="-4.40254">
        <ele>43.88</ele>
        <time>2013-04-14T12:22:41Z</time>
      </trkpt>
      <trkpt lat="48.23247" lon="-4.40272">
        <ele>42.92</ele>
        <time>2013-04-14T12:22:57Z</time>
      </trkpt>
      <trkpt lat="48.23257" lon="-4.40292">
        <ele>41.47</ele>
        <time>2013-04-14T12:23:13Z</time>
      </trkpt>
      <trkpt lat="48.23265" lon="-4.40313">
        <ele>40.03</ele>
        <time>2013-04-14T12:23:31Z</time>
      </trkpt>
      <trkpt lat="48.23269" lon="-4.40323">
        <ele>39.55</ele>
        <time>2013-04-14T12:23:39Z</time>
      </trkpt>
      <trkpt lat="48.23277" lon="-4.4033">
        <ele>39.55</ele>
        <time>2013-04-14T12:23:54Z</time>
      </trkpt>
      <trkpt lat="48.23277" lon="-4.40329">
        <ele>40.03</ele>
        <time>2013-04-14T12:24:16Z</time>
      </trkpt>
      <trkpt lat="48.23277" lon="-4.40329">
        <ele>39.55</ele>
        <time>2013-04-14T12:24:59Z</time>
      </trkpt>
      <trkpt lat="48.23275" lon="-4.40327">
        <ele>40.03</ele>
        <time>2013-04-14T12:25:29Z</time>
      </trkpt>
      <trkpt lat="48.23277" lon="-4.40327">
        <ele>40.03</ele>
        <time>2013-04-14T12:25:41Z</time>
      </trkpt>
      <trkpt lat="48.23279" lon="-4.40326">
        <ele>39.07</ele>
        <time>2013-04-14T12:25:54Z</time>
      </trkpt>
      <trkpt lat="48.23279" lon="-4.40325">
        <ele>38.59</ele>
        <time>2013-04-14T12:26:09Z</time>
      </trkpt>
      <trkpt lat="48.2328" lon="-4.40326">
        <ele>39.07</ele>
        <time>2013-04-14T12:26:37Z</time>
      </trkpt>
      <trkpt lat="48.2328" lon="-4.40329">
        <ele>38.59</ele>
        <time>2013-04-14T12:26:40Z</time>
      </trkpt>
      <trkpt lat="48.23283" lon="-4.40331">
        <ele>39.07</ele>
        <time>2013-04-14T12:26:43Z</time>
      </trkpt>
      <trkpt lat="48.23286" lon="-4.40331">
        <ele>38.59</ele>
        <time>2013-04-14T12:27:05Z</time>
      </trkpt>
      <trkpt lat="48.2328" lon="-4.40329">
        <ele>39.55</ele>
        <time>2013-04-14T12:28:03Z</time>
      </trkpt>
      <trkpt lat="48.23274" lon="-4.4033">
        <ele>39.07</ele>
        <time>2013-04-14T12:28:19Z</time>
      </trkpt>
      <trkpt lat="48.23277" lon="-4.4033">
        <ele>39.55</ele>
        <time>2013-04-14T12:28:37Z</time>
      </trkpt>
      <trkpt lat="48.23278" lon="-4.40332">
        <ele>39.55</ele>
        <time>2013-04-14T12:28:56Z</time>
      </trkpt>
      <trkpt lat="48.23279" lon="-4.40331">
        <ele>39.55</ele>
        <time>2013-04-14T12:28:59Z</time>
      </trkpt>
      <trkpt lat="48.2328" lon="-4.40329">
        <ele>38.59</ele>
        <time>2013-04-14T12:29:03Z</time>
      </trkpt>
      <trkpt lat="48.2328" lon="-4.40329">
        <ele>39.07</ele>
        <time>2013-04-14T12:29:35Z</time>
      </trkpt>
      <trkpt lat="48.23281" lon="-4.4033">
        <ele>39.07</ele>
        <time>2013-04-14T12:29:37Z</time>
      </trkpt>
      <trkpt lat="48.23285" lon="-4.40332">
        <ele>38.59</ele>
        <time>2013-04-14T12:29:42Z</time>
      </trkpt>
      <trkpt lat="48.23287" lon="-4.40331">
        <ele>38.59</ele>
        <time>2013-04-14T12:30:03Z</time>
      </trkpt>
      <trkpt lat="48.2329" lon="-4.40333">
        <ele>38.59</ele>
        <time>2013-04-14T12:30:17Z</time>
      </trkpt>
      <trkpt lat="48.2329" lon="-4.40333">
        <ele>38.59</ele>
        <time>2013-04-14T12:30:21Z</time>
      </trkpt>
      <trkpt lat="48.23297" lon="-4.40337">
        <ele>38.11</ele>
        <time>2013-04-14T12:30:27Z</time>
      </trkpt>
      <trkpt lat="48.23298" lon="-4.40339">
        <ele>37.63</ele>
        <time>2013-04-14T12:30:31Z</time>
      </trkpt>
      <trkpt lat="48.23315" lon="-4.40362">
        <ele>36.67</ele>
        <time>2013-04-14T12:30:49Z</time>
      </trkpt>
      <trkpt lat="48.23329" lon="-4.40378">
        <ele>36.19</ele>
        <time>2013-04-14T12:31:04Z</time>
      </trkpt>
      <trkpt lat="48.23337" lon="-4.40395">
        <ele>36.19</ele>
        <time>2013-04-14T12:31:14Z</time>
      </trkpt>
      <trkpt lat="48.23341" lon="-4.40404">
        <ele>36.19</ele>
        <time>2013-04-14T12:31:20Z</time>
      </trkpt>
      <trkpt lat="48.23354" lon="-4.40437">
        <ele>35.23</ele>
        <time>2013-04-14T12:31:41Z</time>
      </trkpt>
      <trkpt lat="48.2336" lon="-4.40465">
        <ele>35.23</ele>
        <time>2013-04-14T12:31:58Z</time>
      </trkpt>
      <trkpt lat="48.2336" lon="-4.4049">
        <ele>36.19</ele>
        <time>2013-04-14T12:32:13Z</time>
      </trkpt>
      <trkpt lat="48.23359" lon="-4.40496">
        <ele>37.15</ele>
        <time>2013-04-14T12:32:17Z</time>
      </trkpt>
      <trkpt lat="48.23358" lon="-4.40507">
        <ele>36.67</ele>
        <time>2013-04-14T12:32:23Z</time>
      </trkpt>
      <trkpt lat="48.23359" lon="-4.40539">
        <ele>37.63</ele>
        <time>2013-04-14T12:32:42Z</time>
      </trkpt>
      <trkpt lat="48.23363" lon="-4.40568">
        <ele>37.15</ele>
        <time>2013-04-14T12:32:58Z</time>
      </trkpt>
      <trkpt lat="48.23366" lon="-4.40579">
        <ele>38.11</ele>
        <time>2013-04-14T12:33:05Z</time>
      </trkpt>
      <trkpt lat="48.23379" lon="-4.40609">
        <ele>39.07</ele>
        <time>2013-04-14T12:33:25Z</time>
      </trkpt>
      <trkpt lat="48.23382" lon="-4.40615">
        <ele>39.07</ele>
        <time>2013-04-14T12:33:29Z</time>
      </trkpt>
      <trkpt lat="48.23392" lon="-4.40633">
        <ele>39.55</ele>
        <time>2013-04-14T12:33:42Z</time>
      </trkpt>
      <trkpt lat="48.23407" lon="-4.4066">
        <ele>40.51</ele>
        <time>2013-04-14T12:34:02Z</time>
      </trkpt>
      <trkpt lat="48.23422" lon="-4.40681">
        <ele>40.99</ele>
        <time>2013-04-14T12:34:19Z</time>
      </trkpt>
      <trkpt lat="48.23427" lon="-4.40687">
        <ele>41.95</ele>
        <time>2013-04-14T12:34:24Z</time>
      </trkpt>
      <trkpt lat="48.2344" lon="-4.40704">
        <ele>41.47</ele>
        <time>2013-04-14T12:34:40Z</time>
      </trkpt>
      <trkpt lat="48.23445" lon="-4.40711">
        <ele>41.95</ele>
        <time>2013-04-14T12:34:53Z</time>
      </trkpt>
      <trkpt lat="48.23445" lon="-4.40738">
        <ele>42.92</ele>
        <time>2013-04-14T12:35:09Z</time>
      </trkpt>
      <trkpt lat="48.2344" lon="-4.40766">
        <ele>42.92</ele>
        <time>2013-04-14T12:35:24Z</time>
      </trkpt>
      <trkpt lat="48.23434" lon="-4.40792">
        <ele>43.4</ele>
        <time>2013-04-14T12:35:40Z</time>
      </trkpt>
      <trkpt lat="48.23425" lon="-4.40825">
        <ele>43.88</ele>
        <time>2013-04-14T12:35:59Z</time>
      </trkpt>
      <trkpt lat="48.23424" lon="-4.40826">
        <ele>43.88</ele>
        <time>2013-04-14T12:36:00Z</time>
      </trkpt>
      <trkpt lat="48.23419" lon="-4.40838">
        <ele>44.36</ele>
        <time>2013-04-14T12:36:07Z</time>
      </trkpt>
      <trkpt lat="48.23417" lon="-4.40847">
        <ele>43.88</ele>
        <time>2013-04-14T12:36:12Z</time>
      </trkpt>
      <trkpt lat="48.23412" lon="-4.40878">
        <ele>43.88</ele>
        <time>2013-04-14T12:36:29Z</time>
      </trkpt>
      <trkpt lat="48.23409" lon="-4.40913">
        <ele>43.4</ele>
        <time>2013-04-14T12:36:48Z</time>
      </trkpt>
      <trkpt lat="48.23407" lon="-4.40931">
        <ele>44.36</ele>
        <time>2013-04-14T12:36:58Z</time>
      </trkpt>
      <trkpt lat="48.23406" lon="-4.40933">
        <ele>44.36</ele>
        <time>2013-04-14T12:36:59Z</time>
      </trkpt>
      <trkpt lat="48.234" lon="-4.40963">
        <ele>44.36</ele>
        <time>2013-04-14T12:37:16Z</time>
      </trkpt>
      <trkpt lat="48.23398" lon="-4.40969">
        <ele>44.36</ele>
        <time>2013-04-14T12:37:20Z</time>
      </trkpt>
      <trkpt lat="48.23397" lon="-4.40982">
        <ele>45.32</ele>
        <time>2013-04-14T12:37:27Z</time>
      </trkpt>
      <trkpt lat="48.23393" lon="-4.41014">
        <ele>44.36</ele>
        <time>2013-04-14T12:37:44Z</time>
      </trkpt>
      <trkpt lat="48.23391" lon="-4.41026">
        <ele>45.8</ele>
        <time>2013-04-14T12:37:50Z</time>
      </trkpt>
      <trkpt lat="48.23388" lon="-4.41049">
        <ele>44.36</ele>
        <time>2013-04-14T12:38:03Z</time>
      </trkpt>
      <trkpt lat="48.23379" lon="-4.41081">
        <ele>45.32</ele>
        <time>2013-04-14T12:38:22Z</time>
      </trkpt>
      <trkpt lat="48.23375" lon="-4.41092">
        <ele>44.36</ele>
        <time>2013-04-14T12:38:29Z</time>
      </trkpt>
      <trkpt lat="48.23362" lon="-4.41126">
        <ele>44.36</ele>
        <time>2013-04-14T12:38:49Z</time>
      </trkpt>
      <trkpt lat="48.23358" lon="-4.41136">
        <ele>42.92</ele>
        <time>2013-04-14T12:38:55Z</time>
      </trkpt>
      <trkpt lat="48.23346" lon="-4.41164">
        <ele>43.4</ele>
        <time>2013-04-14T12:39:13Z</time>
      </trkpt>
      <trkpt lat="48.23333" lon="-4.41197">
        <ele>41.47</ele>
        <time>2013-04-14T12:39:33Z</time>
      </trkpt>
      <trkpt lat="48.23319" lon="-4.41231">
        <ele>41.47</ele>
        <time>2013-04-14T12:39:54Z</time>
      </trkpt>
      <trkpt lat="48.2331" lon="-4.41265">
        <ele>40.51</ele>
        <time>2013-04-14T12:40:14Z</time>
      </trkpt>
      <trkpt lat="48.23303" lon="-4.413">
        <ele>40.03</ele>
        <time>2013-04-14T12:40:33Z</time>
      </trkpt>
      <trkpt lat="48.233" lon="-4.41332">
        <ele>39.07</ele>
        <time>2013-04-14T12:40:51Z</time>
      </trkpt>
      <trkpt lat="48.233" lon="-4.41349">
        <ele>38.11</ele>
        <time>2013-04-14T12:41:00Z</time>
      </trkpt>
      <trkpt lat="48.23302" lon="-4.41357">
        <ele>37.63</ele>
        <time>2013-04-14T12:41:05Z</time>
      </trkpt>
      <trkpt lat="48.23306" lon="-4.4139">
        <ele>36.67</ele>
        <time>2013-04-14T12:41:23Z</time>
      </trkpt>
      <trkpt lat="48.23309" lon="-4.41402">
        <ele>36.67</ele>
        <time>2013-04-14T12:41:30Z</time>
      </trkpt>
      <trkpt lat="48.23315" lon="-4.41426">
        <ele>35.71</ele>
        <time>2013-04-14T12:41:44Z</time>
      </trkpt>
      <trkpt lat="48.23324" lon="-4.41453">
        <ele>34.26</ele>
        <time>2013-04-14T12:42:01Z</time>
      </trkpt>
      <trkpt lat="48.23332" lon="-4.4147">
        <ele>34.74</ele>
        <time>2013-04-14T12:42:13Z</time>
      </trkpt>
      <trkpt lat="48.23335" lon="-4.41481">
        <ele>33.78</ele>
        <time>2013-04-14T12:42:20Z</time>
      </trkpt>
      <trkpt lat="48.23337" lon="-4.41488">
        <ele>34.26</ele>
        <time>2013-04-14T12:42:24Z</time>
      </trkpt>
      <trkpt lat="48.23343" lon="-4.41516">
        <ele>33.3</ele>
        <time>2013-04-14T12:42:40Z</time>
      </trkpt>
      <trkpt lat="48.23345" lon="-4.41525">
        <ele>32.82</ele>
        <time>2013-04-14T12:42:46Z</time>
      </trkpt>
      <trkpt lat="48.23346" lon="-4.41555">
        <ele>32.34</ele>
        <time>2013-04-14T12:43:02Z</time>
      </trkpt>
      <trkpt lat="48.23347" lon="-4.4158">
        <ele>33.3</ele>
        <time>2013-04-14T12:43:20Z</time>
      </trkpt>
      <trkpt lat="48.23346" lon="-4.41585">
        <ele>33.3</ele>
        <time>2013-04-14T12:43:24Z</time>
      </trkpt>
      <trkpt lat="48.23347" lon="-4.41589">
        <ele>32.82</ele>
        <time>2013-04-14T12:43:26Z</time>
      </trkpt>
      <trkpt lat="48.23342" lon="-4.41622">
        <ele>31.86</ele>
        <time>2013-04-14T12:43:46Z</time>
      </trkpt>
      <trkpt lat="48.2334" lon="-4.41631">
        <ele>33.78</ele>
        <time>2013-04-14T12:44:00Z</time>
      </trkpt>
      <trkpt lat="48.23339" lon="-4.41632">
        <ele>33.78</ele>
        <time>2013-04-14T12:44:23Z</time>
      </trkpt>
      <trkpt lat="48.23339" lon="-4.41633">
        <ele>33.3</ele>
        <time>2013-04-14T12:45:12Z</time>
      </trkpt>
      <trkpt lat="48.23339" lon="-4.41633">
        <ele>34.26</ele>
        <time>2013-04-14T12:46:07Z</time>
      </trkpt>
      <trkpt lat="48.23339" lon="-4.41633">
        <ele>33.3</ele>
        <time>2013-04-14T12:46:41Z</time>
      </trkpt>
      <trkpt lat="48.23339" lon="-4.41633">
        <ele>28.98</ele>
        <time>2013-04-14T12:47:06Z</time>
      </trkpt>
      <trkpt lat="48.23339" lon="-4.41633">
        <ele>33.78</ele>
        <time>2013-04-14T12:47:07Z</time>
      </trkpt>
      <trkpt lat="48.23338" lon="-4.41633">
        <ele>33.3</ele>
        <time>2013-04-14T12:47:53Z</time>
      </trkpt>
      <trkpt lat="48.23338" lon="-4.41633">
        <ele>33.3</ele>
        <time>2013-04-14T12:48:20Z</time>
      </trkpt>
      <trkpt lat="48.23337" lon="-4.41636">
        <ele>34.26</ele>
        <time>2013-04-14T12:48:40Z</time>
      </trkpt>
      <trkpt lat="48.23337" lon="-4.41636">
        <ele>33.78</ele>
        <time>2013-04-14T12:49:04Z</time>
      </trkpt>
      <trkpt lat="48.23335" lon="-4.41637">
        <ele>33.78</ele>
        <time>2013-04-14T12:49:26Z</time>
      </trkpt>
      <trkpt lat="48.23331" lon="-4.41641">
        <ele>33.3</ele>
        <time>2013-04-14T12:49:30Z</time>
      </trkpt>
      <trkpt lat="48.23327" lon="-4.41646">
        <ele>34.26</ele>
        <time>2013-04-14T12:49:36Z</time>
      </trkpt>
      <trkpt lat="48.2332" lon="-4.4165">
        <ele>33.78</ele>
        <time>2013-04-14T12:49:43Z</time>
      </trkpt>
      <trkpt lat="48.23303" lon="-4.41656">
        <ele>34.74</ele>
        <time>2013-04-14T12:49:57Z</time>
      </trkpt>
      <trkpt lat="48.23297" lon="-4.4166">
        <ele>34.74</ele>
        <time>2013-04-14T12:50:02Z</time>
      </trkpt>
      <trkpt lat="48.23289" lon="-4.4167">
        <ele>35.71</ele>
        <time>2013-04-14T12:50:13Z</time>
      </trkpt>
      <trkpt lat="48.23284" lon="-4.41683">
        <ele>35.71</ele>
        <time>2013-04-14T12:50:28Z</time>
      </trkpt>
      <trkpt lat="48.23275" lon="-4.41709">
        <ele>36.19</ele>
        <time>2013-04-14T12:50:43Z</time>
      </trkpt>
      <trkpt lat="48.23267" lon="-4.41726">
        <ele>36.67</ele>
        <time>2013-04-14T12:50:57Z</time>
      </trkpt>
      <trkpt lat="48.23259" lon="-4.41748">
        <ele>35.71</ele>
        <time>2013-04-14T12:51:12Z</time>
      </trkpt>
      <trkpt lat="48.23257" lon="-4.41753">
        <ele>36.19</ele>
        <time>2013-04-14T12:51:15Z</time>
      </trkpt>
      <trkpt lat="48.23255" lon="-4.41765">
        <ele>36.19</ele>
        <time>2013-04-14T12:51:21Z</time>
      </trkpt>
      <trkpt lat="48.23248" lon="-4.41789">
        <ele>35.71</ele>
        <time>2013-04-14T12:51:36Z</time>
      </trkpt>
      <trkpt lat="48.23243" lon="-4.41801">
        <ele>35.71</ele>
        <time>2013-04-14T12:51:45Z</time>
      </trkpt>
      <trkpt lat="48.23233" lon="-4.4183">
        <ele>35.71</ele>
        <time>2013-04-14T12:52:02Z</time>
      </trkpt>
      <trkpt lat="48.23229" lon="-4.41843">
        <ele>35.71</ele>
        <time>2013-04-14T12:52:10Z</time>
      </trkpt>
      <trkpt lat="48.23226" lon="-4.41847">
        <ele>35.71</ele>
        <time>2013-04-14T12:52:13Z</time>
      </trkpt>
      <trkpt lat="48.23218" lon="-4.41876">
        <ele>36.19</ele>
        <time>2013-04-14T12:52:31Z</time>
      </trkpt>
      <trkpt lat="48.23215" lon="-4.41885">
        <ele>35.71</ele>
        <time>2013-04-14T12:52:37Z</time>
      </trkpt>
      <trkpt lat="48.23205" lon="-4.4191">
        <ele>36.19</ele>
        <time>2013-04-14T12:52:54Z</time>
      </trkpt>
      <trkpt lat="48.23203" lon="-4.41917">
        <ele>35.71</ele>
        <time>2013-04-14T12:52:59Z</time>
      </trkpt>
      <trkpt lat="48.23198" lon="-4.41946">
        <ele>36.19</ele>
        <time>2013-04-14T12:53:16Z</time>
      </trkpt>
      <trkpt lat="48.232" lon="-4.41958">
        <ele>35.71</ele>
        <time>2013-04-14T12:53:31Z</time>
      </trkpt>
      <trkpt lat="48.23201" lon="-4.41969">
        <ele>36.19</ele>
        <time>2013-04-14T12:53:45Z</time>
      </trkpt>
      <trkpt lat="48.23205" lon="-4.41986">
        <ele>35.71</ele>
        <time>2013-04-14T12:53:57Z</time>
      </trkpt>
      <trkpt lat="48.23207" lon="-4.41998">
        <ele>35.71</ele>
        <time>2013-04-14T12:54:04Z</time>
      </trkpt>
      <trkpt lat="48.23211" lon="-4.42011">
        <ele>34.26</ele>
        <time>2013-04-14T12:54:13Z</time>
      </trkpt>
      <trkpt lat="48.23213" lon="-4.42022">
        <ele>34.26</ele>
        <time>2013-04-14T12:54:21Z</time>
      </trkpt>
      <trkpt lat="48.23217" lon="-4.4203">
        <ele>33.78</ele>
        <time>2013-04-14T12:54:27Z</time>
      </trkpt>
      <trkpt lat="48.23223" lon="-4.42041">
        <ele>31.38</ele>
        <time>2013-04-14T12:54:35Z</time>
      </trkpt>
      <trkpt lat="48.23224" lon="-4.42043">
        <ele>31.86</ele>
        <time>2013-04-14T12:54:37Z</time>
      </trkpt>
      <trkpt lat="48.23226" lon="-4.42044">
        <ele>31.86</ele>
        <time>2013-04-14T12:54:44Z</time>
      </trkpt>
      <trkpt lat="48.23241" lon="-4.42064">
        <ele>30.42</ele>
        <time>2013-04-14T12:55:02Z</time>
      </trkpt>
      <trkpt lat="48.2325" lon="-4.42071">
        <ele>29.94</ele>
        <time>2013-04-14T12:55:15Z</time>
      </trkpt>
      <trkpt lat="48.23264" lon="-4.42085">
        <ele>28.5</ele>
        <time>2013-04-14T12:55:32Z</time>
      </trkpt>
      <trkpt lat="48.23271" lon="-4.42093">
        <ele>28.5</ele>
        <time>2013-04-14T12:55:38Z</time>
      </trkpt>
      <trkpt lat="48.23277" lon="-4.42098">
        <ele>27.53</ele>
        <time>2013-04-14T12:55:44Z</time>
      </trkpt>
      <trkpt lat="48.23283" lon="-4.42103">
        <ele>27.05</ele>
        <time>2013-04-14T12:55:51Z</time>
      </trkpt>
      <trkpt lat="48.23287" lon="-4.42106">
        <ele>26.57</ele>
        <time>2013-04-14T12:55:55Z</time>
      </trkpt>
      <trkpt lat="48.23304" lon="-4.4212">
        <ele>26.57</ele>
        <time>2013-04-14T12:56:11Z</time>
      </trkpt>
      <trkpt lat="48.23314" lon="-4.4213">
        <ele>26.57</ele>
        <time>2013-04-14T12:56:22Z</time>
      </trkpt>
      <trkpt lat="48.23329" lon="-4.42147">
        <ele>26.57</ele>
        <time>2013-04-14T12:56:38Z</time>
      </trkpt>
      <trkpt lat="48.23336" lon="-4.42154">
        <ele>26.09</ele>
        <time>2013-04-14T12:56:45Z</time>
      </trkpt>
      <trkpt lat="48.23356" lon="-4.42167">
        <ele>26.09</ele>
        <time>2013-04-14T12:57:03Z</time>
      </trkpt>
      <trkpt lat="48.23371" lon="-4.42185">
        <ele>26.09</ele>
        <time>2013-04-14T12:57:19Z</time>
      </trkpt>
      <trkpt lat="48.23375" lon="-4.42193">
        <ele>26.09</ele>
        <time>2013-04-14T12:57:25Z</time>
      </trkpt>
      <trkpt lat="48.23382" lon="-4.42204">
        <ele>25.61</ele>
        <time>2013-04-14T12:57:34Z</time>
      </trkpt>
      <trkpt lat="48.23389" lon="-4.42237">
        <ele>25.61</ele>
        <time>2013-04-14T12:57:54Z</time>
      </trkpt>
      <trkpt lat="48.23389" lon="-4.42244">
        <ele>25.13</ele>
        <time>2013-04-14T12:57:58Z</time>
      </trkpt>
      <trkpt lat="48.23391" lon="-4.42257">
        <ele>25.13</ele>
        <time>2013-04-14T12:58:05Z</time>
      </trkpt>
      <trkpt lat="48.23394" lon="-4.42271">
        <ele>24.65</ele>
        <time>2013-04-14T12:58:13Z</time>
      </trkpt>
      <trkpt lat="48.23397" lon="-4.4229">
        <ele>24.65</ele>
        <time>2013-04-14T12:58:25Z</time>
      </trkpt>
      <trkpt lat="48.23398" lon="-4.42299">
        <ele>23.69</ele>
        <time>2013-04-14T12:58:31Z</time>
      </trkpt>
      <trkpt lat="48.234" lon="-4.42309">
        <ele>22.73</ele>
        <time>2013-04-14T12:58:37Z</time>
      </trkpt>
      <trkpt lat="48.23405" lon="-4.42335">
        <ele>21.77</ele>
        <time>2013-04-14T12:58:54Z</time>
      </trkpt>
      <trkpt lat="48.23407" lon="-4.42342">
        <ele>22.25</ele>
        <time>2013-04-14T12:58:58Z</time>
      </trkpt>
      <trkpt lat="48.23411" lon="-4.42371">
        <ele>19.84</ele>
        <time>2013-04-14T12:59:16Z</time>
      </trkpt>
      <trkpt lat="48.23411" lon="-4.42375">
        <ele>19.84</ele>
        <time>2013-04-14T12:59:18Z</time>
      </trkpt>
      <trkpt lat="48.23411" lon="-4.424">
        <ele>18.88</ele>
        <time>2013-04-14T12:59:34Z</time>
      </trkpt>
      <trkpt lat="48.23409" lon="-4.4241">
        <ele>18.88</ele>
        <time>2013-04-14T12:59:40Z</time>
      </trkpt>
      <trkpt lat="48.23408" lon="-4.42417">
        <ele>18.88</ele>
        <time>2013-04-14T12:59:44Z</time>
      </trkpt>
      <trkpt lat="48.23407" lon="-4.4242">
        <ele>18.88</ele>
        <time>2013-04-14T12:59:46Z</time>
      </trkpt>
      <trkpt lat="48.23399" lon="-4.4245">
        <ele>19.36</ele>
        <time>2013-04-14T13:00:04Z</time>
      </trkpt>
      <trkpt lat="48.23393" lon="-4.42473">
        <ele>18.4</ele>
        <time>2013-04-14T13:00:18Z</time>
      </trkpt>
      <trkpt lat="48.2339" lon="-4.42487">
        <ele>18.4</ele>
        <time>2013-04-14T13:00:27Z</time>
      </trkpt>
      <trkpt lat="48.23389" lon="-4.42515">
        <ele>17.44</ele>
        <time>2013-04-14T13:00:43Z</time>
      </trkpt>
      <trkpt lat="48.23396" lon="-4.42546">
        <ele>16.96</ele>
        <time>2013-04-14T13:01:02Z</time>
      </trkpt>
      <trkpt lat="48.23403" lon="-4.42577">
        <ele>15.04</ele>
        <time>2013-04-14T13:01:22Z</time>
      </trkpt>
      <trkpt lat="48.23406" lon="-4.42588">
        <ele>14.56</ele>
        <time>2013-04-14T13:01:29Z</time>
      </trkpt>
      <trkpt lat="48.23414" lon="-4.42601">
        <ele>13.12</ele>
        <time>2013-04-14T13:01:40Z</time>
      </trkpt>
      <trkpt lat="48.23425" lon="-4.42618">
        <ele>12.63</ele>
        <time>2013-04-14T13:01:53Z</time>
      </trkpt>
      <trkpt lat="48.2344" lon="-4.42642">
        <ele>10.71</ele>
        <time>2013-04-14T13:02:13Z</time>
      </trkpt>
      <trkpt lat="48.23452" lon="-4.42667">
        <ele>9.27</ele>
        <time>2013-04-14T13:02:31Z</time>
      </trkpt>
      <trkpt lat="48.23462" lon="-4.42691">
        <ele>7.83</ele>
        <time>2013-04-14T13:02:49Z</time>
      </trkpt>
      <trkpt lat="48.2347" lon="-4.42719">
        <ele>5.91</ele>
        <time>2013-04-14T13:03:06Z</time>
      </trkpt>
      <trkpt lat="48.23478" lon="-4.42749">
        <ele>3.5</ele>
        <time>2013-04-14T13:03:25Z</time>
      </trkpt>
      <trkpt lat="48.23483" lon="-4.42764">
        <ele>3.5</ele>
        <time>2013-04-14T13:03:36Z</time>
      </trkpt>
      <trkpt lat="48.23485" lon="-4.42773">
        <ele>3.5</ele>
        <time>2013-04-14T13:03:41Z</time>
      </trkpt>
      <trkpt lat="48.23494" lon="-4.42804">
        <ele>2.06</ele>
        <time>2013-04-14T13:04:01Z</time>
      </trkpt>
      <trkpt lat="48.23495" lon="-4.42808">
        <ele>2.06</ele>
        <time>2013-04-14T13:04:03Z</time>
      </trkpt>
      <trkpt lat="48.23497" lon="-4.42826">
        <ele>3.02</ele>
        <time>2013-04-14T13:04:13Z</time>
      </trkpt>
      <trkpt lat="48.235" lon="-4.42833">
        <ele>3.02</ele>
        <time>2013-04-14T13:04:18Z</time>
      </trkpt>
      <trkpt lat="48.23502" lon="-4.42837">
        <ele>-0.34</ele>
        <time>2013-04-14T13:04:21Z</time>
      </trkpt>
      <trkpt lat="48.23502" lon="-4.42838">
        <ele>2.54</ele>
        <time>2013-04-14T13:04:22Z</time>
      </trkpt>
    </trkseg>
  </trk>
</gpx>